<?xml version="1.0" encoding="UTF-8" standalone="no" ?>
<gpx xmlns="http://www.topografix.com/GPX/1/1" xmlns:xsi="http://www.w3.org/2001/XMLSchema-instance" xsi:schemaLocation="http://www.topografix.com/GPX/1/1 http://www.topografix.com/GPX/1/1/gpx.xsd" version="1.1" creator="VisuGPX - https://www.visugpx.com">
  <metadata>
    <name>Saclay</name>
    <desc><![CDATA[Entre champs, la bièvre et petit village.]]></desc>
  </metadata>
  <trk>
    <name><![CDATA[13-JUIN-20 06:44:18 PM]]></name>
    <extensions>
      <line xmlns="http://www.topografix.com/GPX/gpx_style/0/2">
        <color>0000FF</color>
        <width>4</width>
      </line>
    </extensions>
    <trkseg>
      <trkpt lat="48.73052" lon="2.16159">
        <ele>181.83</ele>
        <time>2020-06-13T12:20:33Z</time>
      </trkpt>
      <trkpt lat="48.73055" lon="2.16141">
        <ele>181.35</ele>
        <time>2020-06-13T12:20:50Z</time>
      </trkpt>
      <trkpt lat="48.73062" lon="2.16111">
        <ele>181.35</ele>
        <time>2020-06-13T12:21:09Z</time>
      </trkpt>
      <trkpt lat="48.7307" lon="2.16073">
        <ele>181.35</ele>
        <time>2020-06-13T12:21:31Z</time>
      </trkpt>
      <trkpt lat="48.73077" lon="2.16039">
        <ele>180.87</ele>
        <time>2020-06-13T12:21:51Z</time>
      </trkpt>
      <trkpt lat="48.73082" lon="2.16018">
        <ele>180.38</ele>
        <time>2020-06-13T12:22:05Z</time>
      </trkpt>
      <trkpt lat="48.73094" lon="2.15994">
        <ele>180.87</ele>
        <time>2020-06-13T12:22:22Z</time>
      </trkpt>
      <trkpt lat="48.73106" lon="2.15974">
        <ele>180.87</ele>
        <time>2020-06-13T12:22:38Z</time>
      </trkpt>
      <trkpt lat="48.73112" lon="2.15962">
        <ele>181.35</ele>
        <time>2020-06-13T12:22:47Z</time>
      </trkpt>
      <trkpt lat="48.73123" lon="2.15947">
        <ele>179.9</ele>
        <time>2020-06-13T12:23:00Z</time>
      </trkpt>
      <trkpt lat="48.73135" lon="2.15931">
        <ele>180.38</ele>
        <time>2020-06-13T12:23:12Z</time>
      </trkpt>
      <trkpt lat="48.73148" lon="2.15914">
        <ele>179.9</ele>
        <time>2020-06-13T12:23:27Z</time>
      </trkpt>
      <trkpt lat="48.73159" lon="2.15898">
        <ele>179.42</ele>
        <time>2020-06-13T12:23:40Z</time>
      </trkpt>
      <trkpt lat="48.73175" lon="2.15877">
        <ele>178.94</ele>
        <time>2020-06-13T12:23:59Z</time>
      </trkpt>
      <trkpt lat="48.73191" lon="2.15855">
        <ele>179.42</ele>
        <time>2020-06-13T12:24:18Z</time>
      </trkpt>
      <trkpt lat="48.73206" lon="2.15839">
        <ele>178.94</ele>
        <time>2020-06-13T12:24:34Z</time>
      </trkpt>
      <trkpt lat="48.73218" lon="2.15826">
        <ele>178.46</ele>
        <time>2020-06-13T12:24:52Z</time>
      </trkpt>
      <trkpt lat="48.73228" lon="2.15815">
        <ele>178.46</ele>
        <time>2020-06-13T12:25:05Z</time>
      </trkpt>
      <trkpt lat="48.73233" lon="2.15813">
        <ele>178.46</ele>
        <time>2020-06-13T12:25:10Z</time>
      </trkpt>
      <trkpt lat="48.73234" lon="2.1581">
        <ele>177.98</ele>
        <time>2020-06-13T12:25:12Z</time>
      </trkpt>
      <trkpt lat="48.73235" lon="2.15807">
        <ele>177.98</ele>
        <time>2020-06-13T12:25:14Z</time>
      </trkpt>
      <trkpt lat="48.73249" lon="2.15792">
        <ele>177.98</ele>
        <time>2020-06-13T12:25:30Z</time>
      </trkpt>
      <trkpt lat="48.73257" lon="2.15785">
        <ele>177.5</ele>
        <time>2020-06-13T12:25:38Z</time>
      </trkpt>
      <trkpt lat="48.73272" lon="2.15769">
        <ele>177.98</ele>
        <time>2020-06-13T12:25:53Z</time>
      </trkpt>
      <trkpt lat="48.7329" lon="2.15752">
        <ele>177.5</ele>
        <time>2020-06-13T12:26:12Z</time>
      </trkpt>
      <trkpt lat="48.73301" lon="2.15744">
        <ele>177.98</ele>
        <time>2020-06-13T12:26:25Z</time>
      </trkpt>
      <trkpt lat="48.73315" lon="2.15732">
        <ele>177.5</ele>
        <time>2020-06-13T12:26:40Z</time>
      </trkpt>
      <trkpt lat="48.73337" lon="2.15713">
        <ele>177.5</ele>
        <time>2020-06-13T12:27:01Z</time>
      </trkpt>
      <trkpt lat="48.73354" lon="2.15697">
        <ele>177.02</ele>
        <time>2020-06-13T12:27:18Z</time>
      </trkpt>
      <trkpt lat="48.73371" lon="2.15674">
        <ele>177.02</ele>
        <time>2020-06-13T12:27:39Z</time>
      </trkpt>
      <trkpt lat="48.73382" lon="2.15654">
        <ele>176.06</ele>
        <time>2020-06-13T12:27:56Z</time>
      </trkpt>
      <trkpt lat="48.73395" lon="2.15629">
        <ele>176.54</ele>
        <time>2020-06-13T12:28:14Z</time>
      </trkpt>
      <trkpt lat="48.73403" lon="2.15609">
        <ele>176.06</ele>
        <time>2020-06-13T12:28:28Z</time>
      </trkpt>
      <trkpt lat="48.7341" lon="2.15593">
        <ele>175.58</ele>
        <time>2020-06-13T12:28:40Z</time>
      </trkpt>
      <trkpt lat="48.73416" lon="2.15574">
        <ele>175.58</ele>
        <time>2020-06-13T12:28:51Z</time>
      </trkpt>
      <trkpt lat="48.73418" lon="2.15572">
        <ele>176.06</ele>
        <time>2020-06-13T12:28:53Z</time>
      </trkpt>
      <trkpt lat="48.73426" lon="2.15547">
        <ele>175.58</ele>
        <time>2020-06-13T12:29:09Z</time>
      </trkpt>
      <trkpt lat="48.73433" lon="2.15526">
        <ele>175.1</ele>
        <time>2020-06-13T12:29:22Z</time>
      </trkpt>
      <trkpt lat="48.73439" lon="2.15504">
        <ele>175.58</ele>
        <time>2020-06-13T12:29:35Z</time>
      </trkpt>
      <trkpt lat="48.73447" lon="2.15479">
        <ele>175.1</ele>
        <time>2020-06-13T12:29:50Z</time>
      </trkpt>
      <trkpt lat="48.73455" lon="2.15451">
        <ele>175.1</ele>
        <time>2020-06-13T12:30:07Z</time>
      </trkpt>
      <trkpt lat="48.73462" lon="2.15427">
        <ele>174.14</ele>
        <time>2020-06-13T12:30:23Z</time>
      </trkpt>
      <trkpt lat="48.73464" lon="2.15416">
        <ele>174.14</ele>
        <time>2020-06-13T12:30:29Z</time>
      </trkpt>
      <trkpt lat="48.73468" lon="2.1541">
        <ele>174.62</ele>
        <time>2020-06-13T12:30:34Z</time>
      </trkpt>
      <trkpt lat="48.73476" lon="2.1538">
        <ele>174.62</ele>
        <time>2020-06-13T12:30:51Z</time>
      </trkpt>
      <trkpt lat="48.7348" lon="2.15362">
        <ele>174.14</ele>
        <time>2020-06-13T12:31:03Z</time>
      </trkpt>
      <trkpt lat="48.73487" lon="2.15342">
        <ele>174.14</ele>
        <time>2020-06-13T12:31:16Z</time>
      </trkpt>
      <trkpt lat="48.73496" lon="2.15316">
        <ele>173.66</ele>
        <time>2020-06-13T12:31:32Z</time>
      </trkpt>
      <trkpt lat="48.73508" lon="2.15295">
        <ele>173.17</ele>
        <time>2020-06-13T12:31:47Z</time>
      </trkpt>
      <trkpt lat="48.73518" lon="2.15268">
        <ele>172.21</ele>
        <time>2020-06-13T12:32:03Z</time>
      </trkpt>
      <trkpt lat="48.73529" lon="2.15243">
        <ele>172.21</ele>
        <time>2020-06-13T12:32:20Z</time>
      </trkpt>
      <trkpt lat="48.7354" lon="2.15223">
        <ele>171.25</ele>
        <time>2020-06-13T12:32:33Z</time>
      </trkpt>
      <trkpt lat="48.73549" lon="2.15203">
        <ele>171.25</ele>
        <time>2020-06-13T12:32:47Z</time>
      </trkpt>
      <trkpt lat="48.73559" lon="2.15173">
        <ele>171.25</ele>
        <time>2020-06-13T12:33:05Z</time>
      </trkpt>
      <trkpt lat="48.73561" lon="2.15165">
        <ele>170.77</ele>
        <time>2020-06-13T12:33:10Z</time>
      </trkpt>
      <trkpt lat="48.73574" lon="2.15135">
        <ele>170.77</ele>
        <time>2020-06-13T12:33:28Z</time>
      </trkpt>
      <trkpt lat="48.7358" lon="2.15121">
        <ele>170.77</ele>
        <time>2020-06-13T12:33:38Z</time>
      </trkpt>
      <trkpt lat="48.73581" lon="2.15119">
        <ele>170.77</ele>
        <time>2020-06-13T12:33:40Z</time>
      </trkpt>
      <trkpt lat="48.73587" lon="2.15102">
        <ele>170.77</ele>
        <time>2020-06-13T12:33:51Z</time>
      </trkpt>
      <trkpt lat="48.73592" lon="2.15088">
        <ele>170.77</ele>
        <time>2020-06-13T12:33:59Z</time>
      </trkpt>
      <trkpt lat="48.73602" lon="2.15067">
        <ele>170.29</ele>
        <time>2020-06-13T12:34:12Z</time>
      </trkpt>
      <trkpt lat="48.73603" lon="2.15062">
        <ele>170.77</ele>
        <time>2020-06-13T12:34:15Z</time>
      </trkpt>
      <trkpt lat="48.73614" lon="2.15038">
        <ele>171.25</ele>
        <time>2020-06-13T12:34:31Z</time>
      </trkpt>
      <trkpt lat="48.73625" lon="2.15012">
        <ele>170.77</ele>
        <time>2020-06-13T12:34:46Z</time>
      </trkpt>
      <trkpt lat="48.73635" lon="2.14989">
        <ele>170.77</ele>
        <time>2020-06-13T12:35:02Z</time>
      </trkpt>
      <trkpt lat="48.73646" lon="2.14966">
        <ele>171.25</ele>
        <time>2020-06-13T12:35:17Z</time>
      </trkpt>
      <trkpt lat="48.73655" lon="2.14943">
        <ele>171.73</ele>
        <time>2020-06-13T12:35:31Z</time>
      </trkpt>
      <trkpt lat="48.73664" lon="2.1492">
        <ele>171.25</ele>
        <time>2020-06-13T12:35:46Z</time>
      </trkpt>
      <trkpt lat="48.73672" lon="2.14901">
        <ele>171.25</ele>
        <time>2020-06-13T12:35:59Z</time>
      </trkpt>
      <trkpt lat="48.73683" lon="2.14878">
        <ele>171.25</ele>
        <time>2020-06-13T12:36:15Z</time>
      </trkpt>
      <trkpt lat="48.7369" lon="2.14862">
        <ele>170.77</ele>
        <time>2020-06-13T12:36:26Z</time>
      </trkpt>
      <trkpt lat="48.73702" lon="2.14838">
        <ele>171.25</ele>
        <time>2020-06-13T12:36:42Z</time>
      </trkpt>
      <trkpt lat="48.73711" lon="2.14815">
        <ele>171.25</ele>
        <time>2020-06-13T12:36:56Z</time>
      </trkpt>
      <trkpt lat="48.7372" lon="2.14793">
        <ele>171.25</ele>
        <time>2020-06-13T12:37:10Z</time>
      </trkpt>
      <trkpt lat="48.73732" lon="2.14768">
        <ele>171.25</ele>
        <time>2020-06-13T12:37:27Z</time>
      </trkpt>
      <trkpt lat="48.73742" lon="2.14747">
        <ele>171.25</ele>
        <time>2020-06-13T12:37:41Z</time>
      </trkpt>
      <trkpt lat="48.73751" lon="2.14723">
        <ele>170.77</ele>
        <time>2020-06-13T12:37:56Z</time>
      </trkpt>
      <trkpt lat="48.73762" lon="2.147">
        <ele>171.25</ele>
        <time>2020-06-13T12:38:12Z</time>
      </trkpt>
      <trkpt lat="48.7377" lon="2.14683">
        <ele>172.21</ele>
        <time>2020-06-13T12:38:23Z</time>
      </trkpt>
      <trkpt lat="48.73773" lon="2.14678">
        <ele>172.21</ele>
        <time>2020-06-13T12:38:27Z</time>
      </trkpt>
      <trkpt lat="48.73776" lon="2.14672">
        <ele>171.73</ele>
        <time>2020-06-13T12:38:31Z</time>
      </trkpt>
      <trkpt lat="48.73787" lon="2.14647">
        <ele>170.77</ele>
        <time>2020-06-13T12:38:48Z</time>
      </trkpt>
      <trkpt lat="48.73797" lon="2.1462">
        <ele>170.77</ele>
        <time>2020-06-13T12:39:05Z</time>
      </trkpt>
      <trkpt lat="48.73809" lon="2.14593">
        <ele>171.25</ele>
        <time>2020-06-13T12:39:22Z</time>
      </trkpt>
      <trkpt lat="48.73817" lon="2.14576">
        <ele>170.29</ele>
        <time>2020-06-13T12:39:35Z</time>
      </trkpt>
      <trkpt lat="48.73824" lon="2.14559">
        <ele>170.77</ele>
        <time>2020-06-13T12:39:46Z</time>
      </trkpt>
      <trkpt lat="48.73828" lon="2.14551">
        <ele>170.29</ele>
        <time>2020-06-13T12:39:51Z</time>
      </trkpt>
      <trkpt lat="48.7384" lon="2.14523">
        <ele>170.29</ele>
        <time>2020-06-13T12:40:09Z</time>
      </trkpt>
      <trkpt lat="48.73851" lon="2.14498">
        <ele>169.81</ele>
        <time>2020-06-13T12:40:25Z</time>
      </trkpt>
      <trkpt lat="48.7386" lon="2.14477">
        <ele>169.81</ele>
        <time>2020-06-13T12:40:40Z</time>
      </trkpt>
      <trkpt lat="48.73872" lon="2.14449">
        <ele>169.81</ele>
        <time>2020-06-13T12:40:57Z</time>
      </trkpt>
      <trkpt lat="48.73882" lon="2.14428">
        <ele>170.29</ele>
        <time>2020-06-13T12:41:12Z</time>
      </trkpt>
      <trkpt lat="48.73891" lon="2.14405">
        <ele>170.29</ele>
        <time>2020-06-13T12:41:27Z</time>
      </trkpt>
      <trkpt lat="48.73894" lon="2.14399">
        <ele>169.81</ele>
        <time>2020-06-13T12:41:31Z</time>
      </trkpt>
      <trkpt lat="48.73899" lon="2.14388">
        <ele>170.29</ele>
        <time>2020-06-13T12:41:39Z</time>
      </trkpt>
      <trkpt lat="48.73912" lon="2.14366">
        <ele>169.33</ele>
        <time>2020-06-13T12:41:56Z</time>
      </trkpt>
      <trkpt lat="48.73923" lon="2.14344">
        <ele>168.37</ele>
        <time>2020-06-13T12:42:12Z</time>
      </trkpt>
      <trkpt lat="48.73934" lon="2.14328">
        <ele>168.37</ele>
        <time>2020-06-13T12:42:24Z</time>
      </trkpt>
      <trkpt lat="48.73936" lon="2.14322">
        <ele>168.37</ele>
        <time>2020-06-13T12:42:40Z</time>
      </trkpt>
      <trkpt lat="48.73949" lon="2.14309">
        <ele>167.41</ele>
        <time>2020-06-13T12:42:55Z</time>
      </trkpt>
      <trkpt lat="48.73959" lon="2.14298">
        <ele>167.89</ele>
        <time>2020-06-13T12:43:06Z</time>
      </trkpt>
      <trkpt lat="48.73964" lon="2.14292">
        <ele>167.89</ele>
        <time>2020-06-13T12:43:12Z</time>
      </trkpt>
      <trkpt lat="48.73976" lon="2.14277">
        <ele>167.41</ele>
        <time>2020-06-13T12:43:26Z</time>
      </trkpt>
      <trkpt lat="48.73984" lon="2.14265">
        <ele>166.93</ele>
        <time>2020-06-13T12:43:39Z</time>
      </trkpt>
      <trkpt lat="48.7399" lon="2.14258">
        <ele>166.93</ele>
        <time>2020-06-13T12:43:46Z</time>
      </trkpt>
      <trkpt lat="48.74002" lon="2.14245">
        <ele>166.45</ele>
        <time>2020-06-13T12:44:00Z</time>
      </trkpt>
      <trkpt lat="48.74012" lon="2.14233">
        <ele>165.96</ele>
        <time>2020-06-13T12:44:11Z</time>
      </trkpt>
      <trkpt lat="48.74025" lon="2.14218">
        <ele>165.96</ele>
        <time>2020-06-13T12:44:26Z</time>
      </trkpt>
      <trkpt lat="48.74037" lon="2.14205">
        <ele>165.96</ele>
        <time>2020-06-13T12:44:40Z</time>
      </trkpt>
      <trkpt lat="48.74049" lon="2.1419">
        <ele>165.48</ele>
        <time>2020-06-13T12:44:54Z</time>
      </trkpt>
      <trkpt lat="48.74058" lon="2.14182">
        <ele>165.48</ele>
        <time>2020-06-13T12:45:10Z</time>
      </trkpt>
      <trkpt lat="48.74061" lon="2.14176">
        <ele>165.48</ele>
        <time>2020-06-13T12:45:14Z</time>
      </trkpt>
      <trkpt lat="48.74076" lon="2.1416">
        <ele>164.52</ele>
        <time>2020-06-13T12:45:31Z</time>
      </trkpt>
      <trkpt lat="48.74083" lon="2.14152">
        <ele>165</ele>
        <time>2020-06-13T12:45:42Z</time>
      </trkpt>
      <trkpt lat="48.74088" lon="2.14145">
        <ele>165</ele>
        <time>2020-06-13T12:45:47Z</time>
      </trkpt>
      <trkpt lat="48.74094" lon="2.14139">
        <ele>164.04</ele>
        <time>2020-06-13T12:46:02Z</time>
      </trkpt>
      <trkpt lat="48.74095" lon="2.14135">
        <ele>164.04</ele>
        <time>2020-06-13T12:46:07Z</time>
      </trkpt>
      <trkpt lat="48.74115" lon="2.14111">
        <ele>163.56</ele>
        <time>2020-06-13T12:46:27Z</time>
      </trkpt>
      <trkpt lat="48.74133" lon="2.14091">
        <ele>162.6</ele>
        <time>2020-06-13T12:46:44Z</time>
      </trkpt>
      <trkpt lat="48.7415" lon="2.14072">
        <ele>162.12</ele>
        <time>2020-06-13T12:47:02Z</time>
      </trkpt>
      <trkpt lat="48.74158" lon="2.14064">
        <ele>161.64</ele>
        <time>2020-06-13T12:47:13Z</time>
      </trkpt>
      <trkpt lat="48.74172" lon="2.14048">
        <ele>161.16</ele>
        <time>2020-06-13T12:47:27Z</time>
      </trkpt>
      <trkpt lat="48.74188" lon="2.14028">
        <ele>160.68</ele>
        <time>2020-06-13T12:47:44Z</time>
      </trkpt>
      <trkpt lat="48.74207" lon="2.14009">
        <ele>160.68</ele>
        <time>2020-06-13T12:48:02Z</time>
      </trkpt>
      <trkpt lat="48.74212" lon="2.14012">
        <ele>160.68</ele>
        <time>2020-06-13T12:48:18Z</time>
      </trkpt>
      <trkpt lat="48.7421" lon="2.14011">
        <ele>160.2</ele>
        <time>2020-06-13T12:48:39Z</time>
      </trkpt>
      <trkpt lat="48.74212" lon="2.14005">
        <ele>159.72</ele>
        <time>2020-06-13T12:48:50Z</time>
      </trkpt>
      <trkpt lat="48.74214" lon="2.14001">
        <ele>160.2</ele>
        <time>2020-06-13T12:48:53Z</time>
      </trkpt>
      <trkpt lat="48.74216" lon="2.13998">
        <ele>159.24</ele>
        <time>2020-06-13T12:48:55Z</time>
      </trkpt>
      <trkpt lat="48.74218" lon="2.13992">
        <ele>159.72</ele>
        <time>2020-06-13T12:48:58Z</time>
      </trkpt>
      <trkpt lat="48.74217" lon="2.1399">
        <ele>159.24</ele>
        <time>2020-06-13T12:48:59Z</time>
      </trkpt>
      <trkpt lat="48.74216" lon="2.13988">
        <ele>158.75</ele>
        <time>2020-06-13T12:49:00Z</time>
      </trkpt>
      <trkpt lat="48.74212" lon="2.13988">
        <ele>159.24</ele>
        <time>2020-06-13T12:49:09Z</time>
      </trkpt>
      <trkpt lat="48.74211" lon="2.1399">
        <ele>159.24</ele>
        <time>2020-06-13T12:49:27Z</time>
      </trkpt>
      <trkpt lat="48.74212" lon="2.13989">
        <ele>158.75</ele>
        <time>2020-06-13T12:49:53Z</time>
      </trkpt>
      <trkpt lat="48.74211" lon="2.13989">
        <ele>158.27</ele>
        <time>2020-06-13T12:50:12Z</time>
      </trkpt>
      <trkpt lat="48.74215" lon="2.1399">
        <ele>158.27</ele>
        <time>2020-06-13T12:50:24Z</time>
      </trkpt>
      <trkpt lat="48.74217" lon="2.13989">
        <ele>157.79</ele>
        <time>2020-06-13T12:50:28Z</time>
      </trkpt>
      <trkpt lat="48.74224" lon="2.13982">
        <ele>157.79</ele>
        <time>2020-06-13T12:50:38Z</time>
      </trkpt>
      <trkpt lat="48.74234" lon="2.13973">
        <ele>157.79</ele>
        <time>2020-06-13T12:50:49Z</time>
      </trkpt>
      <trkpt lat="48.74243" lon="2.13966">
        <ele>156.83</ele>
        <time>2020-06-13T12:51:00Z</time>
      </trkpt>
      <trkpt lat="48.74249" lon="2.13962">
        <ele>156.83</ele>
        <time>2020-06-13T12:51:09Z</time>
      </trkpt>
      <trkpt lat="48.7426" lon="2.13948">
        <ele>155.87</ele>
        <time>2020-06-13T12:51:21Z</time>
      </trkpt>
      <trkpt lat="48.74267" lon="2.13942">
        <ele>156.35</ele>
        <time>2020-06-13T12:51:33Z</time>
      </trkpt>
      <trkpt lat="48.74278" lon="2.13936">
        <ele>155.87</ele>
        <time>2020-06-13T12:51:44Z</time>
      </trkpt>
      <trkpt lat="48.7429" lon="2.1395">
        <ele>155.39</ele>
        <time>2020-06-13T12:52:01Z</time>
      </trkpt>
      <trkpt lat="48.74298" lon="2.13958">
        <ele>155.87</ele>
        <time>2020-06-13T12:52:07Z</time>
      </trkpt>
      <trkpt lat="48.74311" lon="2.13975">
        <ele>155.39</ele>
        <time>2020-06-13T12:52:23Z</time>
      </trkpt>
      <trkpt lat="48.74321" lon="2.1399">
        <ele>155.39</ele>
        <time>2020-06-13T12:52:37Z</time>
      </trkpt>
      <trkpt lat="48.74325" lon="2.13995">
        <ele>155.39</ele>
        <time>2020-06-13T12:52:52Z</time>
      </trkpt>
      <trkpt lat="48.74329" lon="2.14002">
        <ele>155.39</ele>
        <time>2020-06-13T12:53:12Z</time>
      </trkpt>
      <trkpt lat="48.74335" lon="2.14008">
        <ele>154.91</ele>
        <time>2020-06-13T12:53:31Z</time>
      </trkpt>
      <trkpt lat="48.74346" lon="2.14024">
        <ele>155.39</ele>
        <time>2020-06-13T12:53:48Z</time>
      </trkpt>
      <trkpt lat="48.74356" lon="2.14042">
        <ele>154.91</ele>
        <time>2020-06-13T12:54:03Z</time>
      </trkpt>
      <trkpt lat="48.74357" lon="2.14043">
        <ele>154.91</ele>
        <time>2020-06-13T12:54:04Z</time>
      </trkpt>
      <trkpt lat="48.74368" lon="2.14063">
        <ele>154.91</ele>
        <time>2020-06-13T12:54:20Z</time>
      </trkpt>
      <trkpt lat="48.7438" lon="2.14081">
        <ele>154.91</ele>
        <time>2020-06-13T12:54:35Z</time>
      </trkpt>
      <trkpt lat="48.74394" lon="2.14104">
        <ele>154.43</ele>
        <time>2020-06-13T12:54:52Z</time>
      </trkpt>
      <trkpt lat="48.74412" lon="2.14131">
        <ele>153.95</ele>
        <time>2020-06-13T12:55:12Z</time>
      </trkpt>
      <trkpt lat="48.74417" lon="2.14155">
        <ele>152.99</ele>
        <time>2020-06-13T12:55:29Z</time>
      </trkpt>
      <trkpt lat="48.74419" lon="2.14165">
        <ele>152.99</ele>
        <time>2020-06-13T12:55:34Z</time>
      </trkpt>
      <trkpt lat="48.74428" lon="2.14192">
        <ele>153.47</ele>
        <time>2020-06-13T12:55:49Z</time>
      </trkpt>
      <trkpt lat="48.74434" lon="2.14211">
        <ele>152.03</ele>
        <time>2020-06-13T12:56:04Z</time>
      </trkpt>
      <trkpt lat="48.74441" lon="2.14229">
        <ele>152.03</ele>
        <time>2020-06-13T12:56:17Z</time>
      </trkpt>
      <trkpt lat="48.74446" lon="2.14248">
        <ele>152.51</ele>
        <time>2020-06-13T12:56:31Z</time>
      </trkpt>
      <trkpt lat="48.74453" lon="2.14266">
        <ele>152.03</ele>
        <time>2020-06-13T12:56:43Z</time>
      </trkpt>
      <trkpt lat="48.74461" lon="2.14285">
        <ele>152.03</ele>
        <time>2020-06-13T12:56:57Z</time>
      </trkpt>
      <trkpt lat="48.74471" lon="2.14307">
        <ele>152.51</ele>
        <time>2020-06-13T12:57:13Z</time>
      </trkpt>
      <trkpt lat="48.74478" lon="2.14323">
        <ele>152.51</ele>
        <time>2020-06-13T12:57:24Z</time>
      </trkpt>
      <trkpt lat="48.74493" lon="2.14349">
        <ele>151.54</ele>
        <time>2020-06-13T12:57:44Z</time>
      </trkpt>
      <trkpt lat="48.74507" lon="2.14362">
        <ele>152.03</ele>
        <time>2020-06-13T12:57:59Z</time>
      </trkpt>
      <trkpt lat="48.74518" lon="2.1437">
        <ele>152.03</ele>
        <time>2020-06-13T12:58:12Z</time>
      </trkpt>
      <trkpt lat="48.74532" lon="2.14375">
        <ele>151.06</ele>
        <time>2020-06-13T12:58:26Z</time>
      </trkpt>
      <trkpt lat="48.74552" lon="2.14374">
        <ele>151.06</ele>
        <time>2020-06-13T12:58:42Z</time>
      </trkpt>
      <trkpt lat="48.74566" lon="2.14375">
        <ele>151.06</ele>
        <time>2020-06-13T12:58:55Z</time>
      </trkpt>
      <trkpt lat="48.74573" lon="2.14376">
        <ele>151.06</ele>
        <time>2020-06-13T12:59:02Z</time>
      </trkpt>
      <trkpt lat="48.74574" lon="2.14377">
        <ele>151.06</ele>
        <time>2020-06-13T12:59:03Z</time>
      </trkpt>
      <trkpt lat="48.74595" lon="2.14381">
        <ele>152.03</ele>
        <time>2020-06-13T12:59:20Z</time>
      </trkpt>
      <trkpt lat="48.74597" lon="2.14383">
        <ele>152.03</ele>
        <time>2020-06-13T12:59:23Z</time>
      </trkpt>
      <trkpt lat="48.74615" lon="2.14387">
        <ele>152.03</ele>
        <time>2020-06-13T12:59:41Z</time>
      </trkpt>
      <trkpt lat="48.74632" lon="2.14396">
        <ele>152.51</ele>
        <time>2020-06-13T12:59:58Z</time>
      </trkpt>
      <trkpt lat="48.74647" lon="2.14403">
        <ele>152.51</ele>
        <time>2020-06-13T13:00:13Z</time>
      </trkpt>
      <trkpt lat="48.74658" lon="2.14408">
        <ele>152.99</ele>
        <time>2020-06-13T13:00:25Z</time>
      </trkpt>
      <trkpt lat="48.74662" lon="2.14407">
        <ele>152.99</ele>
        <time>2020-06-13T13:00:38Z</time>
      </trkpt>
      <trkpt lat="48.74664" lon="2.1441">
        <ele>152.51</ele>
        <time>2020-06-13T13:00:41Z</time>
      </trkpt>
      <trkpt lat="48.74676" lon="2.14418">
        <ele>152.99</ele>
        <time>2020-06-13T13:00:52Z</time>
      </trkpt>
      <trkpt lat="48.74689" lon="2.1443">
        <ele>153.95</ele>
        <time>2020-06-13T13:01:05Z</time>
      </trkpt>
      <trkpt lat="48.74692" lon="2.14432">
        <ele>153.95</ele>
        <time>2020-06-13T13:01:08Z</time>
      </trkpt>
      <trkpt lat="48.74696" lon="2.14439">
        <ele>153.47</ele>
        <time>2020-06-13T13:01:18Z</time>
      </trkpt>
      <trkpt lat="48.74697" lon="2.1444">
        <ele>153.47</ele>
        <time>2020-06-13T13:01:19Z</time>
      </trkpt>
      <trkpt lat="48.74699" lon="2.1444">
        <ele>153.47</ele>
        <time>2020-06-13T13:01:20Z</time>
      </trkpt>
      <trkpt lat="48.747" lon="2.14439">
        <ele>153.47</ele>
        <time>2020-06-13T13:01:21Z</time>
      </trkpt>
      <trkpt lat="48.74706" lon="2.14422">
        <ele>152.99</ele>
        <time>2020-06-13T13:01:36Z</time>
      </trkpt>
      <trkpt lat="48.74706" lon="2.14421">
        <ele>152.51</ele>
        <time>2020-06-13T13:01:37Z</time>
      </trkpt>
      <trkpt lat="48.74716" lon="2.14407">
        <ele>152.03</ele>
        <time>2020-06-13T13:01:48Z</time>
      </trkpt>
      <trkpt lat="48.74729" lon="2.14382">
        <ele>151.54</ele>
        <time>2020-06-13T13:02:07Z</time>
      </trkpt>
      <trkpt lat="48.74741" lon="2.14355">
        <ele>151.06</ele>
        <time>2020-06-13T13:02:23Z</time>
      </trkpt>
      <trkpt lat="48.74749" lon="2.14337">
        <ele>150.58</ele>
        <time>2020-06-13T13:02:35Z</time>
      </trkpt>
      <trkpt lat="48.74755" lon="2.14331">
        <ele>150.1</ele>
        <time>2020-06-13T13:02:48Z</time>
      </trkpt>
      <trkpt lat="48.74765" lon="2.14315">
        <ele>149.62</ele>
        <time>2020-06-13T13:03:06Z</time>
      </trkpt>
      <trkpt lat="48.74763" lon="2.14309">
        <ele>149.62</ele>
        <time>2020-06-13T13:03:22Z</time>
      </trkpt>
      <trkpt lat="48.74766" lon="2.14305">
        <ele>149.62</ele>
        <time>2020-06-13T13:03:33Z</time>
      </trkpt>
      <trkpt lat="48.74772" lon="2.14287">
        <ele>149.14</ele>
        <time>2020-06-13T13:03:43Z</time>
      </trkpt>
      <trkpt lat="48.74781" lon="2.14269">
        <ele>147.7</ele>
        <time>2020-06-13T13:03:58Z</time>
      </trkpt>
      <trkpt lat="48.74787" lon="2.14261">
        <ele>146.74</ele>
        <time>2020-06-13T13:04:12Z</time>
      </trkpt>
      <trkpt lat="48.74789" lon="2.1426">
        <ele>146.26</ele>
        <time>2020-06-13T13:04:24Z</time>
      </trkpt>
      <trkpt lat="48.748" lon="2.14235">
        <ele>146.26</ele>
        <time>2020-06-13T13:04:39Z</time>
      </trkpt>
      <trkpt lat="48.74814" lon="2.14218">
        <ele>145.3</ele>
        <time>2020-06-13T13:04:54Z</time>
      </trkpt>
      <trkpt lat="48.74813" lon="2.14216">
        <ele>145.3</ele>
        <time>2020-06-13T13:04:56Z</time>
      </trkpt>
      <trkpt lat="48.7482" lon="2.14207">
        <ele>145.3</ele>
        <time>2020-06-13T13:05:08Z</time>
      </trkpt>
      <trkpt lat="48.74827" lon="2.142">
        <ele>144.82</ele>
        <time>2020-06-13T13:05:15Z</time>
      </trkpt>
      <trkpt lat="48.74844" lon="2.14192">
        <ele>144.34</ele>
        <time>2020-06-13T13:05:31Z</time>
      </trkpt>
      <trkpt lat="48.7486" lon="2.14193">
        <ele>143.85</ele>
        <time>2020-06-13T13:05:46Z</time>
      </trkpt>
      <trkpt lat="48.74871" lon="2.14198">
        <ele>144.34</ele>
        <time>2020-06-13T13:05:56Z</time>
      </trkpt>
      <trkpt lat="48.74872" lon="2.14199">
        <ele>144.34</ele>
        <time>2020-06-13T13:05:57Z</time>
      </trkpt>
      <trkpt lat="48.74883" lon="2.14202">
        <ele>144.34</ele>
        <time>2020-06-13T13:06:10Z</time>
      </trkpt>
      <trkpt lat="48.74888" lon="2.14205">
        <ele>144.34</ele>
        <time>2020-06-13T13:06:14Z</time>
      </trkpt>
      <trkpt lat="48.74892" lon="2.14206">
        <ele>144.34</ele>
        <time>2020-06-13T13:06:17Z</time>
      </trkpt>
      <trkpt lat="48.7491" lon="2.14216">
        <ele>143.85</ele>
        <time>2020-06-13T13:06:34Z</time>
      </trkpt>
      <trkpt lat="48.74928" lon="2.14225">
        <ele>144.34</ele>
        <time>2020-06-13T13:06:52Z</time>
      </trkpt>
      <trkpt lat="48.7494" lon="2.14231">
        <ele>143.85</ele>
        <time>2020-06-13T13:07:04Z</time>
      </trkpt>
      <trkpt lat="48.74955" lon="2.1424">
        <ele>144.34</ele>
        <time>2020-06-13T13:07:18Z</time>
      </trkpt>
      <trkpt lat="48.74968" lon="2.14245">
        <ele>143.85</ele>
        <time>2020-06-13T13:07:32Z</time>
      </trkpt>
      <trkpt lat="48.74983" lon="2.14253">
        <ele>144.34</ele>
        <time>2020-06-13T13:07:46Z</time>
      </trkpt>
      <trkpt lat="48.74993" lon="2.14258">
        <ele>144.34</ele>
        <time>2020-06-13T13:08:00Z</time>
      </trkpt>
      <trkpt lat="48.75005" lon="2.14268">
        <ele>144.34</ele>
        <time>2020-06-13T13:08:14Z</time>
      </trkpt>
      <trkpt lat="48.75018" lon="2.14276">
        <ele>144.82</ele>
        <time>2020-06-13T13:08:30Z</time>
      </trkpt>
      <trkpt lat="48.75032" lon="2.1429">
        <ele>144.82</ele>
        <time>2020-06-13T13:08:45Z</time>
      </trkpt>
      <trkpt lat="48.75049" lon="2.14306">
        <ele>145.78</ele>
        <time>2020-06-13T13:09:04Z</time>
      </trkpt>
      <trkpt lat="48.75065" lon="2.14324">
        <ele>145.78</ele>
        <time>2020-06-13T13:09:22Z</time>
      </trkpt>
      <trkpt lat="48.7508" lon="2.14339">
        <ele>146.74</ele>
        <time>2020-06-13T13:09:40Z</time>
      </trkpt>
      <trkpt lat="48.75092" lon="2.14353">
        <ele>147.7</ele>
        <time>2020-06-13T13:09:53Z</time>
      </trkpt>
      <trkpt lat="48.75104" lon="2.14367">
        <ele>147.7</ele>
        <time>2020-06-13T13:10:07Z</time>
      </trkpt>
      <trkpt lat="48.7512" lon="2.14385">
        <ele>148.18</ele>
        <time>2020-06-13T13:10:26Z</time>
      </trkpt>
      <trkpt lat="48.75129" lon="2.1439">
        <ele>148.66</ele>
        <time>2020-06-13T13:10:41Z</time>
      </trkpt>
      <trkpt lat="48.7514" lon="2.14402">
        <ele>149.14</ele>
        <time>2020-06-13T13:10:55Z</time>
      </trkpt>
      <trkpt lat="48.75155" lon="2.14417">
        <ele>150.58</ele>
        <time>2020-06-13T13:11:13Z</time>
      </trkpt>
      <trkpt lat="48.75168" lon="2.14426">
        <ele>151.06</ele>
        <time>2020-06-13T13:11:28Z</time>
      </trkpt>
      <trkpt lat="48.75186" lon="2.14433">
        <ele>151.06</ele>
        <time>2020-06-13T13:11:45Z</time>
      </trkpt>
      <trkpt lat="48.75194" lon="2.14438">
        <ele>152.03</ele>
        <time>2020-06-13T13:11:59Z</time>
      </trkpt>
      <trkpt lat="48.75206" lon="2.1444">
        <ele>152.03</ele>
        <time>2020-06-13T13:12:11Z</time>
      </trkpt>
      <trkpt lat="48.75221" lon="2.14441">
        <ele>152.51</ele>
        <time>2020-06-13T13:12:23Z</time>
      </trkpt>
      <trkpt lat="48.75222" lon="2.14441">
        <ele>152.51</ele>
        <time>2020-06-13T13:12:24Z</time>
      </trkpt>
      <trkpt lat="48.75224" lon="2.1444">
        <ele>152.51</ele>
        <time>2020-06-13T13:12:25Z</time>
      </trkpt>
      <trkpt lat="48.75225" lon="2.14439">
        <ele>152.51</ele>
        <time>2020-06-13T13:12:26Z</time>
      </trkpt>
      <trkpt lat="48.7524" lon="2.14434">
        <ele>152.99</ele>
        <time>2020-06-13T13:12:43Z</time>
      </trkpt>
      <trkpt lat="48.7526" lon="2.14435">
        <ele>153.47</ele>
        <time>2020-06-13T13:13:02Z</time>
      </trkpt>
      <trkpt lat="48.75273" lon="2.14432">
        <ele>154.91</ele>
        <time>2020-06-13T13:13:16Z</time>
      </trkpt>
      <trkpt lat="48.75283" lon="2.14424">
        <ele>154.43</ele>
        <time>2020-06-13T13:13:31Z</time>
      </trkpt>
      <trkpt lat="48.75301" lon="2.14407">
        <ele>154.43</ele>
        <time>2020-06-13T13:13:48Z</time>
      </trkpt>
      <trkpt lat="48.75316" lon="2.14387">
        <ele>154.91</ele>
        <time>2020-06-13T13:14:06Z</time>
      </trkpt>
      <trkpt lat="48.75329" lon="2.14368">
        <ele>155.39</ele>
        <time>2020-06-13T13:14:20Z</time>
      </trkpt>
      <trkpt lat="48.75339" lon="2.14351">
        <ele>155.87</ele>
        <time>2020-06-13T13:14:33Z</time>
      </trkpt>
      <trkpt lat="48.7534" lon="2.14345">
        <ele>155.39</ele>
        <time>2020-06-13T13:14:36Z</time>
      </trkpt>
      <trkpt lat="48.75341" lon="2.14342">
        <ele>155.39</ele>
        <time>2020-06-13T13:14:39Z</time>
      </trkpt>
      <trkpt lat="48.75342" lon="2.1433">
        <ele>155.39</ele>
        <time>2020-06-13T13:14:56Z</time>
      </trkpt>
      <trkpt lat="48.75344" lon="2.14326">
        <ele>155.87</ele>
        <time>2020-06-13T13:15:09Z</time>
      </trkpt>
      <trkpt lat="48.75347" lon="2.14318">
        <ele>155.87</ele>
        <time>2020-06-13T13:15:26Z</time>
      </trkpt>
      <trkpt lat="48.75353" lon="2.14321">
        <ele>155.39</ele>
        <time>2020-06-13T13:15:43Z</time>
      </trkpt>
      <trkpt lat="48.7535" lon="2.14316">
        <ele>155.39</ele>
        <time>2020-06-13T13:15:59Z</time>
      </trkpt>
      <trkpt lat="48.75347" lon="2.14316">
        <ele>155.87</ele>
        <time>2020-06-13T13:16:26Z</time>
      </trkpt>
      <trkpt lat="48.75346" lon="2.14311">
        <ele>155.39</ele>
        <time>2020-06-13T13:16:31Z</time>
      </trkpt>
      <trkpt lat="48.75344" lon="2.14296">
        <ele>155.39</ele>
        <time>2020-06-13T13:16:42Z</time>
      </trkpt>
      <trkpt lat="48.75344" lon="2.14299">
        <ele>155.39</ele>
        <time>2020-06-13T13:17:01Z</time>
      </trkpt>
      <trkpt lat="48.75344" lon="2.14292">
        <ele>155.39</ele>
        <time>2020-06-13T13:17:07Z</time>
      </trkpt>
      <trkpt lat="48.75345" lon="2.14289">
        <ele>155.87</ele>
        <time>2020-06-13T13:17:08Z</time>
      </trkpt>
      <trkpt lat="48.75342" lon="2.14268">
        <ele>155.39</ele>
        <time>2020-06-13T13:17:20Z</time>
      </trkpt>
      <trkpt lat="48.75343" lon="2.14242">
        <ele>154.43</ele>
        <time>2020-06-13T13:17:34Z</time>
      </trkpt>
      <trkpt lat="48.75347" lon="2.14228">
        <ele>153.95</ele>
        <time>2020-06-13T13:17:47Z</time>
      </trkpt>
      <trkpt lat="48.75349" lon="2.14224">
        <ele>154.91</ele>
        <time>2020-06-13T13:18:03Z</time>
      </trkpt>
      <trkpt lat="48.75354" lon="2.14215">
        <ele>153.47</ele>
        <time>2020-06-13T13:18:18Z</time>
      </trkpt>
      <trkpt lat="48.75354" lon="2.14213">
        <ele>152.99</ele>
        <time>2020-06-13T13:18:19Z</time>
      </trkpt>
      <trkpt lat="48.75355" lon="2.1421">
        <ele>153.47</ele>
        <time>2020-06-13T13:18:20Z</time>
      </trkpt>
      <trkpt lat="48.75355" lon="2.14208">
        <ele>153.47</ele>
        <time>2020-06-13T13:18:21Z</time>
      </trkpt>
      <trkpt lat="48.75352" lon="2.14193">
        <ele>152.99</ele>
        <time>2020-06-13T13:18:34Z</time>
      </trkpt>
      <trkpt lat="48.75348" lon="2.14175">
        <ele>153.47</ele>
        <time>2020-06-13T13:18:45Z</time>
      </trkpt>
      <trkpt lat="48.75343" lon="2.14148">
        <ele>153.47</ele>
        <time>2020-06-13T13:19:01Z</time>
      </trkpt>
      <trkpt lat="48.75337" lon="2.14125">
        <ele>152.99</ele>
        <time>2020-06-13T13:19:16Z</time>
      </trkpt>
      <trkpt lat="48.75328" lon="2.14097">
        <ele>152.99</ele>
        <time>2020-06-13T13:19:33Z</time>
      </trkpt>
      <trkpt lat="48.75326" lon="2.1409">
        <ele>152.99</ele>
        <time>2020-06-13T13:19:37Z</time>
      </trkpt>
      <trkpt lat="48.75325" lon="2.14088">
        <ele>152.51</ele>
        <time>2020-06-13T13:19:38Z</time>
      </trkpt>
      <trkpt lat="48.75324" lon="2.14084">
        <ele>152.99</ele>
        <time>2020-06-13T13:19:41Z</time>
      </trkpt>
      <trkpt lat="48.75324" lon="2.14081">
        <ele>152.03</ele>
        <time>2020-06-13T13:19:43Z</time>
      </trkpt>
      <trkpt lat="48.75323" lon="2.14075">
        <ele>152.03</ele>
        <time>2020-06-13T13:19:47Z</time>
      </trkpt>
      <trkpt lat="48.75321" lon="2.14052">
        <ele>152.03</ele>
        <time>2020-06-13T13:20:01Z</time>
      </trkpt>
      <trkpt lat="48.75312" lon="2.14025">
        <ele>150.58</ele>
        <time>2020-06-13T13:20:16Z</time>
      </trkpt>
      <trkpt lat="48.75306" lon="2.14">
        <ele>151.06</ele>
        <time>2020-06-13T13:20:31Z</time>
      </trkpt>
      <trkpt lat="48.75313" lon="2.13989">
        <ele>150.1</ele>
        <time>2020-06-13T13:20:43Z</time>
      </trkpt>
      <trkpt lat="48.75316" lon="2.1398">
        <ele>150.1</ele>
        <time>2020-06-13T13:20:54Z</time>
      </trkpt>
      <trkpt lat="48.75317" lon="2.13978">
        <ele>149.62</ele>
        <time>2020-06-13T13:20:55Z</time>
      </trkpt>
      <trkpt lat="48.75318" lon="2.13975">
        <ele>149.62</ele>
        <time>2020-06-13T13:20:56Z</time>
      </trkpt>
      <trkpt lat="48.75319" lon="2.13973">
        <ele>149.14</ele>
        <time>2020-06-13T13:20:57Z</time>
      </trkpt>
      <trkpt lat="48.7532" lon="2.13972">
        <ele>149.14</ele>
        <time>2020-06-13T13:20:58Z</time>
      </trkpt>
      <trkpt lat="48.7532" lon="2.13971">
        <ele>149.14</ele>
        <time>2020-06-13T13:20:59Z</time>
      </trkpt>
      <trkpt lat="48.75326" lon="2.13955">
        <ele>149.62</ele>
        <time>2020-06-13T13:21:12Z</time>
      </trkpt>
      <trkpt lat="48.75316" lon="2.13937">
        <ele>149.14</ele>
        <time>2020-06-13T13:21:28Z</time>
      </trkpt>
      <trkpt lat="48.75304" lon="2.13924">
        <ele>150.1</ele>
        <time>2020-06-13T13:21:41Z</time>
      </trkpt>
      <trkpt lat="48.75303" lon="2.13897">
        <ele>150.1</ele>
        <time>2020-06-13T13:21:57Z</time>
      </trkpt>
      <trkpt lat="48.75305" lon="2.13898">
        <ele>150.58</ele>
        <time>2020-06-13T13:21:59Z</time>
      </trkpt>
      <trkpt lat="48.753" lon="2.13886">
        <ele>150.1</ele>
        <time>2020-06-13T13:22:09Z</time>
      </trkpt>
      <trkpt lat="48.75296" lon="2.13872">
        <ele>150.1</ele>
        <time>2020-06-13T13:22:18Z</time>
      </trkpt>
      <trkpt lat="48.75295" lon="2.13855">
        <ele>150.1</ele>
        <time>2020-06-13T13:22:30Z</time>
      </trkpt>
      <trkpt lat="48.75289" lon="2.13826">
        <ele>149.62</ele>
        <time>2020-06-13T13:22:45Z</time>
      </trkpt>
      <trkpt lat="48.75286" lon="2.138">
        <ele>149.62</ele>
        <time>2020-06-13T13:23:01Z</time>
      </trkpt>
      <trkpt lat="48.75285" lon="2.13792">
        <ele>149.14</ele>
        <time>2020-06-13T13:23:06Z</time>
      </trkpt>
      <trkpt lat="48.75284" lon="2.13765">
        <ele>148.66</ele>
        <time>2020-06-13T13:23:24Z</time>
      </trkpt>
      <trkpt lat="48.75283" lon="2.13749">
        <ele>148.66</ele>
        <time>2020-06-13T13:23:38Z</time>
      </trkpt>
      <trkpt lat="48.75277" lon="2.13731">
        <ele>148.66</ele>
        <time>2020-06-13T13:23:51Z</time>
      </trkpt>
      <trkpt lat="48.75272" lon="2.13712">
        <ele>149.14</ele>
        <time>2020-06-13T13:24:05Z</time>
      </trkpt>
      <trkpt lat="48.7527" lon="2.13685">
        <ele>149.14</ele>
        <time>2020-06-13T13:24:21Z</time>
      </trkpt>
      <trkpt lat="48.7527" lon="2.13663">
        <ele>148.66</ele>
        <time>2020-06-13T13:24:36Z</time>
      </trkpt>
      <trkpt lat="48.75267" lon="2.13638">
        <ele>148.66</ele>
        <time>2020-06-13T13:24:50Z</time>
      </trkpt>
      <trkpt lat="48.75262" lon="2.13608">
        <ele>148.66</ele>
        <time>2020-06-13T13:25:08Z</time>
      </trkpt>
      <trkpt lat="48.75266" lon="2.13589">
        <ele>148.18</ele>
        <time>2020-06-13T13:25:21Z</time>
      </trkpt>
      <trkpt lat="48.75269" lon="2.13571">
        <ele>147.7</ele>
        <time>2020-06-13T13:25:33Z</time>
      </trkpt>
      <trkpt lat="48.75275" lon="2.13545">
        <ele>147.22</ele>
        <time>2020-06-13T13:25:50Z</time>
      </trkpt>
      <trkpt lat="48.75271" lon="2.13541">
        <ele>147.22</ele>
        <time>2020-06-13T13:26:04Z</time>
      </trkpt>
      <trkpt lat="48.75273" lon="2.13539">
        <ele>146.74</ele>
        <time>2020-06-13T13:26:17Z</time>
      </trkpt>
      <trkpt lat="48.75279" lon="2.13523">
        <ele>146.26</ele>
        <time>2020-06-13T13:26:30Z</time>
      </trkpt>
      <trkpt lat="48.75289" lon="2.13499">
        <ele>145.3</ele>
        <time>2020-06-13T13:26:48Z</time>
      </trkpt>
      <trkpt lat="48.7529" lon="2.13497">
        <ele>144.82</ele>
        <time>2020-06-13T13:26:49Z</time>
      </trkpt>
      <trkpt lat="48.75296" lon="2.13475">
        <ele>144.34</ele>
        <time>2020-06-13T13:27:00Z</time>
      </trkpt>
      <trkpt lat="48.75301" lon="2.13449">
        <ele>143.37</ele>
        <time>2020-06-13T13:27:16Z</time>
      </trkpt>
      <trkpt lat="48.75306" lon="2.1342">
        <ele>142.89</ele>
        <time>2020-06-13T13:27:32Z</time>
      </trkpt>
      <trkpt lat="48.75306" lon="2.13414">
        <ele>142.89</ele>
        <time>2020-06-13T13:27:35Z</time>
      </trkpt>
      <trkpt lat="48.75307" lon="2.13384">
        <ele>141.93</ele>
        <time>2020-06-13T13:27:51Z</time>
      </trkpt>
      <trkpt lat="48.75306" lon="2.13363">
        <ele>141.45</ele>
        <time>2020-06-13T13:28:02Z</time>
      </trkpt>
      <trkpt lat="48.75307" lon="2.13331">
        <ele>140.97</ele>
        <time>2020-06-13T13:28:19Z</time>
      </trkpt>
      <trkpt lat="48.75302" lon="2.13303">
        <ele>139.53</ele>
        <time>2020-06-13T13:28:36Z</time>
      </trkpt>
      <trkpt lat="48.75297" lon="2.13268">
        <ele>139.05</ele>
        <time>2020-06-13T13:28:54Z</time>
      </trkpt>
      <trkpt lat="48.75297" lon="2.13252">
        <ele>138.09</ele>
        <time>2020-06-13T13:29:03Z</time>
      </trkpt>
      <trkpt lat="48.75293" lon="2.13219">
        <ele>137.61</ele>
        <time>2020-06-13T13:29:20Z</time>
      </trkpt>
      <trkpt lat="48.75284" lon="2.13187">
        <ele>137.13</ele>
        <time>2020-06-13T13:29:38Z</time>
      </trkpt>
      <trkpt lat="48.75279" lon="2.13165">
        <ele>135.68</ele>
        <time>2020-06-13T13:29:51Z</time>
      </trkpt>
      <trkpt lat="48.75279" lon="2.13151">
        <ele>135.68</ele>
        <time>2020-06-13T13:29:58Z</time>
      </trkpt>
      <trkpt lat="48.75278" lon="2.13148">
        <ele>135.68</ele>
        <time>2020-06-13T13:30:00Z</time>
      </trkpt>
      <trkpt lat="48.75273" lon="2.13117">
        <ele>134.72</ele>
        <time>2020-06-13T13:30:18Z</time>
      </trkpt>
      <trkpt lat="48.75272" lon="2.13089">
        <ele>133.28</ele>
        <time>2020-06-13T13:30:33Z</time>
      </trkpt>
      <trkpt lat="48.75278" lon="2.13074">
        <ele>132.32</ele>
        <time>2020-06-13T13:30:48Z</time>
      </trkpt>
      <trkpt lat="48.75278" lon="2.13073">
        <ele>133.28</ele>
        <time>2020-06-13T13:31:05Z</time>
      </trkpt>
      <trkpt lat="48.75278" lon="2.13074">
        <ele>132.8</ele>
        <time>2020-06-13T13:31:25Z</time>
      </trkpt>
      <trkpt lat="48.75283" lon="2.13064">
        <ele>132.8</ele>
        <time>2020-06-13T13:31:41Z</time>
      </trkpt>
      <trkpt lat="48.75286" lon="2.13065">
        <ele>132.8</ele>
        <time>2020-06-13T13:31:52Z</time>
      </trkpt>
      <trkpt lat="48.75287" lon="2.13065">
        <ele>132.8</ele>
        <time>2020-06-13T13:31:53Z</time>
      </trkpt>
      <trkpt lat="48.75302" lon="2.13073">
        <ele>132.8</ele>
        <time>2020-06-13T13:32:09Z</time>
      </trkpt>
      <trkpt lat="48.75305" lon="2.13079">
        <ele>132.32</ele>
        <time>2020-06-13T13:32:13Z</time>
      </trkpt>
      <trkpt lat="48.75308" lon="2.13082">
        <ele>132.32</ele>
        <time>2020-06-13T13:32:18Z</time>
      </trkpt>
      <trkpt lat="48.75308" lon="2.13085">
        <ele>131.84</ele>
        <time>2020-06-13T13:32:22Z</time>
      </trkpt>
      <trkpt lat="48.75312" lon="2.13108">
        <ele>130.88</ele>
        <time>2020-06-13T13:32:35Z</time>
      </trkpt>
      <trkpt lat="48.75313" lon="2.1312">
        <ele>130.4</ele>
        <time>2020-06-13T13:32:45Z</time>
      </trkpt>
      <trkpt lat="48.75318" lon="2.13141">
        <ele>129.92</ele>
        <time>2020-06-13T13:32:57Z</time>
      </trkpt>
      <trkpt lat="48.75318" lon="2.13144">
        <ele>129.43</ele>
        <time>2020-06-13T13:32:59Z</time>
      </trkpt>
      <trkpt lat="48.7532" lon="2.13151">
        <ele>129.92</ele>
        <time>2020-06-13T13:33:03Z</time>
      </trkpt>
      <trkpt lat="48.75323" lon="2.13158">
        <ele>129.43</ele>
        <time>2020-06-13T13:33:07Z</time>
      </trkpt>
      <trkpt lat="48.75325" lon="2.1316">
        <ele>129.92</ele>
        <time>2020-06-13T13:33:09Z</time>
      </trkpt>
      <trkpt lat="48.75328" lon="2.13172">
        <ele>128.95</ele>
        <time>2020-06-13T13:33:19Z</time>
      </trkpt>
      <trkpt lat="48.75336" lon="2.13192">
        <ele>128.47</ele>
        <time>2020-06-13T13:33:32Z</time>
      </trkpt>
      <trkpt lat="48.75344" lon="2.13211">
        <ele>128.47</ele>
        <time>2020-06-13T13:33:47Z</time>
      </trkpt>
      <trkpt lat="48.75351" lon="2.13228">
        <ele>128.47</ele>
        <time>2020-06-13T13:34:00Z</time>
      </trkpt>
      <trkpt lat="48.75353" lon="2.13232">
        <ele>127.99</ele>
        <time>2020-06-13T13:34:03Z</time>
      </trkpt>
      <trkpt lat="48.75358" lon="2.13254">
        <ele>127.51</ele>
        <time>2020-06-13T13:34:19Z</time>
      </trkpt>
      <trkpt lat="48.75361" lon="2.13264">
        <ele>127.51</ele>
        <time>2020-06-13T13:34:27Z</time>
      </trkpt>
      <trkpt lat="48.75366" lon="2.1328">
        <ele>127.03</ele>
        <time>2020-06-13T13:34:39Z</time>
      </trkpt>
      <trkpt lat="48.75366" lon="2.13292">
        <ele>126.55</ele>
        <time>2020-06-13T13:34:46Z</time>
      </trkpt>
      <trkpt lat="48.7537" lon="2.13307">
        <ele>126.07</ele>
        <time>2020-06-13T13:34:56Z</time>
      </trkpt>
      <trkpt lat="48.75373" lon="2.13333">
        <ele>125.59</ele>
        <time>2020-06-13T13:35:11Z</time>
      </trkpt>
      <trkpt lat="48.75375" lon="2.13354">
        <ele>125.59</ele>
        <time>2020-06-13T13:35:24Z</time>
      </trkpt>
      <trkpt lat="48.75376" lon="2.13366">
        <ele>125.11</ele>
        <time>2020-06-13T13:35:31Z</time>
      </trkpt>
      <trkpt lat="48.75377" lon="2.13372">
        <ele>125.11</ele>
        <time>2020-06-13T13:35:35Z</time>
      </trkpt>
      <trkpt lat="48.75379" lon="2.13395">
        <ele>124.63</ele>
        <time>2020-06-13T13:35:49Z</time>
      </trkpt>
      <trkpt lat="48.7538" lon="2.13399">
        <ele>124.63</ele>
        <time>2020-06-13T13:35:51Z</time>
      </trkpt>
      <trkpt lat="48.75382" lon="2.13426">
        <ele>124.15</ele>
        <time>2020-06-13T13:36:07Z</time>
      </trkpt>
      <trkpt lat="48.75386" lon="2.13456">
        <ele>123.67</ele>
        <time>2020-06-13T13:36:23Z</time>
      </trkpt>
      <trkpt lat="48.75388" lon="2.13483">
        <ele>123.19</ele>
        <time>2020-06-13T13:36:40Z</time>
      </trkpt>
      <trkpt lat="48.75388" lon="2.13489">
        <ele>123.19</ele>
        <time>2020-06-13T13:36:43Z</time>
      </trkpt>
      <trkpt lat="48.7539" lon="2.13499">
        <ele>123.19</ele>
        <time>2020-06-13T13:36:49Z</time>
      </trkpt>
      <trkpt lat="48.75392" lon="2.13522">
        <ele>122.22</ele>
        <time>2020-06-13T13:37:02Z</time>
      </trkpt>
      <trkpt lat="48.75394" lon="2.13541">
        <ele>121.74</ele>
        <time>2020-06-13T13:37:14Z</time>
      </trkpt>
      <trkpt lat="48.75398" lon="2.1357">
        <ele>121.74</ele>
        <time>2020-06-13T13:37:32Z</time>
      </trkpt>
      <trkpt lat="48.75394" lon="2.13582">
        <ele>121.26</ele>
        <time>2020-06-13T13:37:46Z</time>
      </trkpt>
      <trkpt lat="48.75396" lon="2.13584">
        <ele>121.26</ele>
        <time>2020-06-13T13:37:59Z</time>
      </trkpt>
      <trkpt lat="48.75395" lon="2.13583">
        <ele>121.26</ele>
        <time>2020-06-13T13:38:05Z</time>
      </trkpt>
      <trkpt lat="48.75376" lon="2.13586">
        <ele>122.22</ele>
        <time>2020-06-13T13:38:23Z</time>
      </trkpt>
      <trkpt lat="48.7537" lon="2.13613">
        <ele>122.71</ele>
        <time>2020-06-13T13:38:41Z</time>
      </trkpt>
      <trkpt lat="48.75374" lon="2.13639">
        <ele>122.71</ele>
        <time>2020-06-13T13:38:58Z</time>
      </trkpt>
      <trkpt lat="48.75381" lon="2.13667">
        <ele>122.22</ele>
        <time>2020-06-13T13:39:16Z</time>
      </trkpt>
      <trkpt lat="48.75382" lon="2.1367">
        <ele>122.22</ele>
        <time>2020-06-13T13:39:18Z</time>
      </trkpt>
      <trkpt lat="48.75389" lon="2.13703">
        <ele>121.74</ele>
        <time>2020-06-13T13:39:36Z</time>
      </trkpt>
      <trkpt lat="48.75396" lon="2.13703">
        <ele>121.74</ele>
        <time>2020-06-13T13:39:54Z</time>
      </trkpt>
      <trkpt lat="48.7539" lon="2.13709">
        <ele>121.74</ele>
        <time>2020-06-13T13:40:08Z</time>
      </trkpt>
      <trkpt lat="48.75391" lon="2.13715">
        <ele>122.22</ele>
        <time>2020-06-13T13:40:18Z</time>
      </trkpt>
      <trkpt lat="48.75394" lon="2.13719">
        <ele>121.74</ele>
        <time>2020-06-13T13:40:32Z</time>
      </trkpt>
      <trkpt lat="48.75394" lon="2.13737">
        <ele>121.74</ele>
        <time>2020-06-13T13:40:45Z</time>
      </trkpt>
      <trkpt lat="48.75395" lon="2.13744">
        <ele>121.74</ele>
        <time>2020-06-13T13:40:49Z</time>
      </trkpt>
      <trkpt lat="48.75399" lon="2.13766">
        <ele>121.26</ele>
        <time>2020-06-13T13:41:03Z</time>
      </trkpt>
      <trkpt lat="48.75404" lon="2.13775">
        <ele>121.74</ele>
        <time>2020-06-13T13:41:19Z</time>
      </trkpt>
      <trkpt lat="48.7541" lon="2.1378">
        <ele>121.74</ele>
        <time>2020-06-13T13:41:32Z</time>
      </trkpt>
      <trkpt lat="48.75412" lon="2.1378">
        <ele>121.74</ele>
        <time>2020-06-13T13:41:35Z</time>
      </trkpt>
      <trkpt lat="48.75416" lon="2.13779">
        <ele>121.74</ele>
        <time>2020-06-13T13:41:39Z</time>
      </trkpt>
      <trkpt lat="48.75418" lon="2.13783">
        <ele>121.74</ele>
        <time>2020-06-13T13:41:53Z</time>
      </trkpt>
      <trkpt lat="48.75418" lon="2.13785">
        <ele>121.74</ele>
        <time>2020-06-13T13:41:56Z</time>
      </trkpt>
      <trkpt lat="48.7542" lon="2.13784">
        <ele>121.26</ele>
        <time>2020-06-13T13:42:06Z</time>
      </trkpt>
      <trkpt lat="48.75427" lon="2.13784">
        <ele>121.74</ele>
        <time>2020-06-13T13:42:19Z</time>
      </trkpt>
      <trkpt lat="48.75431" lon="2.13782">
        <ele>121.26</ele>
        <time>2020-06-13T13:42:24Z</time>
      </trkpt>
      <trkpt lat="48.75439" lon="2.13777">
        <ele>121.26</ele>
        <time>2020-06-13T13:42:36Z</time>
      </trkpt>
      <trkpt lat="48.75447" lon="2.1377">
        <ele>121.26</ele>
        <time>2020-06-13T13:42:48Z</time>
      </trkpt>
      <trkpt lat="48.7545" lon="2.13768">
        <ele>121.74</ele>
        <time>2020-06-13T13:43:00Z</time>
      </trkpt>
      <trkpt lat="48.75458" lon="2.13788">
        <ele>123.19</ele>
        <time>2020-06-13T13:43:15Z</time>
      </trkpt>
      <trkpt lat="48.75467" lon="2.13805">
        <ele>123.67</ele>
        <time>2020-06-13T13:43:30Z</time>
      </trkpt>
      <trkpt lat="48.75475" lon="2.13828">
        <ele>124.15</ele>
        <time>2020-06-13T13:43:45Z</time>
      </trkpt>
      <trkpt lat="48.75481" lon="2.13842">
        <ele>125.11</ele>
        <time>2020-06-13T13:43:54Z</time>
      </trkpt>
      <trkpt lat="48.75489" lon="2.13857">
        <ele>125.59</ele>
        <time>2020-06-13T13:44:08Z</time>
      </trkpt>
      <trkpt lat="48.75497" lon="2.13881">
        <ele>127.99</ele>
        <time>2020-06-13T13:44:25Z</time>
      </trkpt>
      <trkpt lat="48.75505" lon="2.13889">
        <ele>129.92</ele>
        <time>2020-06-13T13:44:39Z</time>
      </trkpt>
      <trkpt lat="48.75507" lon="2.13868">
        <ele>131.36</ele>
        <time>2020-06-13T13:44:53Z</time>
      </trkpt>
      <trkpt lat="48.75509" lon="2.13861">
        <ele>132.8</ele>
        <time>2020-06-13T13:45:06Z</time>
      </trkpt>
      <trkpt lat="48.75508" lon="2.13854">
        <ele>133.76</ele>
        <time>2020-06-13T13:45:21Z</time>
      </trkpt>
      <trkpt lat="48.75507" lon="2.13855">
        <ele>135.2</ele>
        <time>2020-06-13T13:45:37Z</time>
      </trkpt>
      <trkpt lat="48.75503" lon="2.13833">
        <ele>134.72</ele>
        <time>2020-06-13T13:45:52Z</time>
      </trkpt>
      <trkpt lat="48.75499" lon="2.13822">
        <ele>134.72</ele>
        <time>2020-06-13T13:45:59Z</time>
      </trkpt>
      <trkpt lat="48.75496" lon="2.13809">
        <ele>135.2</ele>
        <time>2020-06-13T13:46:07Z</time>
      </trkpt>
      <trkpt lat="48.75492" lon="2.13784">
        <ele>135.2</ele>
        <time>2020-06-13T13:46:22Z</time>
      </trkpt>
      <trkpt lat="48.75486" lon="2.1376">
        <ele>132.32</ele>
        <time>2020-06-13T13:46:38Z</time>
      </trkpt>
      <trkpt lat="48.75477" lon="2.13747">
        <ele>132.8</ele>
        <time>2020-06-13T13:46:54Z</time>
      </trkpt>
      <trkpt lat="48.75476" lon="2.13739">
        <ele>135.68</ele>
        <time>2020-06-13T13:47:11Z</time>
      </trkpt>
      <trkpt lat="48.75477" lon="2.13731">
        <ele>135.68</ele>
        <time>2020-06-13T13:47:20Z</time>
      </trkpt>
      <trkpt lat="48.75481" lon="2.13718">
        <ele>137.61</ele>
        <time>2020-06-13T13:47:34Z</time>
      </trkpt>
      <trkpt lat="48.75478" lon="2.13705">
        <ele>137.13</ele>
        <time>2020-06-13T13:47:43Z</time>
      </trkpt>
      <trkpt lat="48.75472" lon="2.13682">
        <ele>136.64</ele>
        <time>2020-06-13T13:47:58Z</time>
      </trkpt>
      <trkpt lat="48.75469" lon="2.13671">
        <ele>136.64</ele>
        <time>2020-06-13T13:48:13Z</time>
      </trkpt>
      <trkpt lat="48.75463" lon="2.13664">
        <ele>135.68</ele>
        <time>2020-06-13T13:48:36Z</time>
      </trkpt>
      <trkpt lat="48.75464" lon="2.13653">
        <ele>135.68</ele>
        <time>2020-06-13T13:48:49Z</time>
      </trkpt>
      <trkpt lat="48.7546" lon="2.13629">
        <ele>136.64</ele>
        <time>2020-06-13T13:49:07Z</time>
      </trkpt>
      <trkpt lat="48.75458" lon="2.13604">
        <ele>138.09</ele>
        <time>2020-06-13T13:49:22Z</time>
      </trkpt>
      <trkpt lat="48.75456" lon="2.13601">
        <ele>138.09</ele>
        <time>2020-06-13T13:49:25Z</time>
      </trkpt>
      <trkpt lat="48.75455" lon="2.13587">
        <ele>138.09</ele>
        <time>2020-06-13T13:49:32Z</time>
      </trkpt>
      <trkpt lat="48.75455" lon="2.13566">
        <ele>140.01</ele>
        <time>2020-06-13T13:49:46Z</time>
      </trkpt>
      <trkpt lat="48.75458" lon="2.13562">
        <ele>141.45</ele>
        <time>2020-06-13T13:49:54Z</time>
      </trkpt>
      <trkpt lat="48.75471" lon="2.13572">
        <ele>143.85</ele>
        <time>2020-06-13T13:50:11Z</time>
      </trkpt>
      <trkpt lat="48.75484" lon="2.13568">
        <ele>145.78</ele>
        <time>2020-06-13T13:50:30Z</time>
      </trkpt>
      <trkpt lat="48.75493" lon="2.13568">
        <ele>146.74</ele>
        <time>2020-06-13T13:50:45Z</time>
      </trkpt>
      <trkpt lat="48.75504" lon="2.13574">
        <ele>148.66</ele>
        <time>2020-06-13T13:51:03Z</time>
      </trkpt>
      <trkpt lat="48.75514" lon="2.13576">
        <ele>149.62</ele>
        <time>2020-06-13T13:51:19Z</time>
      </trkpt>
      <trkpt lat="48.75511" lon="2.13579">
        <ele>150.58</ele>
        <time>2020-06-13T13:51:34Z</time>
      </trkpt>
      <trkpt lat="48.75511" lon="2.13579">
        <ele>150.58</ele>
        <time>2020-06-13T13:51:50Z</time>
      </trkpt>
      <trkpt lat="48.75515" lon="2.13592">
        <ele>149.62</ele>
        <time>2020-06-13T13:52:06Z</time>
      </trkpt>
      <trkpt lat="48.75517" lon="2.13616">
        <ele>149.62</ele>
        <time>2020-06-13T13:52:24Z</time>
      </trkpt>
      <trkpt lat="48.75521" lon="2.13623">
        <ele>150.1</ele>
        <time>2020-06-13T13:52:40Z</time>
      </trkpt>
      <trkpt lat="48.75523" lon="2.13631">
        <ele>150.1</ele>
        <time>2020-06-13T13:52:47Z</time>
      </trkpt>
      <trkpt lat="48.75529" lon="2.1365">
        <ele>150.1</ele>
        <time>2020-06-13T13:52:59Z</time>
      </trkpt>
      <trkpt lat="48.75536" lon="2.13673">
        <ele>150.58</ele>
        <time>2020-06-13T13:53:18Z</time>
      </trkpt>
      <trkpt lat="48.75544" lon="2.13697">
        <ele>151.06</ele>
        <time>2020-06-13T13:53:34Z</time>
      </trkpt>
      <trkpt lat="48.75552" lon="2.1371">
        <ele>150.58</ele>
        <time>2020-06-13T13:53:47Z</time>
      </trkpt>
      <trkpt lat="48.75556" lon="2.13711">
        <ele>150.58</ele>
        <time>2020-06-13T13:53:54Z</time>
      </trkpt>
      <trkpt lat="48.75562" lon="2.13705">
        <ele>151.06</ele>
        <time>2020-06-13T13:54:08Z</time>
      </trkpt>
      <trkpt lat="48.75568" lon="2.13708">
        <ele>151.06</ele>
        <time>2020-06-13T13:54:19Z</time>
      </trkpt>
      <trkpt lat="48.7558" lon="2.1371">
        <ele>151.54</ele>
        <time>2020-06-13T13:54:35Z</time>
      </trkpt>
      <trkpt lat="48.75581" lon="2.1371">
        <ele>151.06</ele>
        <time>2020-06-13T13:54:36Z</time>
      </trkpt>
      <trkpt lat="48.75592" lon="2.13712">
        <ele>151.54</ele>
        <time>2020-06-13T13:54:49Z</time>
      </trkpt>
      <trkpt lat="48.75603" lon="2.13709">
        <ele>152.03</ele>
        <time>2020-06-13T13:55:06Z</time>
      </trkpt>
      <trkpt lat="48.75614" lon="2.1371">
        <ele>152.03</ele>
        <time>2020-06-13T13:55:18Z</time>
      </trkpt>
      <trkpt lat="48.7563" lon="2.13711">
        <ele>152.51</ele>
        <time>2020-06-13T13:55:33Z</time>
      </trkpt>
      <trkpt lat="48.75644" lon="2.1371">
        <ele>152.51</ele>
        <time>2020-06-13T13:55:47Z</time>
      </trkpt>
      <trkpt lat="48.75648" lon="2.13711">
        <ele>152.99</ele>
        <time>2020-06-13T13:55:50Z</time>
      </trkpt>
      <trkpt lat="48.75659" lon="2.13706">
        <ele>152.99</ele>
        <time>2020-06-13T13:56:03Z</time>
      </trkpt>
      <trkpt lat="48.75674" lon="2.13707">
        <ele>152.99</ele>
        <time>2020-06-13T13:56:17Z</time>
      </trkpt>
      <trkpt lat="48.75691" lon="2.13708">
        <ele>153.47</ele>
        <time>2020-06-13T13:56:32Z</time>
      </trkpt>
      <trkpt lat="48.75713" lon="2.13704">
        <ele>153.47</ele>
        <time>2020-06-13T13:56:49Z</time>
      </trkpt>
      <trkpt lat="48.75729" lon="2.13703">
        <ele>153.47</ele>
        <time>2020-06-13T13:57:03Z</time>
      </trkpt>
      <trkpt lat="48.75738" lon="2.13703">
        <ele>153.95</ele>
        <time>2020-06-13T13:57:15Z</time>
      </trkpt>
      <trkpt lat="48.75743" lon="2.13702">
        <ele>153.95</ele>
        <time>2020-06-13T13:57:21Z</time>
      </trkpt>
      <trkpt lat="48.75758" lon="2.137">
        <ele>154.43</ele>
        <time>2020-06-13T13:57:34Z</time>
      </trkpt>
      <trkpt lat="48.75775" lon="2.13706">
        <ele>153.95</ele>
        <time>2020-06-13T13:57:47Z</time>
      </trkpt>
      <trkpt lat="48.75776" lon="2.13707">
        <ele>154.43</ele>
        <time>2020-06-13T13:57:48Z</time>
      </trkpt>
      <trkpt lat="48.75777" lon="2.13712">
        <ele>154.43</ele>
        <time>2020-06-13T13:57:51Z</time>
      </trkpt>
      <trkpt lat="48.75777" lon="2.13716">
        <ele>154.43</ele>
        <time>2020-06-13T13:57:55Z</time>
      </trkpt>
      <trkpt lat="48.75783" lon="2.13735">
        <ele>153.95</ele>
        <time>2020-06-13T13:58:07Z</time>
      </trkpt>
      <trkpt lat="48.75792" lon="2.13754">
        <ele>153.47</ele>
        <time>2020-06-13T13:58:21Z</time>
      </trkpt>
      <trkpt lat="48.75799" lon="2.13773">
        <ele>153.95</ele>
        <time>2020-06-13T13:58:35Z</time>
      </trkpt>
      <trkpt lat="48.75808" lon="2.13797">
        <ele>153.95</ele>
        <time>2020-06-13T13:58:50Z</time>
      </trkpt>
      <trkpt lat="48.75813" lon="2.13807">
        <ele>153.95</ele>
        <time>2020-06-13T13:58:58Z</time>
      </trkpt>
      <trkpt lat="48.75833" lon="2.13806">
        <ele>154.91</ele>
        <time>2020-06-13T13:59:13Z</time>
      </trkpt>
      <trkpt lat="48.75837" lon="2.13806">
        <ele>154.43</ele>
        <time>2020-06-13T13:59:17Z</time>
      </trkpt>
      <trkpt lat="48.75839" lon="2.13803">
        <ele>154.43</ele>
        <time>2020-06-13T13:59:19Z</time>
      </trkpt>
      <trkpt lat="48.7585" lon="2.13794">
        <ele>154.91</ele>
        <time>2020-06-13T13:59:31Z</time>
      </trkpt>
      <trkpt lat="48.75862" lon="2.13782">
        <ele>154.43</ele>
        <time>2020-06-13T13:59:45Z</time>
      </trkpt>
      <trkpt lat="48.7587" lon="2.13775">
        <ele>155.39</ele>
        <time>2020-06-13T13:59:53Z</time>
      </trkpt>
      <trkpt lat="48.75887" lon="2.1376">
        <ele>154.91</ele>
        <time>2020-06-13T14:00:10Z</time>
      </trkpt>
      <trkpt lat="48.75902" lon="2.13747">
        <ele>154.43</ele>
        <time>2020-06-13T14:00:25Z</time>
      </trkpt>
      <trkpt lat="48.75918" lon="2.13738">
        <ele>154.91</ele>
        <time>2020-06-13T14:00:41Z</time>
      </trkpt>
      <trkpt lat="48.75925" lon="2.13734">
        <ele>154.91</ele>
        <time>2020-06-13T14:00:49Z</time>
      </trkpt>
      <trkpt lat="48.75939" lon="2.13722">
        <ele>154.91</ele>
        <time>2020-06-13T14:01:03Z</time>
      </trkpt>
      <trkpt lat="48.75957" lon="2.13714">
        <ele>155.39</ele>
        <time>2020-06-13T14:01:19Z</time>
      </trkpt>
      <trkpt lat="48.75969" lon="2.13712">
        <ele>155.39</ele>
        <time>2020-06-13T14:01:30Z</time>
      </trkpt>
      <trkpt lat="48.7598" lon="2.1371">
        <ele>155.39</ele>
        <time>2020-06-13T14:01:41Z</time>
      </trkpt>
      <trkpt lat="48.75992" lon="2.13702">
        <ele>154.43</ele>
        <time>2020-06-13T14:01:52Z</time>
      </trkpt>
      <trkpt lat="48.76009" lon="2.13705">
        <ele>153.95</ele>
        <time>2020-06-13T14:02:07Z</time>
      </trkpt>
      <trkpt lat="48.76026" lon="2.13713">
        <ele>154.43</ele>
        <time>2020-06-13T14:02:22Z</time>
      </trkpt>
      <trkpt lat="48.76042" lon="2.1372">
        <ele>154.43</ele>
        <time>2020-06-13T14:02:36Z</time>
      </trkpt>
      <trkpt lat="48.76053" lon="2.13722">
        <ele>154.43</ele>
        <time>2020-06-13T14:02:52Z</time>
      </trkpt>
      <trkpt lat="48.76055" lon="2.13724">
        <ele>153.95</ele>
        <time>2020-06-13T14:03:05Z</time>
      </trkpt>
      <trkpt lat="48.76059" lon="2.13727">
        <ele>153.95</ele>
        <time>2020-06-13T14:03:15Z</time>
      </trkpt>
      <trkpt lat="48.76062" lon="2.13729">
        <ele>153.95</ele>
        <time>2020-06-13T14:03:22Z</time>
      </trkpt>
      <trkpt lat="48.76077" lon="2.13739">
        <ele>153.47</ele>
        <time>2020-06-13T14:03:36Z</time>
      </trkpt>
      <trkpt lat="48.76085" lon="2.13748">
        <ele>153.47</ele>
        <time>2020-06-13T14:03:44Z</time>
      </trkpt>
      <trkpt lat="48.76101" lon="2.13754">
        <ele>153.47</ele>
        <time>2020-06-13T14:03:59Z</time>
      </trkpt>
      <trkpt lat="48.76102" lon="2.13755">
        <ele>152.99</ele>
        <time>2020-06-13T14:04:00Z</time>
      </trkpt>
      <trkpt lat="48.76108" lon="2.1376">
        <ele>153.47</ele>
        <time>2020-06-13T14:04:06Z</time>
      </trkpt>
      <trkpt lat="48.76129" lon="2.1377">
        <ele>153.47</ele>
        <time>2020-06-13T14:04:24Z</time>
      </trkpt>
      <trkpt lat="48.7615" lon="2.13781">
        <ele>152.51</ele>
        <time>2020-06-13T14:04:43Z</time>
      </trkpt>
      <trkpt lat="48.76167" lon="2.13796">
        <ele>152.51</ele>
        <time>2020-06-13T14:04:59Z</time>
      </trkpt>
      <trkpt lat="48.76179" lon="2.13804">
        <ele>152.99</ele>
        <time>2020-06-13T14:05:13Z</time>
      </trkpt>
      <trkpt lat="48.76187" lon="2.13812">
        <ele>151.54</ele>
        <time>2020-06-13T14:05:22Z</time>
      </trkpt>
      <trkpt lat="48.76197" lon="2.13817">
        <ele>152.51</ele>
        <time>2020-06-13T14:05:37Z</time>
      </trkpt>
      <trkpt lat="48.76197" lon="2.13821">
        <ele>152.03</ele>
        <time>2020-06-13T14:05:39Z</time>
      </trkpt>
      <trkpt lat="48.76195" lon="2.13833">
        <ele>152.03</ele>
        <time>2020-06-13T14:05:45Z</time>
      </trkpt>
      <trkpt lat="48.76193" lon="2.13854">
        <ele>152.03</ele>
        <time>2020-06-13T14:05:56Z</time>
      </trkpt>
      <trkpt lat="48.76196" lon="2.1387">
        <ele>151.54</ele>
        <time>2020-06-13T14:06:06Z</time>
      </trkpt>
      <trkpt lat="48.76194" lon="2.13886">
        <ele>151.54</ele>
        <time>2020-06-13T14:06:15Z</time>
      </trkpt>
      <trkpt lat="48.76195" lon="2.13914">
        <ele>151.54</ele>
        <time>2020-06-13T14:06:28Z</time>
      </trkpt>
      <trkpt lat="48.76198" lon="2.13943">
        <ele>151.06</ele>
        <time>2020-06-13T14:06:44Z</time>
      </trkpt>
      <trkpt lat="48.76202" lon="2.13964">
        <ele>150.58</ele>
        <time>2020-06-13T14:06:57Z</time>
      </trkpt>
      <trkpt lat="48.7621" lon="2.13989">
        <ele>151.06</ele>
        <time>2020-06-13T14:07:13Z</time>
      </trkpt>
      <trkpt lat="48.76212" lon="2.1399">
        <ele>151.06</ele>
        <time>2020-06-13T14:07:21Z</time>
      </trkpt>
      <trkpt lat="48.76218" lon="2.13992">
        <ele>147.7</ele>
        <time>2020-06-13T14:07:26Z</time>
      </trkpt>
      <trkpt lat="48.7622" lon="2.13993">
        <ele>150.1</ele>
        <time>2020-06-13T14:07:28Z</time>
      </trkpt>
      <trkpt lat="48.76233" lon="2.13993">
        <ele>150.58</ele>
        <time>2020-06-13T14:07:43Z</time>
      </trkpt>
      <trkpt lat="48.76245" lon="2.13992">
        <ele>150.1</ele>
        <time>2020-06-13T14:07:55Z</time>
      </trkpt>
      <trkpt lat="48.7626" lon="2.13988">
        <ele>149.62</ele>
        <time>2020-06-13T14:08:09Z</time>
      </trkpt>
      <trkpt lat="48.76262" lon="2.13989">
        <ele>149.62</ele>
        <time>2020-06-13T14:08:11Z</time>
      </trkpt>
      <trkpt lat="48.76283" lon="2.13988">
        <ele>149.62</ele>
        <time>2020-06-13T14:08:26Z</time>
      </trkpt>
      <trkpt lat="48.76291" lon="2.13987">
        <ele>149.62</ele>
        <time>2020-06-13T14:08:33Z</time>
      </trkpt>
      <trkpt lat="48.76304" lon="2.13993">
        <ele>148.66</ele>
        <time>2020-06-13T14:08:46Z</time>
      </trkpt>
      <trkpt lat="48.76306" lon="2.13993">
        <ele>149.14</ele>
        <time>2020-06-13T14:08:48Z</time>
      </trkpt>
      <trkpt lat="48.76325" lon="2.13997">
        <ele>149.14</ele>
        <time>2020-06-13T14:09:03Z</time>
      </trkpt>
      <trkpt lat="48.76341" lon="2.14006">
        <ele>148.18</ele>
        <time>2020-06-13T14:09:17Z</time>
      </trkpt>
      <trkpt lat="48.76347" lon="2.14009">
        <ele>148.66</ele>
        <time>2020-06-13T14:09:21Z</time>
      </trkpt>
      <trkpt lat="48.7635" lon="2.14016">
        <ele>148.18</ele>
        <time>2020-06-13T14:09:26Z</time>
      </trkpt>
      <trkpt lat="48.76351" lon="2.14025">
        <ele>148.66</ele>
        <time>2020-06-13T14:09:37Z</time>
      </trkpt>
      <trkpt lat="48.76349" lon="2.14041">
        <ele>149.14</ele>
        <time>2020-06-13T14:09:51Z</time>
      </trkpt>
      <trkpt lat="48.7635" lon="2.14038">
        <ele>149.14</ele>
        <time>2020-06-13T14:10:09Z</time>
      </trkpt>
      <trkpt lat="48.76349" lon="2.14048">
        <ele>148.66</ele>
        <time>2020-06-13T14:10:23Z</time>
      </trkpt>
      <trkpt lat="48.76347" lon="2.14056">
        <ele>149.14</ele>
        <time>2020-06-13T14:10:28Z</time>
      </trkpt>
      <trkpt lat="48.76346" lon="2.14061">
        <ele>148.66</ele>
        <time>2020-06-13T14:10:34Z</time>
      </trkpt>
      <trkpt lat="48.76345" lon="2.14089">
        <ele>149.14</ele>
        <time>2020-06-13T14:10:49Z</time>
      </trkpt>
      <trkpt lat="48.76346" lon="2.14101">
        <ele>149.14</ele>
        <time>2020-06-13T14:10:57Z</time>
      </trkpt>
      <trkpt lat="48.76348" lon="2.14122">
        <ele>149.14</ele>
        <time>2020-06-13T14:11:11Z</time>
      </trkpt>
      <trkpt lat="48.76359" lon="2.14141">
        <ele>148.66</ele>
        <time>2020-06-13T14:11:27Z</time>
      </trkpt>
      <trkpt lat="48.76361" lon="2.14155">
        <ele>149.14</ele>
        <time>2020-06-13T14:11:40Z</time>
      </trkpt>
      <trkpt lat="48.76362" lon="2.14166">
        <ele>148.66</ele>
        <time>2020-06-13T14:11:55Z</time>
      </trkpt>
      <trkpt lat="48.76362" lon="2.14176">
        <ele>148.66</ele>
        <time>2020-06-13T14:12:01Z</time>
      </trkpt>
      <trkpt lat="48.76368" lon="2.14194">
        <ele>148.18</ele>
        <time>2020-06-13T14:12:14Z</time>
      </trkpt>
      <trkpt lat="48.76369" lon="2.14217">
        <ele>148.18</ele>
        <time>2020-06-13T14:12:28Z</time>
      </trkpt>
      <trkpt lat="48.76378" lon="2.14227">
        <ele>147.7</ele>
        <time>2020-06-13T14:12:40Z</time>
      </trkpt>
      <trkpt lat="48.76391" lon="2.14244">
        <ele>147.22</ele>
        <time>2020-06-13T14:12:57Z</time>
      </trkpt>
      <trkpt lat="48.76394" lon="2.14249">
        <ele>147.22</ele>
        <time>2020-06-13T14:13:00Z</time>
      </trkpt>
      <trkpt lat="48.76397" lon="2.14253">
        <ele>147.22</ele>
        <time>2020-06-13T14:13:03Z</time>
      </trkpt>
      <trkpt lat="48.76399" lon="2.14257">
        <ele>147.22</ele>
        <time>2020-06-13T14:13:05Z</time>
      </trkpt>
      <trkpt lat="48.76398" lon="2.14264">
        <ele>147.22</ele>
        <time>2020-06-13T14:13:09Z</time>
      </trkpt>
      <trkpt lat="48.76397" lon="2.14269">
        <ele>146.74</ele>
        <time>2020-06-13T14:13:12Z</time>
      </trkpt>
      <trkpt lat="48.76398" lon="2.14283">
        <ele>146.26</ele>
        <time>2020-06-13T14:13:20Z</time>
      </trkpt>
      <trkpt lat="48.76395" lon="2.14292">
        <ele>147.22</ele>
        <time>2020-06-13T14:13:26Z</time>
      </trkpt>
      <trkpt lat="48.76401" lon="2.14301">
        <ele>146.74</ele>
        <time>2020-06-13T14:13:32Z</time>
      </trkpt>
      <trkpt lat="48.76415" lon="2.14294">
        <ele>146.26</ele>
        <time>2020-06-13T14:13:47Z</time>
      </trkpt>
      <trkpt lat="48.76428" lon="2.14285">
        <ele>145.78</ele>
        <time>2020-06-13T14:14:01Z</time>
      </trkpt>
      <trkpt lat="48.7644" lon="2.14289">
        <ele>145.78</ele>
        <time>2020-06-13T14:14:16Z</time>
      </trkpt>
      <trkpt lat="48.76443" lon="2.1429">
        <ele>145.78</ele>
        <time>2020-06-13T14:14:27Z</time>
      </trkpt>
      <trkpt lat="48.76448" lon="2.14291">
        <ele>145.3</ele>
        <time>2020-06-13T14:14:44Z</time>
      </trkpt>
      <trkpt lat="48.76445" lon="2.14297">
        <ele>145.78</ele>
        <time>2020-06-13T14:14:57Z</time>
      </trkpt>
      <trkpt lat="48.76444" lon="2.14299">
        <ele>145.78</ele>
        <time>2020-06-13T14:15:00Z</time>
      </trkpt>
      <trkpt lat="48.76444" lon="2.14303">
        <ele>145.3</ele>
        <time>2020-06-13T14:15:02Z</time>
      </trkpt>
      <trkpt lat="48.76444" lon="2.14309">
        <ele>145.3</ele>
        <time>2020-06-13T14:15:06Z</time>
      </trkpt>
      <trkpt lat="48.76444" lon="2.14332">
        <ele>144.82</ele>
        <time>2020-06-13T14:15:19Z</time>
      </trkpt>
      <trkpt lat="48.76446" lon="2.1434">
        <ele>144.82</ele>
        <time>2020-06-13T14:15:25Z</time>
      </trkpt>
      <trkpt lat="48.76448" lon="2.14345">
        <ele>144.82</ele>
        <time>2020-06-13T14:15:30Z</time>
      </trkpt>
      <trkpt lat="48.76448" lon="2.1437">
        <ele>144.82</ele>
        <time>2020-06-13T14:15:43Z</time>
      </trkpt>
      <trkpt lat="48.76448" lon="2.14395">
        <ele>144.34</ele>
        <time>2020-06-13T14:15:56Z</time>
      </trkpt>
      <trkpt lat="48.76448" lon="2.144">
        <ele>144.34</ele>
        <time>2020-06-13T14:16:02Z</time>
      </trkpt>
      <trkpt lat="48.76465" lon="2.14408">
        <ele>143.85</ele>
        <time>2020-06-13T14:16:17Z</time>
      </trkpt>
      <trkpt lat="48.76482" lon="2.14414">
        <ele>143.85</ele>
        <time>2020-06-13T14:16:31Z</time>
      </trkpt>
      <trkpt lat="48.76491" lon="2.14409">
        <ele>142.89</ele>
        <time>2020-06-13T14:16:39Z</time>
      </trkpt>
      <trkpt lat="48.76509" lon="2.14389">
        <ele>142.89</ele>
        <time>2020-06-13T14:16:58Z</time>
      </trkpt>
      <trkpt lat="48.76512" lon="2.14396">
        <ele>142.41</ele>
        <time>2020-06-13T14:17:06Z</time>
      </trkpt>
      <trkpt lat="48.76515" lon="2.14402">
        <ele>142.41</ele>
        <time>2020-06-13T14:17:10Z</time>
      </trkpt>
      <trkpt lat="48.76531" lon="2.14404">
        <ele>140.97</ele>
        <time>2020-06-13T14:17:26Z</time>
      </trkpt>
      <trkpt lat="48.76548" lon="2.1441">
        <ele>140.01</ele>
        <time>2020-06-13T14:17:40Z</time>
      </trkpt>
      <trkpt lat="48.76556" lon="2.14414">
        <ele>139.53</ele>
        <time>2020-06-13T14:18:05Z</time>
      </trkpt>
      <trkpt lat="48.76567" lon="2.14422">
        <ele>138.09</ele>
        <time>2020-06-13T14:18:23Z</time>
      </trkpt>
      <trkpt lat="48.76588" lon="2.14436">
        <ele>136.16</ele>
        <time>2020-06-13T14:18:41Z</time>
      </trkpt>
      <trkpt lat="48.76597" lon="2.14441">
        <ele>132.8</ele>
        <time>2020-06-13T14:18:55Z</time>
      </trkpt>
      <trkpt lat="48.76613" lon="2.14447">
        <ele>129.43</ele>
        <time>2020-06-13T14:19:11Z</time>
      </trkpt>
      <trkpt lat="48.76619" lon="2.14457">
        <ele>126.55</ele>
        <time>2020-06-13T14:19:22Z</time>
      </trkpt>
      <trkpt lat="48.76623" lon="2.14464">
        <ele>125.11</ele>
        <time>2020-06-13T14:19:27Z</time>
      </trkpt>
      <trkpt lat="48.76631" lon="2.14479">
        <ele>122.71</ele>
        <time>2020-06-13T14:19:41Z</time>
      </trkpt>
      <trkpt lat="48.76641" lon="2.14485">
        <ele>120.78</ele>
        <time>2020-06-13T14:19:54Z</time>
      </trkpt>
      <trkpt lat="48.76656" lon="2.14502">
        <ele>117.9</ele>
        <time>2020-06-13T14:20:09Z</time>
      </trkpt>
      <trkpt lat="48.76658" lon="2.14503">
        <ele>117.9</ele>
        <time>2020-06-13T14:20:11Z</time>
      </trkpt>
      <trkpt lat="48.76662" lon="2.14506">
        <ele>117.42</ele>
        <time>2020-06-13T14:20:14Z</time>
      </trkpt>
      <trkpt lat="48.76677" lon="2.14524">
        <ele>114.05</ele>
        <time>2020-06-13T14:20:30Z</time>
      </trkpt>
      <trkpt lat="48.76684" lon="2.14529">
        <ele>112.61</ele>
        <time>2020-06-13T14:20:45Z</time>
      </trkpt>
      <trkpt lat="48.76697" lon="2.14541">
        <ele>111.17</ele>
        <time>2020-06-13T14:20:56Z</time>
      </trkpt>
      <trkpt lat="48.76708" lon="2.14553">
        <ele>109.25</ele>
        <time>2020-06-13T14:21:10Z</time>
      </trkpt>
      <trkpt lat="48.76712" lon="2.14557">
        <ele>108.29</ele>
        <time>2020-06-13T14:21:22Z</time>
      </trkpt>
      <trkpt lat="48.76719" lon="2.14561">
        <ele>108.77</ele>
        <time>2020-06-13T14:21:39Z</time>
      </trkpt>
      <trkpt lat="48.76732" lon="2.14578">
        <ele>105.4</ele>
        <time>2020-06-13T14:21:55Z</time>
      </trkpt>
      <trkpt lat="48.76749" lon="2.146">
        <ele>104.44</ele>
        <time>2020-06-13T14:22:14Z</time>
      </trkpt>
      <trkpt lat="48.76764" lon="2.14618">
        <ele>103</ele>
        <time>2020-06-13T14:22:31Z</time>
      </trkpt>
      <trkpt lat="48.76781" lon="2.14631">
        <ele>102.04</ele>
        <time>2020-06-13T14:22:49Z</time>
      </trkpt>
      <trkpt lat="48.76785" lon="2.14644">
        <ele>102.04</ele>
        <time>2020-06-13T14:23:05Z</time>
      </trkpt>
      <trkpt lat="48.76784" lon="2.1465">
        <ele>102.52</ele>
        <time>2020-06-13T14:23:22Z</time>
      </trkpt>
      <trkpt lat="48.76784" lon="2.14654">
        <ele>102.04</ele>
        <time>2020-06-13T14:23:25Z</time>
      </trkpt>
      <trkpt lat="48.76781" lon="2.14664">
        <ele>101.56</ele>
        <time>2020-06-13T14:23:38Z</time>
      </trkpt>
      <trkpt lat="48.76775" lon="2.14687">
        <ele>101.56</ele>
        <time>2020-06-13T14:23:52Z</time>
      </trkpt>
      <trkpt lat="48.76764" lon="2.14719">
        <ele>101.56</ele>
        <time>2020-06-13T14:24:13Z</time>
      </trkpt>
      <trkpt lat="48.76753" lon="2.14745">
        <ele>101.56</ele>
        <time>2020-06-13T14:24:30Z</time>
      </trkpt>
      <trkpt lat="48.76737" lon="2.14766">
        <ele>101.56</ele>
        <time>2020-06-13T14:24:47Z</time>
      </trkpt>
      <trkpt lat="48.7673" lon="2.1478">
        <ele>101.56</ele>
        <time>2020-06-13T14:24:58Z</time>
      </trkpt>
      <trkpt lat="48.76714" lon="2.14803">
        <ele>102.04</ele>
        <time>2020-06-13T14:25:15Z</time>
      </trkpt>
      <trkpt lat="48.76711" lon="2.14805">
        <ele>102.52</ele>
        <time>2020-06-13T14:25:29Z</time>
      </trkpt>
      <trkpt lat="48.7671" lon="2.14808">
        <ele>102.52</ele>
        <time>2020-06-13T14:25:53Z</time>
      </trkpt>
      <trkpt lat="48.76701" lon="2.14823">
        <ele>102.52</ele>
        <time>2020-06-13T14:26:12Z</time>
      </trkpt>
      <trkpt lat="48.76698" lon="2.14826">
        <ele>102.52</ele>
        <time>2020-06-13T14:26:16Z</time>
      </trkpt>
      <trkpt lat="48.76684" lon="2.1484">
        <ele>103</ele>
        <time>2020-06-13T14:26:31Z</time>
      </trkpt>
      <trkpt lat="48.76672" lon="2.14863">
        <ele>103</ele>
        <time>2020-06-13T14:26:48Z</time>
      </trkpt>
      <trkpt lat="48.76657" lon="2.14879">
        <ele>103.96</ele>
        <time>2020-06-13T14:27:03Z</time>
      </trkpt>
      <trkpt lat="48.76641" lon="2.14891">
        <ele>104.92</ele>
        <time>2020-06-13T14:27:18Z</time>
      </trkpt>
      <trkpt lat="48.76636" lon="2.14901">
        <ele>106.36</ele>
        <time>2020-06-13T14:27:31Z</time>
      </trkpt>
      <trkpt lat="48.76621" lon="2.14925">
        <ele>108.77</ele>
        <time>2020-06-13T14:27:51Z</time>
      </trkpt>
      <trkpt lat="48.76617" lon="2.14936">
        <ele>109.73</ele>
        <time>2020-06-13T14:28:11Z</time>
      </trkpt>
      <trkpt lat="48.76616" lon="2.14947">
        <ele>110.69</ele>
        <time>2020-06-13T14:28:18Z</time>
      </trkpt>
      <trkpt lat="48.76607" lon="2.14967">
        <ele>112.61</ele>
        <time>2020-06-13T14:28:29Z</time>
      </trkpt>
      <trkpt lat="48.76611" lon="2.14983">
        <ele>111.17</ele>
        <time>2020-06-13T14:28:41Z</time>
      </trkpt>
      <trkpt lat="48.76628" lon="2.14993">
        <ele>108.29</ele>
        <time>2020-06-13T14:28:57Z</time>
      </trkpt>
      <trkpt lat="48.76647" lon="2.15009">
        <ele>105.4</ele>
        <time>2020-06-13T14:29:12Z</time>
      </trkpt>
      <trkpt lat="48.76661" lon="2.15007">
        <ele>103.48</ele>
        <time>2020-06-13T14:29:24Z</time>
      </trkpt>
      <trkpt lat="48.76668" lon="2.15015">
        <ele>102.52</ele>
        <time>2020-06-13T14:29:34Z</time>
      </trkpt>
      <trkpt lat="48.76674" lon="2.15019">
        <ele>102.04</ele>
        <time>2020-06-13T14:29:50Z</time>
      </trkpt>
      <trkpt lat="48.76677" lon="2.15019">
        <ele>102.04</ele>
        <time>2020-06-13T14:30:12Z</time>
      </trkpt>
      <trkpt lat="48.76681" lon="2.15023">
        <ele>102.04</ele>
        <time>2020-06-13T14:30:16Z</time>
      </trkpt>
      <trkpt lat="48.76685" lon="2.1502">
        <ele>101.56</ele>
        <time>2020-06-13T14:30:30Z</time>
      </trkpt>
      <trkpt lat="48.76686" lon="2.1502">
        <ele>101.56</ele>
        <time>2020-06-13T14:30:44Z</time>
      </trkpt>
      <trkpt lat="48.76688" lon="2.15024">
        <ele>101.56</ele>
        <time>2020-06-13T14:30:55Z</time>
      </trkpt>
      <trkpt lat="48.76696" lon="2.15036">
        <ele>101.08</ele>
        <time>2020-06-13T14:31:03Z</time>
      </trkpt>
      <trkpt lat="48.76711" lon="2.15051">
        <ele>99.15</ele>
        <time>2020-06-13T14:31:20Z</time>
      </trkpt>
      <trkpt lat="48.76728" lon="2.15055">
        <ele>97.23</ele>
        <time>2020-06-13T14:31:35Z</time>
      </trkpt>
      <trkpt lat="48.76749" lon="2.15066">
        <ele>96.27</ele>
        <time>2020-06-13T14:31:52Z</time>
      </trkpt>
      <trkpt lat="48.76761" lon="2.15071">
        <ele>96.75</ele>
        <time>2020-06-13T14:32:05Z</time>
      </trkpt>
      <trkpt lat="48.7676" lon="2.15103">
        <ele>96.75</ele>
        <time>2020-06-13T14:32:24Z</time>
      </trkpt>
      <trkpt lat="48.76752" lon="2.15143">
        <ele>96.27</ele>
        <time>2020-06-13T14:32:43Z</time>
      </trkpt>
      <trkpt lat="48.76749" lon="2.15171">
        <ele>96.75</ele>
        <time>2020-06-13T14:33:00Z</time>
      </trkpt>
      <trkpt lat="48.7675" lon="2.15192">
        <ele>96.75</ele>
        <time>2020-06-13T14:33:16Z</time>
      </trkpt>
      <trkpt lat="48.76733" lon="2.15216">
        <ele>96.75</ele>
        <time>2020-06-13T14:33:35Z</time>
      </trkpt>
      <trkpt lat="48.76725" lon="2.15249">
        <ele>97.23</ele>
        <time>2020-06-13T14:33:49Z</time>
      </trkpt>
      <trkpt lat="48.76719" lon="2.15278">
        <ele>96.75</ele>
        <time>2020-06-13T14:34:05Z</time>
      </trkpt>
      <trkpt lat="48.76716" lon="2.15302">
        <ele>96.75</ele>
        <time>2020-06-13T14:34:18Z</time>
      </trkpt>
      <trkpt lat="48.7671" lon="2.15332">
        <ele>96.75</ele>
        <time>2020-06-13T14:34:35Z</time>
      </trkpt>
      <trkpt lat="48.76703" lon="2.15356">
        <ele>96.75</ele>
        <time>2020-06-13T14:34:50Z</time>
      </trkpt>
      <trkpt lat="48.76693" lon="2.15379">
        <ele>96.27</ele>
        <time>2020-06-13T14:35:07Z</time>
      </trkpt>
      <trkpt lat="48.76679" lon="2.15393">
        <ele>97.23</ele>
        <time>2020-06-13T14:35:22Z</time>
      </trkpt>
      <trkpt lat="48.76666" lon="2.15417">
        <ele>97.71</ele>
        <time>2020-06-13T14:35:38Z</time>
      </trkpt>
      <trkpt lat="48.76654" lon="2.15436">
        <ele>98.19</ele>
        <time>2020-06-13T14:35:51Z</time>
      </trkpt>
      <trkpt lat="48.76646" lon="2.15459">
        <ele>98.67</ele>
        <time>2020-06-13T14:36:06Z</time>
      </trkpt>
      <trkpt lat="48.76644" lon="2.15474">
        <ele>98.19</ele>
        <time>2020-06-13T14:36:17Z</time>
      </trkpt>
      <trkpt lat="48.76647" lon="2.15501">
        <ele>96.75</ele>
        <time>2020-06-13T14:36:35Z</time>
      </trkpt>
      <trkpt lat="48.7666" lon="2.15527">
        <ele>97.23</ele>
        <time>2020-06-13T14:36:55Z</time>
      </trkpt>
      <trkpt lat="48.76663" lon="2.15531">
        <ele>96.75</ele>
        <time>2020-06-13T14:36:58Z</time>
      </trkpt>
      <trkpt lat="48.76683" lon="2.15547">
        <ele>96.75</ele>
        <time>2020-06-13T14:37:18Z</time>
      </trkpt>
      <trkpt lat="48.76691" lon="2.15554">
        <ele>96.75</ele>
        <time>2020-06-13T14:37:32Z</time>
      </trkpt>
      <trkpt lat="48.76703" lon="2.15559">
        <ele>95.79</ele>
        <time>2020-06-13T14:37:45Z</time>
      </trkpt>
      <trkpt lat="48.76713" lon="2.15565">
        <ele>96.27</ele>
        <time>2020-06-13T14:37:54Z</time>
      </trkpt>
      <trkpt lat="48.76714" lon="2.15584">
        <ele>94.35</ele>
        <time>2020-06-13T14:38:09Z</time>
      </trkpt>
      <trkpt lat="48.76714" lon="2.15597">
        <ele>94.35</ele>
        <time>2020-06-13T14:38:17Z</time>
      </trkpt>
      <trkpt lat="48.7671" lon="2.15608">
        <ele>93.39</ele>
        <time>2020-06-13T14:38:25Z</time>
      </trkpt>
      <trkpt lat="48.76702" lon="2.15625">
        <ele>92.9</ele>
        <time>2020-06-13T14:38:38Z</time>
      </trkpt>
      <trkpt lat="48.76702" lon="2.15628">
        <ele>92.42</ele>
        <time>2020-06-13T14:38:40Z</time>
      </trkpt>
      <trkpt lat="48.76703" lon="2.15659">
        <ele>91.46</ele>
        <time>2020-06-13T14:38:55Z</time>
      </trkpt>
      <trkpt lat="48.76704" lon="2.15673">
        <ele>91.46</ele>
        <time>2020-06-13T14:39:02Z</time>
      </trkpt>
      <trkpt lat="48.76704" lon="2.15679">
        <ele>90.98</ele>
        <time>2020-06-13T14:39:05Z</time>
      </trkpt>
      <trkpt lat="48.76704" lon="2.15683">
        <ele>90.98</ele>
        <time>2020-06-13T14:39:08Z</time>
      </trkpt>
      <trkpt lat="48.76704" lon="2.15708">
        <ele>90.5</ele>
        <time>2020-06-13T14:39:22Z</time>
      </trkpt>
      <trkpt lat="48.76705" lon="2.15733">
        <ele>90.5</ele>
        <time>2020-06-13T14:39:37Z</time>
      </trkpt>
      <trkpt lat="48.76698" lon="2.1576">
        <ele>90.5</ele>
        <time>2020-06-13T14:39:54Z</time>
      </trkpt>
      <trkpt lat="48.76693" lon="2.15782">
        <ele>90.98</ele>
        <time>2020-06-13T14:40:09Z</time>
      </trkpt>
      <trkpt lat="48.76686" lon="2.15808">
        <ele>90.02</ele>
        <time>2020-06-13T14:40:25Z</time>
      </trkpt>
      <trkpt lat="48.76676" lon="2.15833">
        <ele>90.02</ele>
        <time>2020-06-13T14:40:45Z</time>
      </trkpt>
      <trkpt lat="48.76674" lon="2.15835">
        <ele>90.5</ele>
        <time>2020-06-13T14:40:47Z</time>
      </trkpt>
      <trkpt lat="48.76661" lon="2.15857">
        <ele>90.02</ele>
        <time>2020-06-13T14:41:01Z</time>
      </trkpt>
      <trkpt lat="48.76646" lon="2.15874">
        <ele>90.02</ele>
        <time>2020-06-13T14:41:16Z</time>
      </trkpt>
      <trkpt lat="48.76631" lon="2.15891">
        <ele>90.02</ele>
        <time>2020-06-13T14:41:33Z</time>
      </trkpt>
      <trkpt lat="48.76619" lon="2.1591">
        <ele>89.54</ele>
        <time>2020-06-13T14:41:47Z</time>
      </trkpt>
      <trkpt lat="48.76597" lon="2.15931">
        <ele>89.54</ele>
        <time>2020-06-13T14:42:07Z</time>
      </trkpt>
      <trkpt lat="48.76593" lon="2.1593">
        <ele>89.54</ele>
        <time>2020-06-13T14:42:12Z</time>
      </trkpt>
      <trkpt lat="48.76588" lon="2.15922">
        <ele>89.54</ele>
        <time>2020-06-13T14:42:20Z</time>
      </trkpt>
      <trkpt lat="48.76576" lon="2.15894">
        <ele>90.5</ele>
        <time>2020-06-13T14:42:38Z</time>
      </trkpt>
      <trkpt lat="48.7656" lon="2.15915">
        <ele>90.5</ele>
        <time>2020-06-13T14:42:57Z</time>
      </trkpt>
      <trkpt lat="48.76554" lon="2.1592">
        <ele>90.02</ele>
        <time>2020-06-13T14:43:02Z</time>
      </trkpt>
      <trkpt lat="48.76549" lon="2.15924">
        <ele>90.98</ele>
        <time>2020-06-13T14:43:06Z</time>
      </trkpt>
      <trkpt lat="48.76547" lon="2.15929">
        <ele>90.5</ele>
        <time>2020-06-13T14:43:10Z</time>
      </trkpt>
      <trkpt lat="48.76539" lon="2.15938">
        <ele>90.02</ele>
        <time>2020-06-13T14:43:18Z</time>
      </trkpt>
      <trkpt lat="48.76523" lon="2.15969">
        <ele>90.02</ele>
        <time>2020-06-13T14:43:39Z</time>
      </trkpt>
      <trkpt lat="48.76516" lon="2.15985">
        <ele>90.02</ele>
        <time>2020-06-13T14:43:57Z</time>
      </trkpt>
      <trkpt lat="48.76516" lon="2.15988">
        <ele>90.02</ele>
        <time>2020-06-13T14:44:00Z</time>
      </trkpt>
      <trkpt lat="48.76516" lon="2.15993">
        <ele>90.02</ele>
        <time>2020-06-13T14:44:02Z</time>
      </trkpt>
      <trkpt lat="48.76517" lon="2.15995">
        <ele>90.5</ele>
        <time>2020-06-13T14:44:03Z</time>
      </trkpt>
      <trkpt lat="48.76518" lon="2.16004">
        <ele>90.02</ele>
        <time>2020-06-13T14:44:09Z</time>
      </trkpt>
      <trkpt lat="48.76519" lon="2.16006">
        <ele>90.02</ele>
        <time>2020-06-13T14:44:11Z</time>
      </trkpt>
      <trkpt lat="48.76523" lon="2.16013">
        <ele>90.5</ele>
        <time>2020-06-13T14:44:18Z</time>
      </trkpt>
      <trkpt lat="48.76533" lon="2.16031">
        <ele>90.5</ele>
        <time>2020-06-13T14:44:32Z</time>
      </trkpt>
      <trkpt lat="48.7654" lon="2.16051">
        <ele>90.98</ele>
        <time>2020-06-13T14:44:46Z</time>
      </trkpt>
      <trkpt lat="48.76538" lon="2.16057">
        <ele>90.5</ele>
        <time>2020-06-13T14:44:54Z</time>
      </trkpt>
      <trkpt lat="48.76534" lon="2.16061">
        <ele>90.02</ele>
        <time>2020-06-13T14:45:06Z</time>
      </trkpt>
      <trkpt lat="48.76534" lon="2.16064">
        <ele>90.5</ele>
        <time>2020-06-13T14:45:23Z</time>
      </trkpt>
      <trkpt lat="48.76533" lon="2.16065">
        <ele>90.02</ele>
        <time>2020-06-13T14:45:40Z</time>
      </trkpt>
      <trkpt lat="48.7653" lon="2.16068">
        <ele>90.98</ele>
        <time>2020-06-13T14:46:04Z</time>
      </trkpt>
      <trkpt lat="48.7653" lon="2.16064">
        <ele>90.98</ele>
        <time>2020-06-13T14:46:18Z</time>
      </trkpt>
      <trkpt lat="48.76531" lon="2.16062">
        <ele>90.5</ele>
        <time>2020-06-13T14:46:32Z</time>
      </trkpt>
      <trkpt lat="48.76531" lon="2.16062">
        <ele>90.5</ele>
        <time>2020-06-13T14:46:49Z</time>
      </trkpt>
      <trkpt lat="48.7653" lon="2.16062">
        <ele>90.98</ele>
        <time>2020-06-13T14:47:14Z</time>
      </trkpt>
      <trkpt lat="48.76525" lon="2.16063">
        <ele>90.98</ele>
        <time>2020-06-13T14:47:28Z</time>
      </trkpt>
      <trkpt lat="48.76524" lon="2.16064">
        <ele>90.5</ele>
        <time>2020-06-13T14:47:30Z</time>
      </trkpt>
      <trkpt lat="48.76516" lon="2.16084">
        <ele>90.5</ele>
        <time>2020-06-13T14:47:45Z</time>
      </trkpt>
      <trkpt lat="48.76516" lon="2.1609">
        <ele>90.98</ele>
        <time>2020-06-13T14:47:49Z</time>
      </trkpt>
      <trkpt lat="48.76511" lon="2.16094">
        <ele>90.98</ele>
        <time>2020-06-13T14:47:59Z</time>
      </trkpt>
      <trkpt lat="48.76506" lon="2.16095">
        <ele>90.5</ele>
        <time>2020-06-13T14:48:06Z</time>
      </trkpt>
      <trkpt lat="48.765" lon="2.16091">
        <ele>90.98</ele>
        <time>2020-06-13T14:48:14Z</time>
      </trkpt>
      <trkpt lat="48.7648" lon="2.16099">
        <ele>90.98</ele>
        <time>2020-06-13T14:48:29Z</time>
      </trkpt>
      <trkpt lat="48.76479" lon="2.16099">
        <ele>90.98</ele>
        <time>2020-06-13T14:48:30Z</time>
      </trkpt>
      <trkpt lat="48.76476" lon="2.16102">
        <ele>90.98</ele>
        <time>2020-06-13T14:48:34Z</time>
      </trkpt>
      <trkpt lat="48.76474" lon="2.16103">
        <ele>90.98</ele>
        <time>2020-06-13T14:48:35Z</time>
      </trkpt>
      <trkpt lat="48.76473" lon="2.16104">
        <ele>90.98</ele>
        <time>2020-06-13T14:48:36Z</time>
      </trkpt>
      <trkpt lat="48.76462" lon="2.16121">
        <ele>90.5</ele>
        <time>2020-06-13T14:48:51Z</time>
      </trkpt>
      <trkpt lat="48.76459" lon="2.16125">
        <ele>91.46</ele>
        <time>2020-06-13T14:48:56Z</time>
      </trkpt>
      <trkpt lat="48.76457" lon="2.16134">
        <ele>91.46</ele>
        <time>2020-06-13T14:49:02Z</time>
      </trkpt>
      <trkpt lat="48.76457" lon="2.16136">
        <ele>91.46</ele>
        <time>2020-06-13T14:49:03Z</time>
      </trkpt>
      <trkpt lat="48.76458" lon="2.16144">
        <ele>90.98</ele>
        <time>2020-06-13T14:49:16Z</time>
      </trkpt>
      <trkpt lat="48.7646" lon="2.16158">
        <ele>91.46</ele>
        <time>2020-06-13T14:49:30Z</time>
      </trkpt>
      <trkpt lat="48.76457" lon="2.16157">
        <ele>91.46</ele>
        <time>2020-06-13T14:49:59Z</time>
      </trkpt>
      <trkpt lat="48.76457" lon="2.16155">
        <ele>91.94</ele>
        <time>2020-06-13T14:50:00Z</time>
      </trkpt>
      <trkpt lat="48.76457" lon="2.16152">
        <ele>91.94</ele>
        <time>2020-06-13T14:50:01Z</time>
      </trkpt>
      <trkpt lat="48.76457" lon="2.16147">
        <ele>91.46</ele>
        <time>2020-06-13T14:50:03Z</time>
      </trkpt>
      <trkpt lat="48.76456" lon="2.16146">
        <ele>91.94</ele>
        <time>2020-06-13T14:50:04Z</time>
      </trkpt>
      <trkpt lat="48.7645" lon="2.16143">
        <ele>91.94</ele>
        <time>2020-06-13T14:50:15Z</time>
      </trkpt>
      <trkpt lat="48.76436" lon="2.16163">
        <ele>92.42</ele>
        <time>2020-06-13T14:50:31Z</time>
      </trkpt>
      <trkpt lat="48.76434" lon="2.16167">
        <ele>91.46</ele>
        <time>2020-06-13T14:50:34Z</time>
      </trkpt>
      <trkpt lat="48.76434" lon="2.16168">
        <ele>91.94</ele>
        <time>2020-06-13T14:50:35Z</time>
      </trkpt>
      <trkpt lat="48.76432" lon="2.16175">
        <ele>91.94</ele>
        <time>2020-06-13T14:50:39Z</time>
      </trkpt>
      <trkpt lat="48.7643" lon="2.16181">
        <ele>91.94</ele>
        <time>2020-06-13T14:50:44Z</time>
      </trkpt>
      <trkpt lat="48.7643" lon="2.16183">
        <ele>91.94</ele>
        <time>2020-06-13T14:50:45Z</time>
      </trkpt>
      <trkpt lat="48.76429" lon="2.16187">
        <ele>91.94</ele>
        <time>2020-06-13T14:50:48Z</time>
      </trkpt>
      <trkpt lat="48.76427" lon="2.16207">
        <ele>91.94</ele>
        <time>2020-06-13T14:51:02Z</time>
      </trkpt>
      <trkpt lat="48.76426" lon="2.16226">
        <ele>90.98</ele>
        <time>2020-06-13T14:51:12Z</time>
      </trkpt>
      <trkpt lat="48.76423" lon="2.1625">
        <ele>90.98</ele>
        <time>2020-06-13T14:51:28Z</time>
      </trkpt>
      <trkpt lat="48.76421" lon="2.16276">
        <ele>90.98</ele>
        <time>2020-06-13T14:51:44Z</time>
      </trkpt>
      <trkpt lat="48.7642" lon="2.16286">
        <ele>90.98</ele>
        <time>2020-06-13T14:51:50Z</time>
      </trkpt>
      <trkpt lat="48.7642" lon="2.16317">
        <ele>91.46</ele>
        <time>2020-06-13T14:52:06Z</time>
      </trkpt>
      <trkpt lat="48.76417" lon="2.16343">
        <ele>92.42</ele>
        <time>2020-06-13T14:52:21Z</time>
      </trkpt>
      <trkpt lat="48.76416" lon="2.16365">
        <ele>91.94</ele>
        <time>2020-06-13T14:52:33Z</time>
      </trkpt>
      <trkpt lat="48.76414" lon="2.1639">
        <ele>91.94</ele>
        <time>2020-06-13T14:52:47Z</time>
      </trkpt>
      <trkpt lat="48.76413" lon="2.16412">
        <ele>90.98</ele>
        <time>2020-06-13T14:53:03Z</time>
      </trkpt>
      <trkpt lat="48.76413" lon="2.16418">
        <ele>90.98</ele>
        <time>2020-06-13T14:53:07Z</time>
      </trkpt>
      <trkpt lat="48.76412" lon="2.16445">
        <ele>90.98</ele>
        <time>2020-06-13T14:53:21Z</time>
      </trkpt>
      <trkpt lat="48.76414" lon="2.16468">
        <ele>90.98</ele>
        <time>2020-06-13T14:53:33Z</time>
      </trkpt>
      <trkpt lat="48.76414" lon="2.16499">
        <ele>91.46</ele>
        <time>2020-06-13T14:53:49Z</time>
      </trkpt>
      <trkpt lat="48.76411" lon="2.16515">
        <ele>91.46</ele>
        <time>2020-06-13T14:54:01Z</time>
      </trkpt>
      <trkpt lat="48.76408" lon="2.1654">
        <ele>91.46</ele>
        <time>2020-06-13T14:54:15Z</time>
      </trkpt>
      <trkpt lat="48.76407" lon="2.16567">
        <ele>90.98</ele>
        <time>2020-06-13T14:54:32Z</time>
      </trkpt>
      <trkpt lat="48.76406" lon="2.16597">
        <ele>90.98</ele>
        <time>2020-06-13T14:54:48Z</time>
      </trkpt>
      <trkpt lat="48.76412" lon="2.16622">
        <ele>90.98</ele>
        <time>2020-06-13T14:55:07Z</time>
      </trkpt>
      <trkpt lat="48.76416" lon="2.16646">
        <ele>90.98</ele>
        <time>2020-06-13T14:55:23Z</time>
      </trkpt>
      <trkpt lat="48.76421" lon="2.16661">
        <ele>90.98</ele>
        <time>2020-06-13T14:55:36Z</time>
      </trkpt>
      <trkpt lat="48.76421" lon="2.16662">
        <ele>90.98</ele>
        <time>2020-06-13T14:55:37Z</time>
      </trkpt>
      <trkpt lat="48.76423" lon="2.16667">
        <ele>90.98</ele>
        <time>2020-06-13T14:55:40Z</time>
      </trkpt>
      <trkpt lat="48.76428" lon="2.16679">
        <ele>90.5</ele>
        <time>2020-06-13T14:55:49Z</time>
      </trkpt>
      <trkpt lat="48.76428" lon="2.16681">
        <ele>90.98</ele>
        <time>2020-06-13T14:55:50Z</time>
      </trkpt>
      <trkpt lat="48.76428" lon="2.16683">
        <ele>90.98</ele>
        <time>2020-06-13T14:55:51Z</time>
      </trkpt>
      <trkpt lat="48.76429" lon="2.16684">
        <ele>90.98</ele>
        <time>2020-06-13T14:55:52Z</time>
      </trkpt>
      <trkpt lat="48.76429" lon="2.16686">
        <ele>90.5</ele>
        <time>2020-06-13T14:55:53Z</time>
      </trkpt>
      <trkpt lat="48.76431" lon="2.16688">
        <ele>90.5</ele>
        <time>2020-06-13T14:55:56Z</time>
      </trkpt>
      <trkpt lat="48.76432" lon="2.16689">
        <ele>90.5</ele>
        <time>2020-06-13T14:55:57Z</time>
      </trkpt>
      <trkpt lat="48.76435" lon="2.16692">
        <ele>90.5</ele>
        <time>2020-06-13T14:56:00Z</time>
      </trkpt>
      <trkpt lat="48.76442" lon="2.16717">
        <ele>89.54</ele>
        <time>2020-06-13T14:56:16Z</time>
      </trkpt>
      <trkpt lat="48.76446" lon="2.16735">
        <ele>89.06</ele>
        <time>2020-06-13T14:56:33Z</time>
      </trkpt>
      <trkpt lat="48.76447" lon="2.16743">
        <ele>89.54</ele>
        <time>2020-06-13T14:56:44Z</time>
      </trkpt>
      <trkpt lat="48.76447" lon="2.16757">
        <ele>89.54</ele>
        <time>2020-06-13T14:56:56Z</time>
      </trkpt>
      <trkpt lat="48.76447" lon="2.16759">
        <ele>89.06</ele>
        <time>2020-06-13T14:56:57Z</time>
      </trkpt>
      <trkpt lat="48.76442" lon="2.16774">
        <ele>88.58</ele>
        <time>2020-06-13T14:57:09Z</time>
      </trkpt>
      <trkpt lat="48.76442" lon="2.1678">
        <ele>88.58</ele>
        <time>2020-06-13T14:57:28Z</time>
      </trkpt>
      <trkpt lat="48.7644" lon="2.16781">
        <ele>88.58</ele>
        <time>2020-06-13T14:57:41Z</time>
      </trkpt>
      <trkpt lat="48.76445" lon="2.16778">
        <ele>89.06</ele>
        <time>2020-06-13T14:57:57Z</time>
      </trkpt>
      <trkpt lat="48.76446" lon="2.16778">
        <ele>89.06</ele>
        <time>2020-06-13T14:58:28Z</time>
      </trkpt>
      <trkpt lat="48.76447" lon="2.16784">
        <ele>89.06</ele>
        <time>2020-06-13T14:58:31Z</time>
      </trkpt>
      <trkpt lat="48.76453" lon="2.16805">
        <ele>89.06</ele>
        <time>2020-06-13T14:58:44Z</time>
      </trkpt>
      <trkpt lat="48.7645" lon="2.168">
        <ele>89.06</ele>
        <time>2020-06-13T14:58:49Z</time>
      </trkpt>
      <trkpt lat="48.76443" lon="2.16793">
        <ele>89.06</ele>
        <time>2020-06-13T14:58:58Z</time>
      </trkpt>
      <trkpt lat="48.76427" lon="2.1678">
        <ele>89.54</ele>
        <time>2020-06-13T14:59:14Z</time>
      </trkpt>
      <trkpt lat="48.76402" lon="2.16775">
        <ele>90.5</ele>
        <time>2020-06-13T14:59:34Z</time>
      </trkpt>
      <trkpt lat="48.76388" lon="2.16769">
        <ele>91.46</ele>
        <time>2020-06-13T14:59:52Z</time>
      </trkpt>
      <trkpt lat="48.76373" lon="2.16753">
        <ele>92.9</ele>
        <time>2020-06-13T15:00:11Z</time>
      </trkpt>
      <trkpt lat="48.76363" lon="2.1676">
        <ele>93.39</ele>
        <time>2020-06-13T15:00:24Z</time>
      </trkpt>
      <trkpt lat="48.76361" lon="2.16767">
        <ele>93.87</ele>
        <time>2020-06-13T15:00:32Z</time>
      </trkpt>
      <trkpt lat="48.7636" lon="2.16769">
        <ele>93.39</ele>
        <time>2020-06-13T15:00:33Z</time>
      </trkpt>
      <trkpt lat="48.76358" lon="2.16777">
        <ele>93.39</ele>
        <time>2020-06-13T15:00:39Z</time>
      </trkpt>
      <trkpt lat="48.76362" lon="2.16783">
        <ele>93.87</ele>
        <time>2020-06-13T15:00:46Z</time>
      </trkpt>
      <trkpt lat="48.76363" lon="2.16784">
        <ele>93.87</ele>
        <time>2020-06-13T15:00:47Z</time>
      </trkpt>
      <trkpt lat="48.76359" lon="2.16796">
        <ele>93.87</ele>
        <time>2020-06-13T15:00:59Z</time>
      </trkpt>
      <trkpt lat="48.76355" lon="2.16816">
        <ele>93.87</ele>
        <time>2020-06-13T15:01:09Z</time>
      </trkpt>
      <trkpt lat="48.76351" lon="2.1682">
        <ele>93.87</ele>
        <time>2020-06-13T15:01:12Z</time>
      </trkpt>
      <trkpt lat="48.76341" lon="2.16838">
        <ele>94.83</ele>
        <time>2020-06-13T15:01:28Z</time>
      </trkpt>
      <trkpt lat="48.76331" lon="2.16827">
        <ele>94.83</ele>
        <time>2020-06-13T15:01:40Z</time>
      </trkpt>
      <trkpt lat="48.7632" lon="2.16829">
        <ele>95.31</ele>
        <time>2020-06-13T15:01:51Z</time>
      </trkpt>
      <trkpt lat="48.76319" lon="2.1683">
        <ele>94.83</ele>
        <time>2020-06-13T15:01:52Z</time>
      </trkpt>
      <trkpt lat="48.76318" lon="2.16832">
        <ele>94.35</ele>
        <time>2020-06-13T15:01:53Z</time>
      </trkpt>
      <trkpt lat="48.76317" lon="2.16834">
        <ele>94.83</ele>
        <time>2020-06-13T15:01:54Z</time>
      </trkpt>
      <trkpt lat="48.76317" lon="2.16837">
        <ele>95.31</ele>
        <time>2020-06-13T15:01:55Z</time>
      </trkpt>
      <trkpt lat="48.7631" lon="2.16857">
        <ele>94.83</ele>
        <time>2020-06-13T15:02:06Z</time>
      </trkpt>
      <trkpt lat="48.76306" lon="2.16876">
        <ele>94.83</ele>
        <time>2020-06-13T15:02:18Z</time>
      </trkpt>
      <trkpt lat="48.76299" lon="2.16891">
        <ele>94.83</ele>
        <time>2020-06-13T15:02:30Z</time>
      </trkpt>
      <trkpt lat="48.76294" lon="2.16905">
        <ele>94.83</ele>
        <time>2020-06-13T15:02:39Z</time>
      </trkpt>
      <trkpt lat="48.76293" lon="2.16906">
        <ele>94.35</ele>
        <time>2020-06-13T15:02:40Z</time>
      </trkpt>
      <trkpt lat="48.7629" lon="2.16923">
        <ele>94.83</ele>
        <time>2020-06-13T15:02:53Z</time>
      </trkpt>
      <trkpt lat="48.7629" lon="2.16925">
        <ele>94.83</ele>
        <time>2020-06-13T15:02:54Z</time>
      </trkpt>
      <trkpt lat="48.76288" lon="2.16931">
        <ele>94.83</ele>
        <time>2020-06-13T15:02:59Z</time>
      </trkpt>
      <trkpt lat="48.76287" lon="2.16934">
        <ele>94.83</ele>
        <time>2020-06-13T15:03:01Z</time>
      </trkpt>
      <trkpt lat="48.76284" lon="2.16944">
        <ele>95.31</ele>
        <time>2020-06-13T15:03:08Z</time>
      </trkpt>
      <trkpt lat="48.76283" lon="2.16946">
        <ele>95.31</ele>
        <time>2020-06-13T15:03:09Z</time>
      </trkpt>
      <trkpt lat="48.76283" lon="2.16947">
        <ele>95.31</ele>
        <time>2020-06-13T15:03:10Z</time>
      </trkpt>
      <trkpt lat="48.76282" lon="2.16949">
        <ele>95.79</ele>
        <time>2020-06-13T15:03:11Z</time>
      </trkpt>
      <trkpt lat="48.76282" lon="2.16951">
        <ele>95.79</ele>
        <time>2020-06-13T15:03:12Z</time>
      </trkpt>
      <trkpt lat="48.76282" lon="2.16952">
        <ele>95.31</ele>
        <time>2020-06-13T15:03:13Z</time>
      </trkpt>
      <trkpt lat="48.76276" lon="2.16974">
        <ele>96.27</ele>
        <time>2020-06-13T15:03:26Z</time>
      </trkpt>
      <trkpt lat="48.76273" lon="2.16992">
        <ele>97.23</ele>
        <time>2020-06-13T15:03:36Z</time>
      </trkpt>
      <trkpt lat="48.76273" lon="2.16994">
        <ele>96.75</ele>
        <time>2020-06-13T15:03:37Z</time>
      </trkpt>
      <trkpt lat="48.76272" lon="2.16995">
        <ele>97.23</ele>
        <time>2020-06-13T15:03:38Z</time>
      </trkpt>
      <trkpt lat="48.76271" lon="2.16997">
        <ele>97.23</ele>
        <time>2020-06-13T15:03:39Z</time>
      </trkpt>
      <trkpt lat="48.76271" lon="2.17004">
        <ele>97.23</ele>
        <time>2020-06-13T15:03:45Z</time>
      </trkpt>
      <trkpt lat="48.76271" lon="2.17006">
        <ele>97.23</ele>
        <time>2020-06-13T15:03:46Z</time>
      </trkpt>
      <trkpt lat="48.76264" lon="2.17035">
        <ele>97.23</ele>
        <time>2020-06-13T15:04:03Z</time>
      </trkpt>
      <trkpt lat="48.76255" lon="2.17058">
        <ele>97.23</ele>
        <time>2020-06-13T15:04:16Z</time>
      </trkpt>
      <trkpt lat="48.76254" lon="2.1706">
        <ele>97.23</ele>
        <time>2020-06-13T15:04:17Z</time>
      </trkpt>
      <trkpt lat="48.76252" lon="2.17062">
        <ele>97.23</ele>
        <time>2020-06-13T15:04:18Z</time>
      </trkpt>
      <trkpt lat="48.76249" lon="2.17074">
        <ele>96.75</ele>
        <time>2020-06-13T15:04:25Z</time>
      </trkpt>
      <trkpt lat="48.76249" lon="2.17075">
        <ele>96.75</ele>
        <time>2020-06-13T15:04:26Z</time>
      </trkpt>
      <trkpt lat="48.76248" lon="2.17077">
        <ele>96.75</ele>
        <time>2020-06-13T15:04:27Z</time>
      </trkpt>
      <trkpt lat="48.76248" lon="2.17093">
        <ele>97.23</ele>
        <time>2020-06-13T15:04:37Z</time>
      </trkpt>
      <trkpt lat="48.76248" lon="2.17098">
        <ele>96.75</ele>
        <time>2020-06-13T15:04:39Z</time>
      </trkpt>
      <trkpt lat="48.76241" lon="2.17121">
        <ele>96.75</ele>
        <time>2020-06-13T15:04:53Z</time>
      </trkpt>
      <trkpt lat="48.76233" lon="2.17141">
        <ele>97.23</ele>
        <time>2020-06-13T15:05:06Z</time>
      </trkpt>
      <trkpt lat="48.76232" lon="2.17142">
        <ele>96.75</ele>
        <time>2020-06-13T15:05:07Z</time>
      </trkpt>
      <trkpt lat="48.7623" lon="2.17163">
        <ele>97.23</ele>
        <time>2020-06-13T15:05:18Z</time>
      </trkpt>
      <trkpt lat="48.7623" lon="2.17165">
        <ele>97.23</ele>
        <time>2020-06-13T15:05:19Z</time>
      </trkpt>
      <trkpt lat="48.76237" lon="2.17194">
        <ele>96.75</ele>
        <time>2020-06-13T15:05:36Z</time>
      </trkpt>
      <trkpt lat="48.76247" lon="2.17221">
        <ele>97.23</ele>
        <time>2020-06-13T15:05:52Z</time>
      </trkpt>
      <trkpt lat="48.76255" lon="2.17245">
        <ele>96.75</ele>
        <time>2020-06-13T15:06:07Z</time>
      </trkpt>
      <trkpt lat="48.7626" lon="2.17264">
        <ele>96.75</ele>
        <time>2020-06-13T15:06:17Z</time>
      </trkpt>
      <trkpt lat="48.76262" lon="2.17272">
        <ele>96.75</ele>
        <time>2020-06-13T15:06:21Z</time>
      </trkpt>
      <trkpt lat="48.76262" lon="2.17274">
        <ele>96.27</ele>
        <time>2020-06-13T15:06:22Z</time>
      </trkpt>
      <trkpt lat="48.76262" lon="2.17276">
        <ele>96.75</ele>
        <time>2020-06-13T15:06:23Z</time>
      </trkpt>
      <trkpt lat="48.76263" lon="2.17278">
        <ele>96.75</ele>
        <time>2020-06-13T15:06:24Z</time>
      </trkpt>
      <trkpt lat="48.76263" lon="2.17279">
        <ele>96.27</ele>
        <time>2020-06-13T15:06:25Z</time>
      </trkpt>
      <trkpt lat="48.76264" lon="2.17288">
        <ele>96.75</ele>
        <time>2020-06-13T15:06:30Z</time>
      </trkpt>
      <trkpt lat="48.76267" lon="2.17315">
        <ele>95.79</ele>
        <time>2020-06-13T15:06:46Z</time>
      </trkpt>
      <trkpt lat="48.76268" lon="2.17337">
        <ele>95.79</ele>
        <time>2020-06-13T15:07:00Z</time>
      </trkpt>
      <trkpt lat="48.7627" lon="2.17358">
        <ele>95.31</ele>
        <time>2020-06-13T15:07:12Z</time>
      </trkpt>
      <trkpt lat="48.76273" lon="2.17364">
        <ele>94.83</ele>
        <time>2020-06-13T15:07:16Z</time>
      </trkpt>
      <trkpt lat="48.7627" lon="2.17379">
        <ele>95.79</ele>
        <time>2020-06-13T15:07:30Z</time>
      </trkpt>
      <trkpt lat="48.76263" lon="2.17385">
        <ele>96.27</ele>
        <time>2020-06-13T15:07:36Z</time>
      </trkpt>
      <trkpt lat="48.76262" lon="2.17387">
        <ele>95.79</ele>
        <time>2020-06-13T15:07:37Z</time>
      </trkpt>
      <trkpt lat="48.76259" lon="2.17394">
        <ele>96.27</ele>
        <time>2020-06-13T15:07:42Z</time>
      </trkpt>
      <trkpt lat="48.76251" lon="2.17412">
        <ele>97.23</ele>
        <time>2020-06-13T15:07:58Z</time>
      </trkpt>
      <trkpt lat="48.76238" lon="2.17429">
        <ele>97.23</ele>
        <time>2020-06-13T15:08:12Z</time>
      </trkpt>
      <trkpt lat="48.76235" lon="2.17438">
        <ele>99.15</ele>
        <time>2020-06-13T15:08:19Z</time>
      </trkpt>
      <trkpt lat="48.76224" lon="2.1746">
        <ele>97.71</ele>
        <time>2020-06-13T15:08:36Z</time>
      </trkpt>
      <trkpt lat="48.76216" lon="2.17481">
        <ele>98.67</ele>
        <time>2020-06-13T15:08:53Z</time>
      </trkpt>
      <trkpt lat="48.76215" lon="2.17515">
        <ele>99.15</ele>
        <time>2020-06-13T15:09:09Z</time>
      </trkpt>
      <trkpt lat="48.76213" lon="2.17522">
        <ele>99.15</ele>
        <time>2020-06-13T15:09:13Z</time>
      </trkpt>
      <trkpt lat="48.76207" lon="2.17546">
        <ele>99.15</ele>
        <time>2020-06-13T15:09:28Z</time>
      </trkpt>
      <trkpt lat="48.76199" lon="2.17562">
        <ele>99.15</ele>
        <time>2020-06-13T15:09:38Z</time>
      </trkpt>
      <trkpt lat="48.76196" lon="2.17568">
        <ele>98.67</ele>
        <time>2020-06-13T15:09:42Z</time>
      </trkpt>
      <trkpt lat="48.76188" lon="2.17587">
        <ele>98.67</ele>
        <time>2020-06-13T15:09:54Z</time>
      </trkpt>
      <trkpt lat="48.76174" lon="2.17601">
        <ele>99.63</ele>
        <time>2020-06-13T15:10:09Z</time>
      </trkpt>
      <trkpt lat="48.76169" lon="2.17627">
        <ele>100.11</ele>
        <time>2020-06-13T15:10:24Z</time>
      </trkpt>
      <trkpt lat="48.76174" lon="2.17646">
        <ele>98.67</ele>
        <time>2020-06-13T15:10:38Z</time>
      </trkpt>
      <trkpt lat="48.76175" lon="2.17651">
        <ele>98.67</ele>
        <time>2020-06-13T15:10:42Z</time>
      </trkpt>
      <trkpt lat="48.76183" lon="2.17679">
        <ele>96.75</ele>
        <time>2020-06-13T15:10:57Z</time>
      </trkpt>
      <trkpt lat="48.76187" lon="2.17692">
        <ele>95.79</ele>
        <time>2020-06-13T15:11:06Z</time>
      </trkpt>
      <trkpt lat="48.76184" lon="2.17721">
        <ele>95.31</ele>
        <time>2020-06-13T15:11:20Z</time>
      </trkpt>
      <trkpt lat="48.7618" lon="2.17726">
        <ele>95.31</ele>
        <time>2020-06-13T15:11:24Z</time>
      </trkpt>
      <trkpt lat="48.76179" lon="2.17727">
        <ele>95.31</ele>
        <time>2020-06-13T15:11:25Z</time>
      </trkpt>
      <trkpt lat="48.76177" lon="2.17746">
        <ele>95.79</ele>
        <time>2020-06-13T15:11:35Z</time>
      </trkpt>
      <trkpt lat="48.76174" lon="2.17765">
        <ele>95.31</ele>
        <time>2020-06-13T15:11:49Z</time>
      </trkpt>
      <trkpt lat="48.76168" lon="2.17781">
        <ele>96.75</ele>
        <time>2020-06-13T15:12:04Z</time>
      </trkpt>
      <trkpt lat="48.76161" lon="2.17779">
        <ele>97.71</ele>
        <time>2020-06-13T15:12:12Z</time>
      </trkpt>
      <trkpt lat="48.76161" lon="2.17792">
        <ele>97.71</ele>
        <time>2020-06-13T15:12:14Z</time>
      </trkpt>
      <trkpt lat="48.76161" lon="2.17792">
        <ele>97.71</ele>
        <time>2020-06-13T15:12:16Z</time>
      </trkpt>
      <trkpt lat="48.76157" lon="2.17794">
        <ele>97.71</ele>
        <time>2020-06-13T15:12:17Z</time>
      </trkpt>
      <trkpt lat="48.76136" lon="2.17802">
        <ele>98.19</ele>
        <time>2020-06-13T15:12:37Z</time>
      </trkpt>
      <trkpt lat="48.76116" lon="2.17798">
        <ele>99.15</ele>
        <time>2020-06-13T15:12:52Z</time>
      </trkpt>
      <trkpt lat="48.76109" lon="2.17795">
        <ele>99.15</ele>
        <time>2020-06-13T15:13:03Z</time>
      </trkpt>
      <trkpt lat="48.76097" lon="2.17789">
        <ele>101.08</ele>
        <time>2020-06-13T15:13:19Z</time>
      </trkpt>
      <trkpt lat="48.76086" lon="2.17791">
        <ele>101.56</ele>
        <time>2020-06-13T15:13:33Z</time>
      </trkpt>
      <trkpt lat="48.76077" lon="2.17798">
        <ele>103</ele>
        <time>2020-06-13T15:13:45Z</time>
      </trkpt>
      <trkpt lat="48.76069" lon="2.17811">
        <ele>104.92</ele>
        <time>2020-06-13T15:13:57Z</time>
      </trkpt>
      <trkpt lat="48.76062" lon="2.17823">
        <ele>107.32</ele>
        <time>2020-06-13T15:14:11Z</time>
      </trkpt>
      <trkpt lat="48.76054" lon="2.17833">
        <ele>110.21</ele>
        <time>2020-06-13T15:14:27Z</time>
      </trkpt>
      <trkpt lat="48.76047" lon="2.17847">
        <ele>113.57</ele>
        <time>2020-06-13T15:14:42Z</time>
      </trkpt>
      <trkpt lat="48.76043" lon="2.17857">
        <ele>115.5</ele>
        <time>2020-06-13T15:14:55Z</time>
      </trkpt>
      <trkpt lat="48.76037" lon="2.17869">
        <ele>118.38</ele>
        <time>2020-06-13T15:15:11Z</time>
      </trkpt>
      <trkpt lat="48.76031" lon="2.17883">
        <ele>121.26</ele>
        <time>2020-06-13T15:15:30Z</time>
      </trkpt>
      <trkpt lat="48.76024" lon="2.17898">
        <ele>123.67</ele>
        <time>2020-06-13T15:15:45Z</time>
      </trkpt>
      <trkpt lat="48.76021" lon="2.17901">
        <ele>123.67</ele>
        <time>2020-06-13T15:15:49Z</time>
      </trkpt>
      <trkpt lat="48.7602" lon="2.17906">
        <ele>124.15</ele>
        <time>2020-06-13T15:15:56Z</time>
      </trkpt>
      <trkpt lat="48.76017" lon="2.17916">
        <ele>126.07</ele>
        <time>2020-06-13T15:16:07Z</time>
      </trkpt>
      <trkpt lat="48.76013" lon="2.17932">
        <ele>127.51</ele>
        <time>2020-06-13T15:16:22Z</time>
      </trkpt>
      <trkpt lat="48.76013" lon="2.17934">
        <ele>127.51</ele>
        <time>2020-06-13T15:16:24Z</time>
      </trkpt>
      <trkpt lat="48.76008" lon="2.17952">
        <ele>128.47</ele>
        <time>2020-06-13T15:16:37Z</time>
      </trkpt>
      <trkpt lat="48.76002" lon="2.17964">
        <ele>129.92</ele>
        <time>2020-06-13T15:16:47Z</time>
      </trkpt>
      <trkpt lat="48.75999" lon="2.17977">
        <ele>130.88</ele>
        <time>2020-06-13T15:16:58Z</time>
      </trkpt>
      <trkpt lat="48.75996" lon="2.17994">
        <ele>131.36</ele>
        <time>2020-06-13T15:17:10Z</time>
      </trkpt>
      <trkpt lat="48.75993" lon="2.17996">
        <ele>131.84</ele>
        <time>2020-06-13T15:17:13Z</time>
      </trkpt>
      <trkpt lat="48.75983" lon="2.18008">
        <ele>132.8</ele>
        <time>2020-06-13T15:17:26Z</time>
      </trkpt>
      <trkpt lat="48.75975" lon="2.18019">
        <ele>133.76</ele>
        <time>2020-06-13T15:17:40Z</time>
      </trkpt>
      <trkpt lat="48.75965" lon="2.18025">
        <ele>135.68</ele>
        <time>2020-06-13T15:17:57Z</time>
      </trkpt>
      <trkpt lat="48.75956" lon="2.18029">
        <ele>137.13</ele>
        <time>2020-06-13T15:18:05Z</time>
      </trkpt>
      <trkpt lat="48.75943" lon="2.18045">
        <ele>138.09</ele>
        <time>2020-06-13T15:18:20Z</time>
      </trkpt>
      <trkpt lat="48.75943" lon="2.18057">
        <ele>138.09</ele>
        <time>2020-06-13T15:18:27Z</time>
      </trkpt>
      <trkpt lat="48.75941" lon="2.18058">
        <ele>138.09</ele>
        <time>2020-06-13T15:18:28Z</time>
      </trkpt>
      <trkpt lat="48.75928" lon="2.1807">
        <ele>139.05</ele>
        <time>2020-06-13T15:18:41Z</time>
      </trkpt>
      <trkpt lat="48.75923" lon="2.18087">
        <ele>139.53</ele>
        <time>2020-06-13T15:18:53Z</time>
      </trkpt>
      <trkpt lat="48.75915" lon="2.18092">
        <ele>140.01</ele>
        <time>2020-06-13T15:19:03Z</time>
      </trkpt>
      <trkpt lat="48.75901" lon="2.18101">
        <ele>140.49</ele>
        <time>2020-06-13T15:19:19Z</time>
      </trkpt>
      <trkpt lat="48.75892" lon="2.18112">
        <ele>141.45</ele>
        <time>2020-06-13T15:19:33Z</time>
      </trkpt>
      <trkpt lat="48.75881" lon="2.18136">
        <ele>141.45</ele>
        <time>2020-06-13T15:19:51Z</time>
      </trkpt>
      <trkpt lat="48.75869" lon="2.1815">
        <ele>141.45</ele>
        <time>2020-06-13T15:20:03Z</time>
      </trkpt>
      <trkpt lat="48.75868" lon="2.18156">
        <ele>141.45</ele>
        <time>2020-06-13T15:20:06Z</time>
      </trkpt>
      <trkpt lat="48.75867" lon="2.18158">
        <ele>141.93</ele>
        <time>2020-06-13T15:20:07Z</time>
      </trkpt>
      <trkpt lat="48.75866" lon="2.1816">
        <ele>141.45</ele>
        <time>2020-06-13T15:20:08Z</time>
      </trkpt>
      <trkpt lat="48.75856" lon="2.18177">
        <ele>142.89</ele>
        <time>2020-06-13T15:20:23Z</time>
      </trkpt>
      <trkpt lat="48.7585" lon="2.18195">
        <ele>139.53</ele>
        <time>2020-06-13T15:20:35Z</time>
      </trkpt>
      <trkpt lat="48.75849" lon="2.18196">
        <ele>144.34</ele>
        <time>2020-06-13T15:20:36Z</time>
      </trkpt>
      <trkpt lat="48.75848" lon="2.18199">
        <ele>141.45</ele>
        <time>2020-06-13T15:20:39Z</time>
      </trkpt>
      <trkpt lat="48.75846" lon="2.18204">
        <ele>139.53</ele>
        <time>2020-06-13T15:20:42Z</time>
      </trkpt>
      <trkpt lat="48.75845" lon="2.18206">
        <ele>141.93</ele>
        <time>2020-06-13T15:20:44Z</time>
      </trkpt>
      <trkpt lat="48.75837" lon="2.18217">
        <ele>141.45</ele>
        <time>2020-06-13T15:20:55Z</time>
      </trkpt>
      <trkpt lat="48.7583" lon="2.18226">
        <ele>141.45</ele>
        <time>2020-06-13T15:21:03Z</time>
      </trkpt>
      <trkpt lat="48.75829" lon="2.18227">
        <ele>140.97</ele>
        <time>2020-06-13T15:21:04Z</time>
      </trkpt>
      <trkpt lat="48.75827" lon="2.18228">
        <ele>140.97</ele>
        <time>2020-06-13T15:21:05Z</time>
      </trkpt>
      <trkpt lat="48.75821" lon="2.18233">
        <ele>140.97</ele>
        <time>2020-06-13T15:21:11Z</time>
      </trkpt>
      <trkpt lat="48.75812" lon="2.18257">
        <ele>140.97</ele>
        <time>2020-06-13T15:21:27Z</time>
      </trkpt>
      <trkpt lat="48.75811" lon="2.18264">
        <ele>140.97</ele>
        <time>2020-06-13T15:21:32Z</time>
      </trkpt>
      <trkpt lat="48.75799" lon="2.1828">
        <ele>140.49</ele>
        <time>2020-06-13T15:21:47Z</time>
      </trkpt>
      <trkpt lat="48.75793" lon="2.18282">
        <ele>141.45</ele>
        <time>2020-06-13T15:22:02Z</time>
      </trkpt>
      <trkpt lat="48.75792" lon="2.18282">
        <ele>141.93</ele>
        <time>2020-06-13T15:22:07Z</time>
      </trkpt>
      <trkpt lat="48.75784" lon="2.18277">
        <ele>142.41</ele>
        <time>2020-06-13T15:22:20Z</time>
      </trkpt>
      <trkpt lat="48.75773" lon="2.18263">
        <ele>144.34</ele>
        <time>2020-06-13T15:22:40Z</time>
      </trkpt>
      <trkpt lat="48.75764" lon="2.18251">
        <ele>146.74</ele>
        <time>2020-06-13T15:22:55Z</time>
      </trkpt>
      <trkpt lat="48.75758" lon="2.18228">
        <ele>146.74</ele>
        <time>2020-06-13T15:23:09Z</time>
      </trkpt>
      <trkpt lat="48.75756" lon="2.1821">
        <ele>147.22</ele>
        <time>2020-06-13T15:23:18Z</time>
      </trkpt>
      <trkpt lat="48.75754" lon="2.18196">
        <ele>147.7</ele>
        <time>2020-06-13T15:23:28Z</time>
      </trkpt>
      <trkpt lat="48.75763" lon="2.18176">
        <ele>148.18</ele>
        <time>2020-06-13T15:23:42Z</time>
      </trkpt>
      <trkpt lat="48.75763" lon="2.18155">
        <ele>148.18</ele>
        <time>2020-06-13T15:23:57Z</time>
      </trkpt>
      <trkpt lat="48.75763" lon="2.18154">
        <ele>148.18</ele>
        <time>2020-06-13T15:23:58Z</time>
      </trkpt>
      <trkpt lat="48.75755" lon="2.18138">
        <ele>148.18</ele>
        <time>2020-06-13T15:24:12Z</time>
      </trkpt>
      <trkpt lat="48.7575" lon="2.18121">
        <ele>149.14</ele>
        <time>2020-06-13T15:24:33Z</time>
      </trkpt>
      <trkpt lat="48.75737" lon="2.18109">
        <ele>148.66</ele>
        <time>2020-06-13T15:24:49Z</time>
      </trkpt>
      <trkpt lat="48.75723" lon="2.18099">
        <ele>149.14</ele>
        <time>2020-06-13T15:24:59Z</time>
      </trkpt>
      <trkpt lat="48.75721" lon="2.18096">
        <ele>149.14</ele>
        <time>2020-06-13T15:25:01Z</time>
      </trkpt>
      <trkpt lat="48.75722" lon="2.18085">
        <ele>149.14</ele>
        <time>2020-06-13T15:25:10Z</time>
      </trkpt>
      <trkpt lat="48.75726" lon="2.18069">
        <ele>149.14</ele>
        <time>2020-06-13T15:25:22Z</time>
      </trkpt>
      <trkpt lat="48.75727" lon="2.18067">
        <ele>149.62</ele>
        <time>2020-06-13T15:25:23Z</time>
      </trkpt>
      <trkpt lat="48.75733" lon="2.1804">
        <ele>149.14</ele>
        <time>2020-06-13T15:25:38Z</time>
      </trkpt>
      <trkpt lat="48.75733" lon="2.18039">
        <ele>149.14</ele>
        <time>2020-06-13T15:25:39Z</time>
      </trkpt>
      <trkpt lat="48.75741" lon="2.18021">
        <ele>148.66</ele>
        <time>2020-06-13T15:25:55Z</time>
      </trkpt>
      <trkpt lat="48.75739" lon="2.1802">
        <ele>149.62</ele>
        <time>2020-06-13T15:26:12Z</time>
      </trkpt>
      <trkpt lat="48.75741" lon="2.18014">
        <ele>149.14</ele>
        <time>2020-06-13T15:26:23Z</time>
      </trkpt>
      <trkpt lat="48.75741" lon="2.17998">
        <ele>150.1</ele>
        <time>2020-06-13T15:26:35Z</time>
      </trkpt>
      <trkpt lat="48.75733" lon="2.17993">
        <ele>149.14</ele>
        <time>2020-06-13T15:26:48Z</time>
      </trkpt>
      <trkpt lat="48.75733" lon="2.17992">
        <ele>149.14</ele>
        <time>2020-06-13T15:26:49Z</time>
      </trkpt>
      <trkpt lat="48.75723" lon="2.17988">
        <ele>150.1</ele>
        <time>2020-06-13T15:26:59Z</time>
      </trkpt>
      <trkpt lat="48.75703" lon="2.17986">
        <ele>150.58</ele>
        <time>2020-06-13T15:27:16Z</time>
      </trkpt>
      <trkpt lat="48.75685" lon="2.17987">
        <ele>150.1</ele>
        <time>2020-06-13T15:27:33Z</time>
      </trkpt>
      <trkpt lat="48.75667" lon="2.17979">
        <ele>151.06</ele>
        <time>2020-06-13T15:27:50Z</time>
      </trkpt>
      <trkpt lat="48.75663" lon="2.17978">
        <ele>150.58</ele>
        <time>2020-06-13T15:27:54Z</time>
      </trkpt>
      <trkpt lat="48.75648" lon="2.17978">
        <ele>151.06</ele>
        <time>2020-06-13T15:28:06Z</time>
      </trkpt>
      <trkpt lat="48.7563" lon="2.17977">
        <ele>151.54</ele>
        <time>2020-06-13T15:28:22Z</time>
      </trkpt>
      <trkpt lat="48.75615" lon="2.17977">
        <ele>151.06</ele>
        <time>2020-06-13T15:28:36Z</time>
      </trkpt>
      <trkpt lat="48.75598" lon="2.17974">
        <ele>151.06</ele>
        <time>2020-06-13T15:28:52Z</time>
      </trkpt>
      <trkpt lat="48.75596" lon="2.17973">
        <ele>151.06</ele>
        <time>2020-06-13T15:29:08Z</time>
      </trkpt>
      <trkpt lat="48.75593" lon="2.17975">
        <ele>151.54</ele>
        <time>2020-06-13T15:29:30Z</time>
      </trkpt>
      <trkpt lat="48.75591" lon="2.17972">
        <ele>152.03</ele>
        <time>2020-06-13T15:29:45Z</time>
      </trkpt>
      <trkpt lat="48.75588" lon="2.17969">
        <ele>151.54</ele>
        <time>2020-06-13T15:29:49Z</time>
      </trkpt>
      <trkpt lat="48.7558" lon="2.17951">
        <ele>152.03</ele>
        <time>2020-06-13T15:30:02Z</time>
      </trkpt>
      <trkpt lat="48.75579" lon="2.17929">
        <ele>152.51</ele>
        <time>2020-06-13T15:30:16Z</time>
      </trkpt>
      <trkpt lat="48.7558" lon="2.17917">
        <ele>152.99</ele>
        <time>2020-06-13T15:30:24Z</time>
      </trkpt>
      <trkpt lat="48.75592" lon="2.17895">
        <ele>152.03</ele>
        <time>2020-06-13T15:30:39Z</time>
      </trkpt>
      <trkpt lat="48.75594" lon="2.17887">
        <ele>152.51</ele>
        <time>2020-06-13T15:30:52Z</time>
      </trkpt>
      <trkpt lat="48.75594" lon="2.17882">
        <ele>152.99</ele>
        <time>2020-06-13T15:31:05Z</time>
      </trkpt>
      <trkpt lat="48.75582" lon="2.1786">
        <ele>152.99</ele>
        <time>2020-06-13T15:31:21Z</time>
      </trkpt>
      <trkpt lat="48.75571" lon="2.17854">
        <ele>152.99</ele>
        <time>2020-06-13T15:31:30Z</time>
      </trkpt>
      <trkpt lat="48.75559" lon="2.1784">
        <ele>152.99</ele>
        <time>2020-06-13T15:31:44Z</time>
      </trkpt>
      <trkpt lat="48.75554" lon="2.17835">
        <ele>153.47</ele>
        <time>2020-06-13T15:31:51Z</time>
      </trkpt>
      <trkpt lat="48.75548" lon="2.17841">
        <ele>152.99</ele>
        <time>2020-06-13T15:31:57Z</time>
      </trkpt>
      <trkpt lat="48.75537" lon="2.17865">
        <ele>152.51</ele>
        <time>2020-06-13T15:32:14Z</time>
      </trkpt>
      <trkpt lat="48.7553" lon="2.17888">
        <ele>152.51</ele>
        <time>2020-06-13T15:32:30Z</time>
      </trkpt>
      <trkpt lat="48.75526" lon="2.1792">
        <ele>152.99</ele>
        <time>2020-06-13T15:32:46Z</time>
      </trkpt>
      <trkpt lat="48.75524" lon="2.17928">
        <ele>152.51</ele>
        <time>2020-06-13T15:32:59Z</time>
      </trkpt>
      <trkpt lat="48.75524" lon="2.17928">
        <ele>152.51</ele>
        <time>2020-06-13T15:33:00Z</time>
      </trkpt>
      <trkpt lat="48.75522" lon="2.17945">
        <ele>152.51</ele>
        <time>2020-06-13T15:33:13Z</time>
      </trkpt>
      <trkpt lat="48.75519" lon="2.17953">
        <ele>152.51</ele>
        <time>2020-06-13T15:33:24Z</time>
      </trkpt>
      <trkpt lat="48.75507" lon="2.17942">
        <ele>152.51</ele>
        <time>2020-06-13T15:33:38Z</time>
      </trkpt>
      <trkpt lat="48.75504" lon="2.1794">
        <ele>152.51</ele>
        <time>2020-06-13T15:33:42Z</time>
      </trkpt>
      <trkpt lat="48.75492" lon="2.17923">
        <ele>152.51</ele>
        <time>2020-06-13T15:33:59Z</time>
      </trkpt>
      <trkpt lat="48.75492" lon="2.17915">
        <ele>152.99</ele>
        <time>2020-06-13T15:34:14Z</time>
      </trkpt>
      <trkpt lat="48.75491" lon="2.17911">
        <ele>152.99</ele>
        <time>2020-06-13T15:34:19Z</time>
      </trkpt>
      <trkpt lat="48.75485" lon="2.17906">
        <ele>152.99</ele>
        <time>2020-06-13T15:34:33Z</time>
      </trkpt>
      <trkpt lat="48.75478" lon="2.17895">
        <ele>152.99</ele>
        <time>2020-06-13T15:34:49Z</time>
      </trkpt>
      <trkpt lat="48.75466" lon="2.17872">
        <ele>153.47</ele>
        <time>2020-06-13T15:35:07Z</time>
      </trkpt>
      <trkpt lat="48.75453" lon="2.17859">
        <ele>153.95</ele>
        <time>2020-06-13T15:35:23Z</time>
      </trkpt>
      <trkpt lat="48.75437" lon="2.17842">
        <ele>153.47</ele>
        <time>2020-06-13T15:35:40Z</time>
      </trkpt>
      <trkpt lat="48.75425" lon="2.17825">
        <ele>154.43</ele>
        <time>2020-06-13T15:35:56Z</time>
      </trkpt>
      <trkpt lat="48.7541" lon="2.17805">
        <ele>154.43</ele>
        <time>2020-06-13T15:36:14Z</time>
      </trkpt>
      <trkpt lat="48.75399" lon="2.1779">
        <ele>155.39</ele>
        <time>2020-06-13T15:36:29Z</time>
      </trkpt>
      <trkpt lat="48.75393" lon="2.17776">
        <ele>155.39</ele>
        <time>2020-06-13T15:36:40Z</time>
      </trkpt>
      <trkpt lat="48.75395" lon="2.17771">
        <ele>154.43</ele>
        <time>2020-06-13T15:36:43Z</time>
      </trkpt>
      <trkpt lat="48.75395" lon="2.17768">
        <ele>154.91</ele>
        <time>2020-06-13T15:36:45Z</time>
      </trkpt>
      <trkpt lat="48.75384" lon="2.17759">
        <ele>154.91</ele>
        <time>2020-06-13T15:36:59Z</time>
      </trkpt>
      <trkpt lat="48.75382" lon="2.1776">
        <ele>155.39</ele>
        <time>2020-06-13T15:37:01Z</time>
      </trkpt>
      <trkpt lat="48.75373" lon="2.17755">
        <ele>155.39</ele>
        <time>2020-06-13T15:37:08Z</time>
      </trkpt>
      <trkpt lat="48.75362" lon="2.17734">
        <ele>154.91</ele>
        <time>2020-06-13T15:37:25Z</time>
      </trkpt>
      <trkpt lat="48.75352" lon="2.17725">
        <ele>155.39</ele>
        <time>2020-06-13T15:37:38Z</time>
      </trkpt>
      <trkpt lat="48.7535" lon="2.17722">
        <ele>155.39</ele>
        <time>2020-06-13T15:37:51Z</time>
      </trkpt>
      <trkpt lat="48.75342" lon="2.17712">
        <ele>155.39</ele>
        <time>2020-06-13T15:38:04Z</time>
      </trkpt>
      <trkpt lat="48.75329" lon="2.17696">
        <ele>155.87</ele>
        <time>2020-06-13T15:38:21Z</time>
      </trkpt>
      <trkpt lat="48.75317" lon="2.17682">
        <ele>155.87</ele>
        <time>2020-06-13T15:38:38Z</time>
      </trkpt>
      <trkpt lat="48.75298" lon="2.17667">
        <ele>155.87</ele>
        <time>2020-06-13T15:38:57Z</time>
      </trkpt>
      <trkpt lat="48.75278" lon="2.17651">
        <ele>156.35</ele>
        <time>2020-06-13T15:39:16Z</time>
      </trkpt>
      <trkpt lat="48.75265" lon="2.17643">
        <ele>156.83</ele>
        <time>2020-06-13T15:39:29Z</time>
      </trkpt>
      <trkpt lat="48.75248" lon="2.17637">
        <ele>156.83</ele>
        <time>2020-06-13T15:39:43Z</time>
      </trkpt>
      <trkpt lat="48.7524" lon="2.17635">
        <ele>156.83</ele>
        <time>2020-06-13T15:39:51Z</time>
      </trkpt>
      <trkpt lat="48.75226" lon="2.17626">
        <ele>156.83</ele>
        <time>2020-06-13T15:40:05Z</time>
      </trkpt>
      <trkpt lat="48.75209" lon="2.17618">
        <ele>156.83</ele>
        <time>2020-06-13T15:40:21Z</time>
      </trkpt>
      <trkpt lat="48.75192" lon="2.17608">
        <ele>157.31</ele>
        <time>2020-06-13T15:40:38Z</time>
      </trkpt>
      <trkpt lat="48.75176" lon="2.17599">
        <ele>157.31</ele>
        <time>2020-06-13T15:40:55Z</time>
      </trkpt>
      <trkpt lat="48.75168" lon="2.17594">
        <ele>157.31</ele>
        <time>2020-06-13T15:41:02Z</time>
      </trkpt>
      <trkpt lat="48.75166" lon="2.17592">
        <ele>157.31</ele>
        <time>2020-06-13T15:41:04Z</time>
      </trkpt>
      <trkpt lat="48.75162" lon="2.17591">
        <ele>157.31</ele>
        <time>2020-06-13T15:41:09Z</time>
      </trkpt>
      <trkpt lat="48.75143" lon="2.17573">
        <ele>156.83</ele>
        <time>2020-06-13T15:41:28Z</time>
      </trkpt>
      <trkpt lat="48.75129" lon="2.17557">
        <ele>157.31</ele>
        <time>2020-06-13T15:41:45Z</time>
      </trkpt>
      <trkpt lat="48.75128" lon="2.17555">
        <ele>157.31</ele>
        <time>2020-06-13T15:41:46Z</time>
      </trkpt>
      <trkpt lat="48.75117" lon="2.17534">
        <ele>156.83</ele>
        <time>2020-06-13T15:42:02Z</time>
      </trkpt>
      <trkpt lat="48.75107" lon="2.17505">
        <ele>157.31</ele>
        <time>2020-06-13T15:42:19Z</time>
      </trkpt>
      <trkpt lat="48.75104" lon="2.1749">
        <ele>157.79</ele>
        <time>2020-06-13T15:42:31Z</time>
      </trkpt>
      <trkpt lat="48.75102" lon="2.17475">
        <ele>157.31</ele>
        <time>2020-06-13T15:42:42Z</time>
      </trkpt>
      <trkpt lat="48.75098" lon="2.17455">
        <ele>157.79</ele>
        <time>2020-06-13T15:42:56Z</time>
      </trkpt>
      <trkpt lat="48.75092" lon="2.17433">
        <ele>157.79</ele>
        <time>2020-06-13T15:43:09Z</time>
      </trkpt>
      <trkpt lat="48.75086" lon="2.17418">
        <ele>158.27</ele>
        <time>2020-06-13T15:43:22Z</time>
      </trkpt>
      <trkpt lat="48.75083" lon="2.1741">
        <ele>157.79</ele>
        <time>2020-06-13T15:43:30Z</time>
      </trkpt>
      <trkpt lat="48.75073" lon="2.17396">
        <ele>158.27</ele>
        <time>2020-06-13T15:43:43Z</time>
      </trkpt>
      <trkpt lat="48.75069" lon="2.17392">
        <ele>158.27</ele>
        <time>2020-06-13T15:43:47Z</time>
      </trkpt>
      <trkpt lat="48.7506" lon="2.17385">
        <ele>158.75</ele>
        <time>2020-06-13T15:43:57Z</time>
      </trkpt>
      <trkpt lat="48.75045" lon="2.17376">
        <ele>158.75</ele>
        <time>2020-06-13T15:44:13Z</time>
      </trkpt>
      <trkpt lat="48.75042" lon="2.17374">
        <ele>158.27</ele>
        <time>2020-06-13T15:44:17Z</time>
      </trkpt>
      <trkpt lat="48.75038" lon="2.17375">
        <ele>159.24</ele>
        <time>2020-06-13T15:44:20Z</time>
      </trkpt>
      <trkpt lat="48.75029" lon="2.17371">
        <ele>158.75</ele>
        <time>2020-06-13T15:44:28Z</time>
      </trkpt>
      <trkpt lat="48.75028" lon="2.1737">
        <ele>158.75</ele>
        <time>2020-06-13T15:44:30Z</time>
      </trkpt>
      <trkpt lat="48.75012" lon="2.17354">
        <ele>158.75</ele>
        <time>2020-06-13T15:44:47Z</time>
      </trkpt>
      <trkpt lat="48.75" lon="2.17344">
        <ele>158.75</ele>
        <time>2020-06-13T15:45:00Z</time>
      </trkpt>
      <trkpt lat="48.74988" lon="2.17335">
        <ele>159.24</ele>
        <time>2020-06-13T15:45:14Z</time>
      </trkpt>
      <trkpt lat="48.74976" lon="2.17323">
        <ele>159.24</ele>
        <time>2020-06-13T15:45:27Z</time>
      </trkpt>
      <trkpt lat="48.74961" lon="2.17309">
        <ele>160.2</ele>
        <time>2020-06-13T15:45:43Z</time>
      </trkpt>
      <trkpt lat="48.74944" lon="2.17294">
        <ele>159.72</ele>
        <time>2020-06-13T15:45:59Z</time>
      </trkpt>
      <trkpt lat="48.74938" lon="2.17283">
        <ele>160.2</ele>
        <time>2020-06-13T15:46:10Z</time>
      </trkpt>
      <trkpt lat="48.74939" lon="2.17267">
        <ele>159.72</ele>
        <time>2020-06-13T15:46:23Z</time>
      </trkpt>
      <trkpt lat="48.74939" lon="2.17246">
        <ele>159.24</ele>
        <time>2020-06-13T15:46:38Z</time>
      </trkpt>
      <trkpt lat="48.74942" lon="2.1722">
        <ele>159.24</ele>
        <time>2020-06-13T15:46:53Z</time>
      </trkpt>
      <trkpt lat="48.74945" lon="2.17191">
        <ele>159.24</ele>
        <time>2020-06-13T15:47:09Z</time>
      </trkpt>
      <trkpt lat="48.74951" lon="2.1716">
        <ele>160.2</ele>
        <time>2020-06-13T15:47:26Z</time>
      </trkpt>
      <trkpt lat="48.74961" lon="2.1713">
        <ele>160.2</ele>
        <time>2020-06-13T15:47:44Z</time>
      </trkpt>
      <trkpt lat="48.74972" lon="2.17101">
        <ele>160.2</ele>
        <time>2020-06-13T15:48:03Z</time>
      </trkpt>
      <trkpt lat="48.74981" lon="2.17074">
        <ele>160.2</ele>
        <time>2020-06-13T15:48:20Z</time>
      </trkpt>
      <trkpt lat="48.74986" lon="2.17044">
        <ele>160.68</ele>
        <time>2020-06-13T15:48:37Z</time>
      </trkpt>
      <trkpt lat="48.74985" lon="2.1701">
        <ele>160.2</ele>
        <time>2020-06-13T15:48:56Z</time>
      </trkpt>
      <trkpt lat="48.74986" lon="2.16977">
        <ele>160.68</ele>
        <time>2020-06-13T15:49:15Z</time>
      </trkpt>
      <trkpt lat="48.74985" lon="2.16948">
        <ele>161.16</ele>
        <time>2020-06-13T15:49:32Z</time>
      </trkpt>
      <trkpt lat="48.74984" lon="2.16933">
        <ele>161.16</ele>
        <time>2020-06-13T15:49:43Z</time>
      </trkpt>
      <trkpt lat="48.7498" lon="2.16907">
        <ele>161.64</ele>
        <time>2020-06-13T15:49:57Z</time>
      </trkpt>
      <trkpt lat="48.74975" lon="2.16874">
        <ele>162.12</ele>
        <time>2020-06-13T15:50:16Z</time>
      </trkpt>
      <trkpt lat="48.74972" lon="2.1684">
        <ele>161.64</ele>
        <time>2020-06-13T15:50:36Z</time>
      </trkpt>
      <trkpt lat="48.74973" lon="2.16809">
        <ele>162.6</ele>
        <time>2020-06-13T15:50:54Z</time>
      </trkpt>
      <trkpt lat="48.74978" lon="2.16773">
        <ele>162.6</ele>
        <time>2020-06-13T15:51:13Z</time>
      </trkpt>
      <trkpt lat="48.74982" lon="2.16747">
        <ele>163.08</ele>
        <time>2020-06-13T15:51:29Z</time>
      </trkpt>
      <trkpt lat="48.7499" lon="2.16719">
        <ele>162.6</ele>
        <time>2020-06-13T15:51:46Z</time>
      </trkpt>
      <trkpt lat="48.74997" lon="2.16687">
        <ele>163.08</ele>
        <time>2020-06-13T15:52:03Z</time>
      </trkpt>
      <trkpt lat="48.75006" lon="2.16663">
        <ele>163.08</ele>
        <time>2020-06-13T15:52:20Z</time>
      </trkpt>
      <trkpt lat="48.75008" lon="2.16655">
        <ele>163.08</ele>
        <time>2020-06-13T15:52:36Z</time>
      </trkpt>
      <trkpt lat="48.75008" lon="2.16632">
        <ele>163.56</ele>
        <time>2020-06-13T15:52:51Z</time>
      </trkpt>
      <trkpt lat="48.75003" lon="2.16626">
        <ele>163.08</ele>
        <time>2020-06-13T15:53:07Z</time>
      </trkpt>
      <trkpt lat="48.75003" lon="2.16625">
        <ele>163.08</ele>
        <time>2020-06-13T15:53:09Z</time>
      </trkpt>
      <trkpt lat="48.74995" lon="2.16613">
        <ele>163.56</ele>
        <time>2020-06-13T15:53:21Z</time>
      </trkpt>
      <trkpt lat="48.74978" lon="2.16598">
        <ele>164.04</ele>
        <time>2020-06-13T15:53:38Z</time>
      </trkpt>
      <trkpt lat="48.74965" lon="2.16589">
        <ele>163.56</ele>
        <time>2020-06-13T15:53:53Z</time>
      </trkpt>
      <trkpt lat="48.74966" lon="2.16581">
        <ele>164.04</ele>
        <time>2020-06-13T15:54:02Z</time>
      </trkpt>
      <trkpt lat="48.74965" lon="2.16573">
        <ele>163.56</ele>
        <time>2020-06-13T15:54:07Z</time>
      </trkpt>
      <trkpt lat="48.74948" lon="2.16561">
        <ele>164.04</ele>
        <time>2020-06-13T15:54:22Z</time>
      </trkpt>
      <trkpt lat="48.74946" lon="2.1656">
        <ele>164.04</ele>
        <time>2020-06-13T15:54:24Z</time>
      </trkpt>
      <trkpt lat="48.7494" lon="2.16556">
        <ele>164.04</ele>
        <time>2020-06-13T15:54:30Z</time>
      </trkpt>
      <trkpt lat="48.74932" lon="2.16552">
        <ele>164.04</ele>
        <time>2020-06-13T15:54:44Z</time>
      </trkpt>
      <trkpt lat="48.74928" lon="2.16549">
        <ele>164.04</ele>
        <time>2020-06-13T15:54:48Z</time>
      </trkpt>
      <trkpt lat="48.74925" lon="2.16543">
        <ele>164.04</ele>
        <time>2020-06-13T15:54:52Z</time>
      </trkpt>
      <trkpt lat="48.74911" lon="2.16526">
        <ele>163.08</ele>
        <time>2020-06-13T15:55:07Z</time>
      </trkpt>
      <trkpt lat="48.74902" lon="2.16513">
        <ele>162.12</ele>
        <time>2020-06-13T15:55:20Z</time>
      </trkpt>
      <trkpt lat="48.74902" lon="2.16515">
        <ele>162.6</ele>
        <time>2020-06-13T15:55:41Z</time>
      </trkpt>
      <trkpt lat="48.74903" lon="2.16514">
        <ele>162.6</ele>
        <time>2020-06-13T15:55:43Z</time>
      </trkpt>
      <trkpt lat="48.74897" lon="2.16502">
        <ele>162.6</ele>
        <time>2020-06-13T15:55:55Z</time>
      </trkpt>
      <trkpt lat="48.74889" lon="2.1649">
        <ele>162.6</ele>
        <time>2020-06-13T15:56:06Z</time>
      </trkpt>
      <trkpt lat="48.74876" lon="2.16472">
        <ele>163.08</ele>
        <time>2020-06-13T15:56:23Z</time>
      </trkpt>
      <trkpt lat="48.74866" lon="2.16457">
        <ele>162.12</ele>
        <time>2020-06-13T15:56:37Z</time>
      </trkpt>
      <trkpt lat="48.74854" lon="2.16439">
        <ele>161.64</ele>
        <time>2020-06-13T15:56:52Z</time>
      </trkpt>
      <trkpt lat="48.74843" lon="2.16412">
        <ele>161.16</ele>
        <time>2020-06-13T15:57:08Z</time>
      </trkpt>
      <trkpt lat="48.74837" lon="2.16394">
        <ele>161.64</ele>
        <time>2020-06-13T15:57:22Z</time>
      </trkpt>
      <trkpt lat="48.74826" lon="2.16371">
        <ele>161.16</ele>
        <time>2020-06-13T15:57:39Z</time>
      </trkpt>
      <trkpt lat="48.74816" lon="2.16336">
        <ele>160.68</ele>
        <time>2020-06-13T15:58:00Z</time>
      </trkpt>
      <trkpt lat="48.74812" lon="2.1631">
        <ele>160.2</ele>
        <time>2020-06-13T15:58:14Z</time>
      </trkpt>
      <trkpt lat="48.7481" lon="2.16302">
        <ele>160.2</ele>
        <time>2020-06-13T15:58:29Z</time>
      </trkpt>
      <trkpt lat="48.74805" lon="2.16272">
        <ele>159.72</ele>
        <time>2020-06-13T15:58:45Z</time>
      </trkpt>
      <trkpt lat="48.74799" lon="2.16243">
        <ele>160.68</ele>
        <time>2020-06-13T15:59:01Z</time>
      </trkpt>
      <trkpt lat="48.74793" lon="2.16207">
        <ele>159.24</ele>
        <time>2020-06-13T15:59:20Z</time>
      </trkpt>
      <trkpt lat="48.74792" lon="2.16202">
        <ele>158.75</ele>
        <time>2020-06-13T15:59:28Z</time>
      </trkpt>
      <trkpt lat="48.7479" lon="2.16193">
        <ele>158.75</ele>
        <time>2020-06-13T15:59:35Z</time>
      </trkpt>
      <trkpt lat="48.74788" lon="2.16175">
        <ele>158.27</ele>
        <time>2020-06-13T15:59:49Z</time>
      </trkpt>
      <trkpt lat="48.74786" lon="2.16163">
        <ele>158.27</ele>
        <time>2020-06-13T16:00:00Z</time>
      </trkpt>
      <trkpt lat="48.74783" lon="2.16145">
        <ele>157.79</ele>
        <time>2020-06-13T16:00:11Z</time>
      </trkpt>
      <trkpt lat="48.74777" lon="2.16116">
        <ele>157.31</ele>
        <time>2020-06-13T16:00:29Z</time>
      </trkpt>
      <trkpt lat="48.74775" lon="2.16099">
        <ele>156.35</ele>
        <time>2020-06-13T16:00:43Z</time>
      </trkpt>
      <trkpt lat="48.74771" lon="2.16081">
        <ele>157.79</ele>
        <time>2020-06-13T16:00:55Z</time>
      </trkpt>
      <trkpt lat="48.74765" lon="2.16058">
        <ele>156.35</ele>
        <time>2020-06-13T16:01:10Z</time>
      </trkpt>
      <trkpt lat="48.74763" lon="2.16052">
        <ele>155.39</ele>
        <time>2020-06-13T16:01:15Z</time>
      </trkpt>
      <trkpt lat="48.74758" lon="2.1602">
        <ele>154.43</ele>
        <time>2020-06-13T16:01:35Z</time>
      </trkpt>
      <trkpt lat="48.74758" lon="2.16013">
        <ele>154.43</ele>
        <time>2020-06-13T16:01:51Z</time>
      </trkpt>
      <trkpt lat="48.74757" lon="2.16012">
        <ele>154.91</ele>
        <time>2020-06-13T16:02:07Z</time>
      </trkpt>
      <trkpt lat="48.74756" lon="2.16012">
        <ele>154.91</ele>
        <time>2020-06-13T16:02:32Z</time>
      </trkpt>
      <trkpt lat="48.74755" lon="2.16003">
        <ele>154.91</ele>
        <time>2020-06-13T16:02:44Z</time>
      </trkpt>
      <trkpt lat="48.74754" lon="2.15999">
        <ele>154.91</ele>
        <time>2020-06-13T16:02:56Z</time>
      </trkpt>
      <trkpt lat="48.74755" lon="2.15996">
        <ele>154.91</ele>
        <time>2020-06-13T16:03:16Z</time>
      </trkpt>
      <trkpt lat="48.74755" lon="2.15999">
        <ele>154.91</ele>
        <time>2020-06-13T16:03:44Z</time>
      </trkpt>
      <trkpt lat="48.74755" lon="2.1599">
        <ele>155.39</ele>
        <time>2020-06-13T16:03:57Z</time>
      </trkpt>
      <trkpt lat="48.74747" lon="2.15961">
        <ele>154.91</ele>
        <time>2020-06-13T16:04:16Z</time>
      </trkpt>
      <trkpt lat="48.74743" lon="2.15939">
        <ele>154.43</ele>
        <time>2020-06-13T16:04:30Z</time>
      </trkpt>
      <trkpt lat="48.7474" lon="2.15911">
        <ele>153.95</ele>
        <time>2020-06-13T16:04:45Z</time>
      </trkpt>
      <trkpt lat="48.74739" lon="2.15895">
        <ele>153.95</ele>
        <time>2020-06-13T16:04:59Z</time>
      </trkpt>
      <trkpt lat="48.74737" lon="2.15871">
        <ele>153.95</ele>
        <time>2020-06-13T16:05:13Z</time>
      </trkpt>
      <trkpt lat="48.74733" lon="2.1585">
        <ele>153.95</ele>
        <time>2020-06-13T16:05:26Z</time>
      </trkpt>
      <trkpt lat="48.74727" lon="2.15827">
        <ele>153.47</ele>
        <time>2020-06-13T16:05:40Z</time>
      </trkpt>
      <trkpt lat="48.74721" lon="2.15803">
        <ele>153.95</ele>
        <time>2020-06-13T16:05:55Z</time>
      </trkpt>
      <trkpt lat="48.7472" lon="2.15802">
        <ele>153.47</ele>
        <time>2020-06-13T16:05:56Z</time>
      </trkpt>
      <trkpt lat="48.74713" lon="2.15776">
        <ele>153.95</ele>
        <time>2020-06-13T16:06:14Z</time>
      </trkpt>
      <trkpt lat="48.74706" lon="2.15755">
        <ele>153.95</ele>
        <time>2020-06-13T16:06:29Z</time>
      </trkpt>
      <trkpt lat="48.74696" lon="2.15731">
        <ele>153.95</ele>
        <time>2020-06-13T16:06:47Z</time>
      </trkpt>
      <trkpt lat="48.74683" lon="2.15706">
        <ele>153.47</ele>
        <time>2020-06-13T16:07:06Z</time>
      </trkpt>
      <trkpt lat="48.74671" lon="2.1568">
        <ele>152.99</ele>
        <time>2020-06-13T16:07:24Z</time>
      </trkpt>
      <trkpt lat="48.7466" lon="2.15657">
        <ele>152.99</ele>
        <time>2020-06-13T16:07:40Z</time>
      </trkpt>
      <trkpt lat="48.74649" lon="2.15635">
        <ele>153.47</ele>
        <time>2020-06-13T16:07:55Z</time>
      </trkpt>
      <trkpt lat="48.74643" lon="2.15619">
        <ele>153.47</ele>
        <time>2020-06-13T16:08:07Z</time>
      </trkpt>
      <trkpt lat="48.74638" lon="2.15608">
        <ele>153.47</ele>
        <time>2020-06-13T16:08:15Z</time>
      </trkpt>
      <trkpt lat="48.74635" lon="2.15602">
        <ele>153.95</ele>
        <time>2020-06-13T16:08:19Z</time>
      </trkpt>
      <trkpt lat="48.74629" lon="2.15589">
        <ele>153.47</ele>
        <time>2020-06-13T16:08:33Z</time>
      </trkpt>
      <trkpt lat="48.74624" lon="2.1558">
        <ele>153.95</ele>
        <time>2020-06-13T16:08:41Z</time>
      </trkpt>
      <trkpt lat="48.74623" lon="2.15577">
        <ele>153.95</ele>
        <time>2020-06-13T16:08:44Z</time>
      </trkpt>
      <trkpt lat="48.7462" lon="2.15569">
        <ele>153.47</ele>
        <time>2020-06-13T16:08:49Z</time>
      </trkpt>
      <trkpt lat="48.74619" lon="2.15567">
        <ele>153.47</ele>
        <time>2020-06-13T16:08:51Z</time>
      </trkpt>
      <trkpt lat="48.74608" lon="2.15545">
        <ele>152.99</ele>
        <time>2020-06-13T16:09:07Z</time>
      </trkpt>
      <trkpt lat="48.74597" lon="2.15524">
        <ele>153.47</ele>
        <time>2020-06-13T16:09:21Z</time>
      </trkpt>
      <trkpt lat="48.74588" lon="2.15505">
        <ele>153.95</ele>
        <time>2020-06-13T16:09:34Z</time>
      </trkpt>
      <trkpt lat="48.7458" lon="2.1549">
        <ele>153.47</ele>
        <time>2020-06-13T16:09:45Z</time>
      </trkpt>
      <trkpt lat="48.74575" lon="2.15481">
        <ele>153.47</ele>
        <time>2020-06-13T16:09:55Z</time>
      </trkpt>
      <trkpt lat="48.74564" lon="2.15458">
        <ele>152.99</ele>
        <time>2020-06-13T16:10:12Z</time>
      </trkpt>
      <trkpt lat="48.7455" lon="2.15437">
        <ele>153.47</ele>
        <time>2020-06-13T16:10:27Z</time>
      </trkpt>
      <trkpt lat="48.74547" lon="2.15434">
        <ele>153.47</ele>
        <time>2020-06-13T16:10:31Z</time>
      </trkpt>
      <trkpt lat="48.74537" lon="2.15413">
        <ele>153.95</ele>
        <time>2020-06-13T16:10:46Z</time>
      </trkpt>
      <trkpt lat="48.74522" lon="2.15389">
        <ele>153.95</ele>
        <time>2020-06-13T16:11:04Z</time>
      </trkpt>
      <trkpt lat="48.7451" lon="2.15369">
        <ele>152.99</ele>
        <time>2020-06-13T16:11:19Z</time>
      </trkpt>
      <trkpt lat="48.74498" lon="2.15346">
        <ele>153.47</ele>
        <time>2020-06-13T16:11:36Z</time>
      </trkpt>
      <trkpt lat="48.74492" lon="2.15333">
        <ele>153.47</ele>
        <time>2020-06-13T16:11:49Z</time>
      </trkpt>
      <trkpt lat="48.7448" lon="2.15315">
        <ele>153.47</ele>
        <time>2020-06-13T16:12:04Z</time>
      </trkpt>
      <trkpt lat="48.74469" lon="2.15295">
        <ele>153.95</ele>
        <time>2020-06-13T16:12:19Z</time>
      </trkpt>
      <trkpt lat="48.74464" lon="2.15284">
        <ele>153.95</ele>
        <time>2020-06-13T16:12:30Z</time>
      </trkpt>
      <trkpt lat="48.74452" lon="2.15267">
        <ele>153.95</ele>
        <time>2020-06-13T16:12:45Z</time>
      </trkpt>
      <trkpt lat="48.74444" lon="2.15254">
        <ele>153.95</ele>
        <time>2020-06-13T16:12:55Z</time>
      </trkpt>
      <trkpt lat="48.74432" lon="2.15232">
        <ele>153.47</ele>
        <time>2020-06-13T16:13:12Z</time>
      </trkpt>
      <trkpt lat="48.74419" lon="2.15211">
        <ele>153.95</ele>
        <time>2020-06-13T16:13:29Z</time>
      </trkpt>
      <trkpt lat="48.7441" lon="2.15195">
        <ele>152.99</ele>
        <time>2020-06-13T16:13:42Z</time>
      </trkpt>
      <trkpt lat="48.744" lon="2.15177">
        <ele>152.99</ele>
        <time>2020-06-13T16:13:57Z</time>
      </trkpt>
      <trkpt lat="48.74389" lon="2.15159">
        <ele>152.99</ele>
        <time>2020-06-13T16:14:13Z</time>
      </trkpt>
      <trkpt lat="48.74377" lon="2.15143">
        <ele>153.95</ele>
        <time>2020-06-13T16:14:26Z</time>
      </trkpt>
      <trkpt lat="48.74367" lon="2.1513">
        <ele>153.95</ele>
        <time>2020-06-13T16:14:40Z</time>
      </trkpt>
      <trkpt lat="48.74362" lon="2.15114">
        <ele>153.47</ele>
        <time>2020-06-13T16:14:54Z</time>
      </trkpt>
      <trkpt lat="48.74353" lon="2.15099">
        <ele>153.95</ele>
        <time>2020-06-13T16:15:08Z</time>
      </trkpt>
      <trkpt lat="48.74342" lon="2.15092">
        <ele>153.47</ele>
        <time>2020-06-13T16:15:20Z</time>
      </trkpt>
      <trkpt lat="48.74339" lon="2.1509">
        <ele>152.99</ele>
        <time>2020-06-13T16:15:25Z</time>
      </trkpt>
      <trkpt lat="48.74333" lon="2.1508">
        <ele>153.47</ele>
        <time>2020-06-13T16:15:34Z</time>
      </trkpt>
      <trkpt lat="48.74324" lon="2.15067">
        <ele>152.99</ele>
        <time>2020-06-13T16:15:45Z</time>
      </trkpt>
      <trkpt lat="48.74317" lon="2.15044">
        <ele>152.99</ele>
        <time>2020-06-13T16:16:00Z</time>
      </trkpt>
      <trkpt lat="48.74309" lon="2.15021">
        <ele>153.47</ele>
        <time>2020-06-13T16:16:17Z</time>
      </trkpt>
      <trkpt lat="48.74307" lon="2.15015">
        <ele>154.43</ele>
        <time>2020-06-13T16:16:22Z</time>
      </trkpt>
      <trkpt lat="48.7429" lon="2.14999">
        <ele>153.47</ele>
        <time>2020-06-13T16:16:39Z</time>
      </trkpt>
      <trkpt lat="48.74275" lon="2.14993">
        <ele>153.95</ele>
        <time>2020-06-13T16:16:53Z</time>
      </trkpt>
      <trkpt lat="48.74259" lon="2.14993">
        <ele>153.95</ele>
        <time>2020-06-13T16:17:08Z</time>
      </trkpt>
      <trkpt lat="48.7424" lon="2.14989">
        <ele>154.43</ele>
        <time>2020-06-13T16:17:25Z</time>
      </trkpt>
      <trkpt lat="48.74229" lon="2.1499">
        <ele>155.39</ele>
        <time>2020-06-13T16:17:36Z</time>
      </trkpt>
      <trkpt lat="48.74219" lon="2.14991">
        <ele>155.39</ele>
        <time>2020-06-13T16:17:45Z</time>
      </trkpt>
      <trkpt lat="48.74203" lon="2.14997">
        <ele>154.43</ele>
        <time>2020-06-13T16:17:59Z</time>
      </trkpt>
      <trkpt lat="48.74186" lon="2.15007">
        <ele>153.95</ele>
        <time>2020-06-13T16:18:16Z</time>
      </trkpt>
      <trkpt lat="48.74166" lon="2.15018">
        <ele>153.47</ele>
        <time>2020-06-13T16:18:35Z</time>
      </trkpt>
      <trkpt lat="48.74149" lon="2.15031">
        <ele>152.99</ele>
        <time>2020-06-13T16:18:52Z</time>
      </trkpt>
      <trkpt lat="48.74135" lon="2.15039">
        <ele>152.51</ele>
        <time>2020-06-13T16:19:05Z</time>
      </trkpt>
      <trkpt lat="48.74122" lon="2.15046">
        <ele>152.99</ele>
        <time>2020-06-13T16:19:18Z</time>
      </trkpt>
      <trkpt lat="48.74107" lon="2.15058">
        <ele>152.51</ele>
        <time>2020-06-13T16:19:33Z</time>
      </trkpt>
      <trkpt lat="48.74091" lon="2.15071">
        <ele>152.03</ele>
        <time>2020-06-13T16:19:49Z</time>
      </trkpt>
      <trkpt lat="48.74076" lon="2.15082">
        <ele>152.51</ele>
        <time>2020-06-13T16:20:05Z</time>
      </trkpt>
      <trkpt lat="48.74057" lon="2.15095">
        <ele>152.51</ele>
        <time>2020-06-13T16:20:23Z</time>
      </trkpt>
      <trkpt lat="48.74042" lon="2.15107">
        <ele>152.51</ele>
        <time>2020-06-13T16:20:39Z</time>
      </trkpt>
      <trkpt lat="48.74024" lon="2.15119">
        <ele>153.95</ele>
        <time>2020-06-13T16:20:57Z</time>
      </trkpt>
      <trkpt lat="48.7401" lon="2.1513">
        <ele>153.95</ele>
        <time>2020-06-13T16:21:13Z</time>
      </trkpt>
      <trkpt lat="48.73992" lon="2.15147">
        <ele>155.39</ele>
        <time>2020-06-13T16:21:33Z</time>
      </trkpt>
      <trkpt lat="48.73974" lon="2.15161">
        <ele>154.43</ele>
        <time>2020-06-13T16:21:51Z</time>
      </trkpt>
      <trkpt lat="48.73957" lon="2.15179">
        <ele>153.95</ele>
        <time>2020-06-13T16:22:11Z</time>
      </trkpt>
      <trkpt lat="48.73938" lon="2.15192">
        <ele>153.95</ele>
        <time>2020-06-13T16:22:29Z</time>
      </trkpt>
      <trkpt lat="48.73921" lon="2.15207">
        <ele>154.91</ele>
        <time>2020-06-13T16:22:48Z</time>
      </trkpt>
      <trkpt lat="48.73905" lon="2.15221">
        <ele>154.91</ele>
        <time>2020-06-13T16:23:05Z</time>
      </trkpt>
      <trkpt lat="48.73895" lon="2.15234">
        <ele>154.91</ele>
        <time>2020-06-13T16:23:21Z</time>
      </trkpt>
      <trkpt lat="48.73884" lon="2.15242">
        <ele>154.91</ele>
        <time>2020-06-13T16:23:38Z</time>
      </trkpt>
      <trkpt lat="48.73873" lon="2.15254">
        <ele>154.91</ele>
        <time>2020-06-13T16:23:50Z</time>
      </trkpt>
      <trkpt lat="48.73858" lon="2.15266">
        <ele>154.91</ele>
        <time>2020-06-13T16:24:06Z</time>
      </trkpt>
      <trkpt lat="48.73839" lon="2.15286">
        <ele>154.91</ele>
        <time>2020-06-13T16:24:25Z</time>
      </trkpt>
      <trkpt lat="48.73824" lon="2.15299">
        <ele>156.35</ele>
        <time>2020-06-13T16:24:40Z</time>
      </trkpt>
      <trkpt lat="48.73817" lon="2.15306">
        <ele>154.91</ele>
        <time>2020-06-13T16:24:47Z</time>
      </trkpt>
      <trkpt lat="48.738" lon="2.15325">
        <ele>153.95</ele>
        <time>2020-06-13T16:25:05Z</time>
      </trkpt>
      <trkpt lat="48.7378" lon="2.15343">
        <ele>152.99</ele>
        <time>2020-06-13T16:25:25Z</time>
      </trkpt>
      <trkpt lat="48.7376" lon="2.15362">
        <ele>152.51</ele>
        <time>2020-06-13T16:25:44Z</time>
      </trkpt>
      <trkpt lat="48.73746" lon="2.15377">
        <ele>152.51</ele>
        <time>2020-06-13T16:25:59Z</time>
      </trkpt>
      <trkpt lat="48.73736" lon="2.15395">
        <ele>152.03</ele>
        <time>2020-06-13T16:26:13Z</time>
      </trkpt>
      <trkpt lat="48.73734" lon="2.15396">
        <ele>152.51</ele>
        <time>2020-06-13T16:26:27Z</time>
      </trkpt>
      <trkpt lat="48.73732" lon="2.15397">
        <ele>152.51</ele>
        <time>2020-06-13T16:26:30Z</time>
      </trkpt>
      <trkpt lat="48.73729" lon="2.15403">
        <ele>152.03</ele>
        <time>2020-06-13T16:26:35Z</time>
      </trkpt>
      <trkpt lat="48.73726" lon="2.15404">
        <ele>152.51</ele>
        <time>2020-06-13T16:26:38Z</time>
      </trkpt>
      <trkpt lat="48.73721" lon="2.15412">
        <ele>152.51</ele>
        <time>2020-06-13T16:26:52Z</time>
      </trkpt>
      <trkpt lat="48.73711" lon="2.15425">
        <ele>152.99</ele>
        <time>2020-06-13T16:27:04Z</time>
      </trkpt>
      <trkpt lat="48.73699" lon="2.1544">
        <ele>153.47</ele>
        <time>2020-06-13T16:27:18Z</time>
      </trkpt>
      <trkpt lat="48.73684" lon="2.15461">
        <ele>153.95</ele>
        <time>2020-06-13T16:27:36Z</time>
      </trkpt>
      <trkpt lat="48.73683" lon="2.15462">
        <ele>153.95</ele>
        <time>2020-06-13T16:27:37Z</time>
      </trkpt>
      <trkpt lat="48.73669" lon="2.15481">
        <ele>154.43</ele>
        <time>2020-06-13T16:27:54Z</time>
      </trkpt>
      <trkpt lat="48.73655" lon="2.155">
        <ele>154.91</ele>
        <time>2020-06-13T16:28:12Z</time>
      </trkpt>
      <trkpt lat="48.73641" lon="2.15522">
        <ele>155.39</ele>
        <time>2020-06-13T16:28:30Z</time>
      </trkpt>
      <trkpt lat="48.73627" lon="2.15547">
        <ele>156.35</ele>
        <time>2020-06-13T16:28:49Z</time>
      </trkpt>
      <trkpt lat="48.73618" lon="2.15567">
        <ele>155.39</ele>
        <time>2020-06-13T16:29:04Z</time>
      </trkpt>
      <trkpt lat="48.73608" lon="2.1559">
        <ele>156.35</ele>
        <time>2020-06-13T16:29:21Z</time>
      </trkpt>
      <trkpt lat="48.73601" lon="2.15611">
        <ele>156.35</ele>
        <time>2020-06-13T16:29:35Z</time>
      </trkpt>
      <trkpt lat="48.73595" lon="2.15637">
        <ele>156.35</ele>
        <time>2020-06-13T16:29:51Z</time>
      </trkpt>
      <trkpt lat="48.73589" lon="2.15664">
        <ele>157.31</ele>
        <time>2020-06-13T16:30:09Z</time>
      </trkpt>
      <trkpt lat="48.73582" lon="2.1569">
        <ele>156.35</ele>
        <time>2020-06-13T16:30:26Z</time>
      </trkpt>
      <trkpt lat="48.73578" lon="2.15715">
        <ele>156.35</ele>
        <time>2020-06-13T16:30:41Z</time>
      </trkpt>
      <trkpt lat="48.73572" lon="2.1574">
        <ele>155.39</ele>
        <time>2020-06-13T16:30:57Z</time>
      </trkpt>
      <trkpt lat="48.73567" lon="2.15765">
        <ele>155.87</ele>
        <time>2020-06-13T16:31:13Z</time>
      </trkpt>
      <trkpt lat="48.73563" lon="2.15784">
        <ele>155.87</ele>
        <time>2020-06-13T16:31:26Z</time>
      </trkpt>
      <trkpt lat="48.73558" lon="2.15804">
        <ele>156.35</ele>
        <time>2020-06-13T16:31:39Z</time>
      </trkpt>
      <trkpt lat="48.73552" lon="2.15826">
        <ele>156.83</ele>
        <time>2020-06-13T16:31:54Z</time>
      </trkpt>
      <trkpt lat="48.73546" lon="2.15855">
        <ele>156.83</ele>
        <time>2020-06-13T16:32:12Z</time>
      </trkpt>
      <trkpt lat="48.73539" lon="2.15882">
        <ele>157.31</ele>
        <time>2020-06-13T16:32:29Z</time>
      </trkpt>
      <trkpt lat="48.7353" lon="2.15911">
        <ele>156.83</ele>
        <time>2020-06-13T16:32:48Z</time>
      </trkpt>
      <trkpt lat="48.73521" lon="2.15939">
        <ele>156.83</ele>
        <time>2020-06-13T16:33:06Z</time>
      </trkpt>
      <trkpt lat="48.73512" lon="2.15969">
        <ele>156.35</ele>
        <time>2020-06-13T16:33:25Z</time>
      </trkpt>
      <trkpt lat="48.73503" lon="2.15995">
        <ele>156.83</ele>
        <time>2020-06-13T16:33:43Z</time>
      </trkpt>
      <trkpt lat="48.73495" lon="2.16019">
        <ele>156.35</ele>
        <time>2020-06-13T16:33:58Z</time>
      </trkpt>
      <trkpt lat="48.73486" lon="2.16049">
        <ele>156.83</ele>
        <time>2020-06-13T16:34:17Z</time>
      </trkpt>
      <trkpt lat="48.73475" lon="2.16082">
        <ele>156.35</ele>
        <time>2020-06-13T16:34:38Z</time>
      </trkpt>
      <trkpt lat="48.73467" lon="2.16104">
        <ele>156.83</ele>
        <time>2020-06-13T16:34:53Z</time>
      </trkpt>
      <trkpt lat="48.7346" lon="2.16129">
        <ele>156.83</ele>
        <time>2020-06-13T16:35:09Z</time>
      </trkpt>
      <trkpt lat="48.7345" lon="2.16157">
        <ele>157.31</ele>
        <time>2020-06-13T16:35:27Z</time>
      </trkpt>
      <trkpt lat="48.73444" lon="2.16171">
        <ele>156.83</ele>
        <time>2020-06-13T16:35:42Z</time>
      </trkpt>
      <trkpt lat="48.73443" lon="2.16168">
        <ele>157.31</ele>
        <time>2020-06-13T16:36:03Z</time>
      </trkpt>
      <trkpt lat="48.73441" lon="2.16185">
        <ele>156.83</ele>
        <time>2020-06-13T16:36:18Z</time>
      </trkpt>
      <trkpt lat="48.7344" lon="2.16186">
        <ele>156.83</ele>
        <time>2020-06-13T16:36:19Z</time>
      </trkpt>
      <trkpt lat="48.7343" lon="2.16205">
        <ele>156.83</ele>
        <time>2020-06-13T16:36:36Z</time>
      </trkpt>
      <trkpt lat="48.73429" lon="2.16206">
        <ele>157.31</ele>
        <time>2020-06-13T16:36:47Z</time>
      </trkpt>
      <trkpt lat="48.73426" lon="2.16212">
        <ele>156.83</ele>
        <time>2020-06-13T16:37:01Z</time>
      </trkpt>
      <trkpt lat="48.73423" lon="2.1622">
        <ele>156.83</ele>
        <time>2020-06-13T16:37:11Z</time>
      </trkpt>
      <trkpt lat="48.73416" lon="2.16255">
        <ele>156.83</ele>
        <time>2020-06-13T16:37:31Z</time>
      </trkpt>
      <trkpt lat="48.73408" lon="2.1628">
        <ele>155.87</ele>
        <time>2020-06-13T16:37:47Z</time>
      </trkpt>
      <trkpt lat="48.73402" lon="2.16305">
        <ele>155.87</ele>
        <time>2020-06-13T16:38:02Z</time>
      </trkpt>
      <trkpt lat="48.73395" lon="2.1633">
        <ele>155.87</ele>
        <time>2020-06-13T16:38:18Z</time>
      </trkpt>
      <trkpt lat="48.73387" lon="2.16349">
        <ele>155.87</ele>
        <time>2020-06-13T16:38:31Z</time>
      </trkpt>
      <trkpt lat="48.73384" lon="2.16365">
        <ele>155.87</ele>
        <time>2020-06-13T16:38:41Z</time>
      </trkpt>
      <trkpt lat="48.73375" lon="2.16382">
        <ele>155.87</ele>
        <time>2020-06-13T16:38:54Z</time>
      </trkpt>
      <trkpt lat="48.7337" lon="2.16393">
        <ele>155.39</ele>
        <time>2020-06-13T16:39:02Z</time>
      </trkpt>
      <trkpt lat="48.73365" lon="2.16393">
        <ele>155.87</ele>
        <time>2020-06-13T16:39:14Z</time>
      </trkpt>
      <trkpt lat="48.73366" lon="2.16393">
        <ele>155.39</ele>
        <time>2020-06-13T16:39:35Z</time>
      </trkpt>
      <trkpt lat="48.73359" lon="2.16393">
        <ele>155.87</ele>
        <time>2020-06-13T16:39:52Z</time>
      </trkpt>
      <trkpt lat="48.7335" lon="2.16391">
        <ele>154.91</ele>
        <time>2020-06-13T16:40:06Z</time>
      </trkpt>
      <trkpt lat="48.73338" lon="2.16389">
        <ele>155.87</ele>
        <time>2020-06-13T16:40:19Z</time>
      </trkpt>
      <trkpt lat="48.73319" lon="2.16386">
        <ele>156.35</ele>
        <time>2020-06-13T16:40:36Z</time>
      </trkpt>
      <trkpt lat="48.73304" lon="2.16384">
        <ele>155.39</ele>
        <time>2020-06-13T16:40:50Z</time>
      </trkpt>
      <trkpt lat="48.73288" lon="2.16383">
        <ele>154.43</ele>
        <time>2020-06-13T16:41:05Z</time>
      </trkpt>
      <trkpt lat="48.73279" lon="2.16382">
        <ele>154.91</ele>
        <time>2020-06-13T16:41:13Z</time>
      </trkpt>
      <trkpt lat="48.73271" lon="2.16382">
        <ele>154.91</ele>
        <time>2020-06-13T16:41:21Z</time>
      </trkpt>
      <trkpt lat="48.73255" lon="2.16379">
        <ele>157.31</ele>
        <time>2020-06-13T16:41:36Z</time>
      </trkpt>
      <trkpt lat="48.7324" lon="2.16376">
        <ele>156.83</ele>
        <time>2020-06-13T16:41:50Z</time>
      </trkpt>
      <trkpt lat="48.73219" lon="2.16373">
        <ele>156.83</ele>
        <time>2020-06-13T16:42:08Z</time>
      </trkpt>
      <trkpt lat="48.732" lon="2.16373">
        <ele>156.35</ele>
        <time>2020-06-13T16:42:26Z</time>
      </trkpt>
      <trkpt lat="48.73181" lon="2.1637">
        <ele>156.83</ele>
        <time>2020-06-13T16:42:42Z</time>
      </trkpt>
      <trkpt lat="48.73166" lon="2.16367">
        <ele>154.91</ele>
        <time>2020-06-13T16:42:57Z</time>
      </trkpt>
      <trkpt lat="48.73152" lon="2.16361">
        <ele>157.79</ele>
        <time>2020-06-13T16:43:11Z</time>
      </trkpt>
      <trkpt lat="48.7314" lon="2.16359">
        <ele>156.83</ele>
        <time>2020-06-13T16:43:24Z</time>
      </trkpt>
      <trkpt lat="48.73138" lon="2.16359">
        <ele>156.35</ele>
        <time>2020-06-13T16:43:26Z</time>
      </trkpt>
      <trkpt lat="48.73126" lon="2.16358">
        <ele>157.31</ele>
        <time>2020-06-13T16:43:37Z</time>
      </trkpt>
      <trkpt lat="48.73108" lon="2.16357">
        <ele>157.31</ele>
        <time>2020-06-13T16:43:54Z</time>
      </trkpt>
      <trkpt lat="48.73092" lon="2.16355">
        <ele>157.31</ele>
        <time>2020-06-13T16:44:10Z</time>
      </trkpt>
    </trkseg>
  </trk>
</gpx>